<?xml version="1.0" encoding="UTF-8" standalone="no" ?>
<gpx xmlns="http://www.topografix.com/GPX/1/1" xmlns:xsi="http://www.w3.org/2001/XMLSchema-instance" xsi:schemaLocation="http://www.topografix.com/GPX/1/1 http://www.topografix.com/GPX/1/1/gpx.xsd" version="1.1" creator="VisuGPX - https://www.visugpx.com">
  <metadata>
    <name>VTTSO43K657M</name>
  </metadata>
  <trk>
    <name><![CDATA[La Chapelle-de-Guinchay VTT]]></name>
    <extensions>
      <line xmlns="http://www.topografix.com/GPX/gpx_style/0/2">
        <color>0000FF</color>
        <width>4</width>
      </line>
    </extensions>
    <trkseg>
      <trkpt lat="46.21237" lon="4.75642">
        <ele>193.8</ele>
        <time>2021-10-23T12:37:48.000Z</time>
      </trkpt>
      <trkpt lat="46.21252" lon="4.7563">
        <ele>193.9</ele>
      </trkpt>
      <trkpt lat="46.2128" lon="4.75649">
        <ele>192.3</ele>
        <time>2021-10-23T12:37:48.000Z</time>
      </trkpt>
      <trkpt lat="46.21312" lon="4.75669">
        <ele>187.6</ele>
        <time>2021-10-23T12:38:32.000Z</time>
      </trkpt>
      <trkpt lat="46.21349" lon="4.75695">
        <ele>192.5</ele>
      </trkpt>
      <trkpt lat="46.21388" lon="4.7573">
        <ele>193</ele>
        <time>2021-10-23T12:38:35.000Z</time>
      </trkpt>
      <trkpt lat="46.21426" lon="4.75685">
        <ele>193.8</ele>
        <time>2021-10-23T12:38:39.000Z</time>
      </trkpt>
      <trkpt lat="46.21476" lon="4.75635">
        <ele>194.9</ele>
        <time>2021-10-23T12:38:44.000Z</time>
      </trkpt>
      <trkpt lat="46.21488" lon="4.75618">
        <ele>194.80000305176</ele>
        <time>2021-10-23T12:38:59.000Z</time>
      </trkpt>
      <trkpt lat="46.21507" lon="4.75599">
        <ele>196</ele>
        <time>2021-10-23T12:39:07.000Z</time>
      </trkpt>
      <trkpt lat="46.2153" lon="4.75571">
        <ele>198</ele>
        <time>2021-10-23T12:39:13.000Z</time>
      </trkpt>
      <trkpt lat="46.21543" lon="4.75539">
        <ele>199.60000610352</ele>
        <time>2021-10-23T12:39:18.000Z</time>
      </trkpt>
      <trkpt lat="46.2155" lon="4.7551">
        <ele>199.19999694824</ele>
        <time>2021-10-23T12:39:22.000Z</time>
      </trkpt>
      <trkpt lat="46.21567" lon="4.75393">
        <ele>197.19999694824</ele>
        <time>2021-10-23T12:39:37.000Z</time>
      </trkpt>
      <trkpt lat="46.21616" lon="4.753">
        <ele>197.19999694824</ele>
        <time>2021-10-23T12:39:52.000Z</time>
      </trkpt>
      <trkpt lat="46.21676" lon="4.75216">
        <ele>199.19999694824</ele>
        <time>2021-10-23T12:40:08.000Z</time>
      </trkpt>
      <trkpt lat="46.21701" lon="4.75133">
        <ele>198</ele>
        <time>2021-10-23T12:40:20.000Z</time>
      </trkpt>
      <trkpt lat="46.21714" lon="4.7511">
        <ele>197.80000305176</ele>
        <time>2021-10-23T12:40:24.000Z</time>
      </trkpt>
      <trkpt lat="46.21759" lon="4.75004">
        <ele>199.60000610352</ele>
        <time>2021-10-23T12:40:41.000Z</time>
      </trkpt>
      <trkpt lat="46.21804" lon="4.74895">
        <ele>200</ele>
        <time>2021-10-23T12:40:58.000Z</time>
      </trkpt>
      <trkpt lat="46.21815" lon="4.7487">
        <ele>201</ele>
        <time>2021-10-23T12:41:02.000Z</time>
      </trkpt>
      <trkpt lat="46.21841" lon="4.74857">
        <ele>201.39999389648</ele>
        <time>2021-10-23T12:41:08.000Z</time>
      </trkpt>
      <trkpt lat="46.21914" lon="4.74891">
        <ele>204.19999694824</ele>
        <time>2021-10-23T12:41:23.000Z</time>
      </trkpt>
      <trkpt lat="46.21935" lon="4.74885">
        <ele>205</ele>
        <time>2021-10-23T12:41:28.000Z</time>
      </trkpt>
      <trkpt lat="46.21942" lon="4.74879">
        <ele>205.39999389648</ele>
        <time>2021-10-23T12:41:30.000Z</time>
      </trkpt>
      <trkpt lat="46.2197" lon="4.74831">
        <ele>205.80000305176</ele>
        <time>2021-10-23T12:41:40.000Z</time>
      </trkpt>
      <trkpt lat="46.2202" lon="4.74736">
        <ele>207</ele>
        <time>2021-10-23T12:41:58.000Z</time>
      </trkpt>
      <trkpt lat="46.22046" lon="4.74695">
        <ele>207.80000305176</ele>
        <time>2021-10-23T12:42:07.000Z</time>
      </trkpt>
      <trkpt lat="46.22076" lon="4.74663">
        <ele>208.80000305176</ele>
        <time>2021-10-23T12:42:16.000Z</time>
      </trkpt>
      <trkpt lat="46.22091" lon="4.74626">
        <ele>209.39999389648</ele>
        <time>2021-10-23T12:42:23.000Z</time>
      </trkpt>
      <trkpt lat="46.22111" lon="4.74622">
        <ele>211.19999694824</ele>
        <time>2021-10-23T12:42:29.000Z</time>
      </trkpt>
      <trkpt lat="46.22143" lon="4.74678">
        <ele>217.39999389648</ele>
        <time>2021-10-23T12:42:44.000Z</time>
      </trkpt>
      <trkpt lat="46.22153" lon="4.74668">
        <ele>218.19999694824</ele>
        <time>2021-10-23T12:42:50.000Z</time>
      </trkpt>
      <trkpt lat="46.22168" lon="4.74618">
        <ele>218.39999389648</ele>
        <time>2021-10-23T12:43:00.000Z</time>
      </trkpt>
      <trkpt lat="46.22147" lon="4.74559">
        <ele>212.80000305176</ele>
        <time>2021-10-23T12:43:09.000Z</time>
      </trkpt>
      <trkpt lat="46.22146" lon="4.74539">
        <ele>211.39999389648</ele>
        <time>2021-10-23T12:43:11.000Z</time>
      </trkpt>
      <trkpt lat="46.22149" lon="4.7451">
        <ele>209.39999389648</ele>
        <time>2021-10-23T12:43:14.000Z</time>
      </trkpt>
      <trkpt lat="46.22147" lon="4.74472">
        <ele>207.80000305176</ele>
        <time>2021-10-23T12:43:21.000Z</time>
      </trkpt>
      <trkpt lat="46.22147" lon="4.74469">
        <ele>207.80000305176</ele>
        <time>2021-10-23T12:43:27.000Z</time>
      </trkpt>
      <trkpt lat="46.22142" lon="4.74457">
        <ele>207</ele>
        <time>2021-10-23T12:43:32.000Z</time>
      </trkpt>
      <trkpt lat="46.22086" lon="4.74423">
        <ele>205</ele>
        <time>2021-10-23T12:43:47.000Z</time>
      </trkpt>
      <trkpt lat="46.22064" lon="4.74409">
        <ele>204.60000610352</ele>
        <time>2021-10-23T12:43:53.000Z</time>
      </trkpt>
      <trkpt lat="46.22065" lon="4.74398">
        <ele>204.60000610352</ele>
        <time>2021-10-23T12:43:57.000Z</time>
      </trkpt>
      <trkpt lat="46.22082" lon="4.74375">
        <ele>205</ele>
        <time>2021-10-23T12:44:02.000Z</time>
      </trkpt>
      <trkpt lat="46.22092" lon="4.7436">
        <ele>205</ele>
        <time>2021-10-23T12:44:05.000Z</time>
      </trkpt>
      <trkpt lat="46.22101" lon="4.74341">
        <ele>205.80000305176</ele>
        <time>2021-10-23T12:44:08.000Z</time>
      </trkpt>
      <trkpt lat="46.22108" lon="4.74329">
        <ele>206</ele>
        <time>2021-10-23T12:44:10.000Z</time>
      </trkpt>
      <trkpt lat="46.22114" lon="4.74309">
        <ele>206.19999694824</ele>
        <time>2021-10-23T12:44:13.000Z</time>
      </trkpt>
      <trkpt lat="46.22163" lon="4.74185">
        <ele>204.19999694824</ele>
        <time>2021-10-23T12:44:31.000Z</time>
      </trkpt>
      <trkpt lat="46.22223" lon="4.74031">
        <ele>206.19999694824</ele>
        <time>2021-10-23T12:44:55.000Z</time>
      </trkpt>
      <trkpt lat="46.2222" lon="4.74009">
        <ele>207</ele>
        <time>2021-10-23T12:44:59.000Z</time>
      </trkpt>
      <trkpt lat="46.22219" lon="4.73995">
        <ele>207.39999389648</ele>
        <time>2021-10-23T12:45:01.000Z</time>
      </trkpt>
      <trkpt lat="46.22216" lon="4.73981">
        <ele>208</ele>
        <time>2021-10-23T12:45:03.000Z</time>
      </trkpt>
      <trkpt lat="46.22213" lon="4.73974">
        <ele>208.19999694824</ele>
        <time>2021-10-23T12:45:04.000Z</time>
      </trkpt>
      <trkpt lat="46.22177" lon="4.73914">
        <ele>210</ele>
        <time>2021-10-23T12:45:15.000Z</time>
      </trkpt>
      <trkpt lat="46.22131" lon="4.73862">
        <ele>212.19999694824</ele>
        <time>2021-10-23T12:45:27.000Z</time>
      </trkpt>
      <trkpt lat="46.22117" lon="4.73837">
        <ele>213.80000305176</ele>
        <time>2021-10-23T12:45:33.000Z</time>
      </trkpt>
      <trkpt lat="46.22082" lon="4.73869">
        <ele>213</ele>
        <time>2021-10-23T12:45:42.000Z</time>
      </trkpt>
      <trkpt lat="46.22025" lon="4.73923">
        <ele>211.80000305176</ele>
        <time>2021-10-23T12:45:55.000Z</time>
      </trkpt>
      <trkpt lat="46.22006" lon="4.7395">
        <ele>210.60000610352</ele>
        <time>2021-10-23T12:46:00.000Z</time>
      </trkpt>
      <trkpt lat="46.21993" lon="4.7397">
        <ele>210.39999389648</ele>
        <time>2021-10-23T12:46:05.000Z</time>
      </trkpt>
      <trkpt lat="46.21986" lon="4.73963">
        <ele>211</ele>
        <time>2021-10-23T12:46:09.000Z</time>
      </trkpt>
      <trkpt lat="46.21979" lon="4.73861">
        <ele>219.60000610352</ele>
        <time>2021-10-23T12:46:24.000Z</time>
      </trkpt>
      <trkpt lat="46.21979" lon="4.73855">
        <ele>220.39999389648</ele>
        <time>2021-10-23T12:46:25.000Z</time>
      </trkpt>
      <trkpt lat="46.21977" lon="4.73819">
        <ele>224.19999694824</ele>
        <time>2021-10-23T12:46:31.000Z</time>
      </trkpt>
      <trkpt lat="46.21976" lon="4.73786">
        <ele>228.60000610352</ele>
        <time>2021-10-23T12:46:37.000Z</time>
      </trkpt>
      <trkpt lat="46.21975" lon="4.73757">
        <ele>232.80000305176</ele>
        <time>2021-10-23T12:46:42.000Z</time>
      </trkpt>
      <trkpt lat="46.21972" lon="4.73726">
        <ele>236.80000305176</ele>
        <time>2021-10-23T12:46:48.000Z</time>
      </trkpt>
      <trkpt lat="46.21969" lon="4.73708">
        <ele>238.19999694824</ele>
        <time>2021-10-23T12:46:52.000Z</time>
      </trkpt>
      <trkpt lat="46.21947" lon="4.73702">
        <ele>239.60000610352</ele>
        <time>2021-10-23T12:46:58.000Z</time>
      </trkpt>
      <trkpt lat="46.21935" lon="4.73706">
        <ele>239.60000610352</ele>
        <time>2021-10-23T12:47:01.000Z</time>
      </trkpt>
      <trkpt lat="46.2185" lon="4.73725">
        <ele>241.19999694824</ele>
        <time>2021-10-23T12:47:18.000Z</time>
      </trkpt>
      <trkpt lat="46.21767" lon="4.73701">
        <ele>242</ele>
        <time>2021-10-23T12:47:35.000Z</time>
      </trkpt>
      <trkpt lat="46.21753" lon="4.73693">
        <ele>242</ele>
        <time>2021-10-23T12:47:43.000Z</time>
      </trkpt>
      <trkpt lat="46.21753" lon="4.73692">
        <ele>242</ele>
        <time>2021-10-23T12:47:44.000Z</time>
      </trkpt>
      <trkpt lat="46.21743" lon="4.73686">
        <ele>242</ele>
        <time>2021-10-23T12:47:48.000Z</time>
      </trkpt>
      <trkpt lat="46.21664" lon="4.73637">
        <ele>240.39999389648</ele>
        <time>2021-10-23T12:48:03.000Z</time>
      </trkpt>
      <trkpt lat="46.21577" lon="4.73584">
        <ele>235</ele>
        <time>2021-10-23T12:48:17.000Z</time>
      </trkpt>
      <trkpt lat="46.21516" lon="4.73549">
        <ele>230.80000305176</ele>
        <time>2021-10-23T12:48:28.000Z</time>
      </trkpt>
      <trkpt lat="46.21504" lon="4.73545">
        <ele>230.39999389648</ele>
        <time>2021-10-23T12:48:32.000Z</time>
      </trkpt>
      <trkpt lat="46.21479" lon="4.73575">
        <ele>229.60000610352</ele>
        <time>2021-10-23T12:48:40.000Z</time>
      </trkpt>
      <trkpt lat="46.21438" lon="4.73559">
        <ele>227</ele>
        <time>2021-10-23T12:48:49.000Z</time>
      </trkpt>
      <trkpt lat="46.21409" lon="4.73558">
        <ele>224</ele>
        <time>2021-10-23T12:48:54.000Z</time>
      </trkpt>
      <trkpt lat="46.21332" lon="4.7359">
        <ele>220</ele>
        <time>2021-10-23T12:49:08.000Z</time>
      </trkpt>
      <trkpt lat="46.21274" lon="4.7362">
        <ele>220.19999694824</ele>
        <time>2021-10-23T12:49:21.000Z</time>
      </trkpt>
      <trkpt lat="46.21242" lon="4.73652">
        <ele>219</ele>
        <time>2021-10-23T12:49:30.000Z</time>
      </trkpt>
      <trkpt lat="46.2123" lon="4.73674">
        <ele>218.60000610352</ele>
        <time>2021-10-23T12:49:34.000Z</time>
      </trkpt>
      <trkpt lat="46.21222" lon="4.73705">
        <ele>219.19999694824</ele>
        <time>2021-10-23T12:49:41.000Z</time>
      </trkpt>
      <trkpt lat="46.21217" lon="4.737">
        <ele>219</ele>
        <time>2021-10-23T12:49:45.000Z</time>
      </trkpt>
      <trkpt lat="46.21211" lon="4.73657">
        <ele>216.60000610352</ele>
        <time>2021-10-23T12:49:51.000Z</time>
      </trkpt>
      <trkpt lat="46.21204" lon="4.73612">
        <ele>214.80000305176</ele>
        <time>2021-10-23T12:49:56.000Z</time>
      </trkpt>
      <trkpt lat="46.21191" lon="4.73579">
        <ele>215.60000610352</ele>
        <time>2021-10-23T12:50:01.000Z</time>
      </trkpt>
      <trkpt lat="46.21181" lon="4.73573">
        <ele>216</ele>
        <time>2021-10-23T12:50:03.000Z</time>
      </trkpt>
      <trkpt lat="46.21176" lon="4.7357">
        <ele>216.39999389648</ele>
        <time>2021-10-23T12:50:04.000Z</time>
      </trkpt>
      <trkpt lat="46.21096" lon="4.73531">
        <ele>222.60000610352</ele>
        <time>2021-10-23T12:50:20.000Z</time>
      </trkpt>
      <trkpt lat="46.21082" lon="4.73527">
        <ele>223.80000305176</ele>
        <time>2021-10-23T12:50:23.000Z</time>
      </trkpt>
      <trkpt lat="46.21072" lon="4.73508">
        <ele>225</ele>
        <time>2021-10-23T12:50:28.000Z</time>
      </trkpt>
      <trkpt lat="46.21073" lon="4.73494">
        <ele>225.60000610352</ele>
        <time>2021-10-23T12:50:30.000Z</time>
      </trkpt>
      <trkpt lat="46.21071" lon="4.73465">
        <ele>226.39999389648</ele>
        <time>2021-10-23T12:50:34.000Z</time>
      </trkpt>
      <trkpt lat="46.21064" lon="4.73431">
        <ele>226.80000305176</ele>
        <time>2021-10-23T12:50:39.000Z</time>
      </trkpt>
      <trkpt lat="46.21056" lon="4.73352">
        <ele>230.39999389648</ele>
        <time>2021-10-23T12:50:50.000Z</time>
      </trkpt>
      <trkpt lat="46.21054" lon="4.73345">
        <ele>231</ele>
        <time>2021-10-23T12:50:51.000Z</time>
      </trkpt>
      <trkpt lat="46.21038" lon="4.73291">
        <ele>234.39999389648</ele>
        <time>2021-10-23T12:50:59.000Z</time>
      </trkpt>
      <trkpt lat="46.21034" lon="4.7322">
        <ele>237.80000305176</ele>
        <time>2021-10-23T12:51:09.000Z</time>
      </trkpt>
      <trkpt lat="46.21028" lon="4.73147">
        <ele>237.80000305176</ele>
        <time>2021-10-23T12:51:19.000Z</time>
      </trkpt>
      <trkpt lat="46.21026" lon="4.73139">
        <ele>238</ele>
        <time>2021-10-23T12:51:20.000Z</time>
      </trkpt>
      <trkpt lat="46.21019" lon="4.73113">
        <ele>239.19999694824</ele>
        <time>2021-10-23T12:51:24.000Z</time>
      </trkpt>
      <trkpt lat="46.21001" lon="4.73075">
        <ele>240.60000610352</ele>
        <time>2021-10-23T12:51:32.000Z</time>
      </trkpt>
      <trkpt lat="46.20996" lon="4.7312">
        <ele>242</ele>
        <time>2021-10-23T12:51:42.000Z</time>
      </trkpt>
      <trkpt lat="46.20951" lon="4.73151">
        <ele>242</ele>
        <time>2021-10-23T12:51:49.000Z</time>
      </trkpt>
      <trkpt lat="46.20901" lon="4.73162">
        <ele>241.5</ele>
        <time>2021-10-23T12:51:56.000Z</time>
      </trkpt>
      <trkpt lat="46.20866" lon="4.73188">
        <ele>241</ele>
        <time>2021-10-23T12:52:05.000Z</time>
      </trkpt>
      <trkpt lat="46.20826" lon="4.73217">
        <ele>240</ele>
        <time>2021-10-23T12:52:14.000Z</time>
      </trkpt>
      <trkpt lat="46.20789" lon="4.73237">
        <ele>238.7</ele>
        <time>2021-10-23T12:52:19.000Z</time>
      </trkpt>
      <trkpt lat="46.2075" lon="4.73233">
        <ele>237.6</ele>
        <time>2021-10-23T12:52:23.000Z</time>
      </trkpt>
      <trkpt lat="46.20726" lon="4.73231">
        <ele>237.1</ele>
        <time>2021-10-23T12:52:29.000Z</time>
      </trkpt>
      <trkpt lat="46.20705" lon="4.73197">
        <ele>237</ele>
        <time>2021-10-23T12:52:33.000Z</time>
      </trkpt>
      <trkpt lat="46.20697" lon="4.73169">
        <ele>237.39999389648</ele>
        <time>2021-10-23T12:54:03.000Z</time>
      </trkpt>
      <trkpt lat="46.20694" lon="4.7315">
        <ele>237.19999694824</ele>
        <time>2021-10-23T12:54:10.000Z</time>
      </trkpt>
      <trkpt lat="46.20729" lon="4.73018">
        <ele>243</ele>
        <time>2021-10-23T12:54:28.000Z</time>
      </trkpt>
      <trkpt lat="46.20754" lon="4.72921">
        <ele>246.60000610352</ele>
        <time>2021-10-23T12:54:41.000Z</time>
      </trkpt>
      <trkpt lat="46.20765" lon="4.72842">
        <ele>249.80000305176</ele>
        <time>2021-10-23T12:54:52.000Z</time>
      </trkpt>
      <trkpt lat="46.2077" lon="4.72813">
        <ele>251</ele>
        <time>2021-10-23T12:54:57.000Z</time>
      </trkpt>
      <trkpt lat="46.2078" lon="4.72762">
        <ele>254.19999694824</ele>
        <time>2021-10-23T12:55:06.000Z</time>
      </trkpt>
      <trkpt lat="46.20784" lon="4.72743">
        <ele>254.60000610352</ele>
        <time>2021-10-23T12:55:11.000Z</time>
      </trkpt>
      <trkpt lat="46.20809" lon="4.72726">
        <ele>256.60000610352</ele>
        <time>2021-10-23T12:55:20.000Z</time>
      </trkpt>
      <trkpt lat="46.20812" lon="4.72712">
        <ele>257.20001220703</ele>
        <time>2021-10-23T12:55:22.000Z</time>
      </trkpt>
      <trkpt lat="46.20847" lon="4.72577">
        <ele>261</ele>
        <time>2021-10-23T12:55:42.000Z</time>
      </trkpt>
      <trkpt lat="46.2086" lon="4.72515">
        <ele>263.79998779297</ele>
        <time>2021-10-23T12:55:51.000Z</time>
      </trkpt>
      <trkpt lat="46.20878" lon="4.72424">
        <ele>266</ele>
        <time>2021-10-23T12:56:04.000Z</time>
      </trkpt>
      <trkpt lat="46.20897" lon="4.72325">
        <ele>268.79998779297</ele>
        <time>2021-10-23T12:56:18.000Z</time>
      </trkpt>
      <trkpt lat="46.20903" lon="4.72213">
        <ele>268</ele>
        <time>2021-10-23T12:56:33.000Z</time>
      </trkpt>
      <trkpt lat="46.20908" lon="4.72092">
        <ele>274</ele>
        <time>2021-10-23T12:56:49.000Z</time>
      </trkpt>
      <trkpt lat="46.20906" lon="4.72017">
        <ele>278.39999389648</ele>
        <time>2021-10-23T12:57:01.000Z</time>
      </trkpt>
      <trkpt lat="46.20905" lon="4.72006">
        <ele>279.20001220703</ele>
        <time>2021-10-23T12:57:04.000Z</time>
      </trkpt>
      <trkpt lat="46.20911" lon="4.71995">
        <ele>279.60000610352</ele>
        <time>2021-10-23T12:57:07.000Z</time>
      </trkpt>
      <trkpt lat="46.20911" lon="4.71944">
        <ele>281.79998779297</ele>
        <time>2021-10-23T12:57:16.000Z</time>
      </trkpt>
      <trkpt lat="46.20906" lon="4.71851">
        <ele>284.79998779297</ele>
        <time>2021-10-23T12:57:31.000Z</time>
      </trkpt>
      <trkpt lat="46.20881" lon="4.71828">
        <ele>287.39999389648</ele>
        <time>2021-10-23T12:57:39.000Z</time>
      </trkpt>
      <trkpt lat="46.20868" lon="4.71803">
        <ele>290</ele>
        <time>2021-10-23T12:57:45.000Z</time>
      </trkpt>
      <trkpt lat="46.20857" lon="4.71779">
        <ele>292.79998779297</ele>
        <time>2021-10-23T12:57:50.000Z</time>
      </trkpt>
      <trkpt lat="46.20876" lon="4.71729">
        <ele>293.39999389648</ele>
        <time>2021-10-23T12:58:00.000Z</time>
      </trkpt>
      <trkpt lat="46.20909" lon="4.71653">
        <ele>297.20001220703</ele>
        <time>2021-10-23T12:58:14.000Z</time>
      </trkpt>
      <trkpt lat="46.20921" lon="4.7162">
        <ele>299.39999389648</ele>
        <time>2021-10-23T12:58:21.000Z</time>
      </trkpt>
      <trkpt lat="46.2093" lon="4.71596">
        <ele>301.60000610352</ele>
        <time>2021-10-23T12:58:48.000Z</time>
      </trkpt>
      <trkpt lat="46.20946" lon="4.71544">
        <ele>305.79998779297</ele>
        <time>2021-10-23T12:58:58.000Z</time>
      </trkpt>
      <trkpt lat="46.20953" lon="4.71517">
        <ele>309.79998779297</ele>
        <time>2021-10-23T12:59:05.000Z</time>
      </trkpt>
      <trkpt lat="46.20945" lon="4.71507">
        <ele>312</ele>
        <time>2021-10-23T12:59:09.000Z</time>
      </trkpt>
      <trkpt lat="46.20914" lon="4.71505">
        <ele>313.79998779297</ele>
        <time>2021-10-23T12:59:17.000Z</time>
      </trkpt>
      <trkpt lat="46.20875" lon="4.71501">
        <ele>316.20001220703</ele>
        <time>2021-10-23T12:59:26.000Z</time>
      </trkpt>
      <trkpt lat="46.20851" lon="4.7149">
        <ele>316.20001220703</ele>
        <time>2021-10-23T12:59:32.000Z</time>
      </trkpt>
      <trkpt lat="46.20852" lon="4.71471">
        <ele>317.79998779297</ele>
        <time>2021-10-23T12:59:36.000Z</time>
      </trkpt>
      <trkpt lat="46.20864" lon="4.71387">
        <ele>327</ele>
        <time>2021-10-23T12:59:50.000Z</time>
      </trkpt>
      <trkpt lat="46.20868" lon="4.71358">
        <ele>329.60000610352</ele>
        <time>2021-10-23T12:59:55.000Z</time>
      </trkpt>
      <trkpt lat="46.20873" lon="4.71328">
        <ele>332.60000610352</ele>
        <time>2021-10-23T13:00:00.000Z</time>
      </trkpt>
      <trkpt lat="46.2088" lon="4.71288">
        <ele>335.60000610352</ele>
        <time>2021-10-23T13:00:07.000Z</time>
      </trkpt>
      <trkpt lat="46.20885" lon="4.7125">
        <ele>339.60000610352</ele>
        <time>2021-10-23T13:00:14.000Z</time>
      </trkpt>
      <trkpt lat="46.2089" lon="4.71212">
        <ele>343.79998779297</ele>
        <time>2021-10-23T13:00:21.000Z</time>
      </trkpt>
      <trkpt lat="46.20893" lon="4.71179">
        <ele>348</ele>
        <time>2021-10-23T13:00:27.000Z</time>
      </trkpt>
      <trkpt lat="46.20894" lon="4.71154">
        <ele>350.39999389648</ele>
        <time>2021-10-23T13:00:32.000Z</time>
      </trkpt>
      <trkpt lat="46.20895" lon="4.71134">
        <ele>351.39999389648</ele>
        <time>2021-10-23T13:00:36.000Z</time>
      </trkpt>
      <trkpt lat="46.20899" lon="4.7111">
        <ele>353</ele>
        <time>2021-10-23T13:00:41.000Z</time>
      </trkpt>
      <trkpt lat="46.20906" lon="4.71086">
        <ele>354.20001220703</ele>
        <time>2021-10-23T13:00:46.000Z</time>
      </trkpt>
      <trkpt lat="46.2091" lon="4.71066">
        <ele>355.39999389648</ele>
        <time>2021-10-23T13:00:50.000Z</time>
      </trkpt>
      <trkpt lat="46.20888" lon="4.71029">
        <ele>356.39999389648</ele>
        <time>2021-10-23T13:00:59.000Z</time>
      </trkpt>
      <trkpt lat="46.20883" lon="4.70997">
        <ele>357.39999389648</ele>
        <time>2021-10-23T13:01:05.000Z</time>
      </trkpt>
      <trkpt lat="46.20897" lon="4.70946">
        <ele>359.79998779297</ele>
        <time>2021-10-23T13:01:14.000Z</time>
      </trkpt>
      <trkpt lat="46.2092" lon="4.709">
        <ele>362.60000610352</ele>
        <time>2021-10-23T13:01:25.000Z</time>
      </trkpt>
      <trkpt lat="46.20924" lon="4.70891">
        <ele>363.20001220703</ele>
        <time>2021-10-23T13:01:27.000Z</time>
      </trkpt>
      <trkpt lat="46.20927" lon="4.7088">
        <ele>363.60000610352</ele>
        <time>2021-10-23T13:01:29.000Z</time>
      </trkpt>
      <trkpt lat="46.20937" lon="4.7081">
        <ele>366.20001220703</ele>
        <time>2021-10-23T13:01:41.000Z</time>
      </trkpt>
      <trkpt lat="46.2094" lon="4.70765">
        <ele>370.20001220703</ele>
        <time>2021-10-23T13:01:49.000Z</time>
      </trkpt>
      <trkpt lat="46.2094" lon="4.70754">
        <ele>371.20001220703</ele>
        <time>2021-10-23T13:01:51.000Z</time>
      </trkpt>
      <trkpt lat="46.20944" lon="4.7072">
        <ele>376</ele>
        <time>2021-10-23T13:01:58.000Z</time>
      </trkpt>
      <trkpt lat="46.20944" lon="4.70716">
        <ele>376.39999389648</ele>
        <time>2021-10-23T13:01:59.000Z</time>
      </trkpt>
      <trkpt lat="46.2094" lon="4.70683">
        <ele>379.79998779297</ele>
        <time>2021-10-23T13:02:06.000Z</time>
      </trkpt>
      <trkpt lat="46.20938" lon="4.70654">
        <ele>383</ele>
        <time>2021-10-23T13:02:12.000Z</time>
      </trkpt>
      <trkpt lat="46.20937" lon="4.70643">
        <ele>384</ele>
        <time>2021-10-23T13:02:14.000Z</time>
      </trkpt>
      <trkpt lat="46.20934" lon="4.70614">
        <ele>386.39999389648</ele>
        <time>2021-10-23T13:02:20.000Z</time>
      </trkpt>
      <trkpt lat="46.20933" lon="4.70581">
        <ele>391.20001220703</ele>
        <time>2021-10-23T13:02:27.000Z</time>
      </trkpt>
      <trkpt lat="46.20931" lon="4.70548">
        <ele>395.39999389648</ele>
        <time>2021-10-23T13:02:34.000Z</time>
      </trkpt>
      <trkpt lat="46.20925" lon="4.70522">
        <ele>397.79998779297</ele>
        <time>2021-10-23T13:02:40.000Z</time>
      </trkpt>
      <trkpt lat="46.20924" lon="4.70518">
        <ele>398.20001220703</ele>
        <time>2021-10-23T13:02:41.000Z</time>
      </trkpt>
      <trkpt lat="46.20921" lon="4.70498">
        <ele>400</ele>
        <time>2021-10-23T13:02:46.000Z</time>
      </trkpt>
      <trkpt lat="46.20922" lon="4.70476">
        <ele>401.60000610352</ele>
        <time>2021-10-23T13:02:52.000Z</time>
      </trkpt>
      <trkpt lat="46.20933" lon="4.70461">
        <ele>403</ele>
        <time>2021-10-23T13:02:57.000Z</time>
      </trkpt>
      <trkpt lat="46.20946" lon="4.70449">
        <ele>404</ele>
        <time>2021-10-23T13:03:02.000Z</time>
      </trkpt>
      <trkpt lat="46.20952" lon="4.70445">
        <ele>404.20001220703</ele>
        <time>2021-10-23T13:03:04.000Z</time>
      </trkpt>
      <trkpt lat="46.20974" lon="4.70429">
        <ele>404.60000610352</ele>
        <time>2021-10-23T13:03:11.000Z</time>
      </trkpt>
      <trkpt lat="46.20975" lon="4.7039">
        <ele>407.20001220703</ele>
        <time>2021-10-23T13:03:18.000Z</time>
      </trkpt>
      <trkpt lat="46.20975" lon="4.70305">
        <ele>414.20001220703</ele>
        <time>2021-10-23T13:03:33.000Z</time>
      </trkpt>
      <trkpt lat="46.20974" lon="4.70264">
        <ele>420.79998779297</ele>
        <time>2021-10-23T13:03:41.000Z</time>
      </trkpt>
      <trkpt lat="46.20974" lon="4.70232">
        <ele>426.39999389648</ele>
        <time>2021-10-23T13:03:47.000Z</time>
      </trkpt>
      <trkpt lat="46.20975" lon="4.70197">
        <ele>433.60000610352</ele>
        <time>2021-10-23T13:03:54.000Z</time>
      </trkpt>
      <trkpt lat="46.20976" lon="4.70168">
        <ele>436.79998779297</ele>
        <time>2021-10-23T13:04:00.000Z</time>
      </trkpt>
      <trkpt lat="46.20975" lon="4.70145">
        <ele>437.60000610352</ele>
        <time>2021-10-23T13:04:05.000Z</time>
      </trkpt>
      <trkpt lat="46.20973" lon="4.70118">
        <ele>438.39999389648</ele>
        <time>2021-10-23T13:04:11.000Z</time>
      </trkpt>
      <trkpt lat="46.20971" lon="4.70097">
        <ele>439.60000610352</ele>
        <time>2021-10-23T13:04:16.000Z</time>
      </trkpt>
      <trkpt lat="46.20977" lon="4.70092">
        <ele>441.39999389648</ele>
        <time>2021-10-23T13:04:20.000Z</time>
      </trkpt>
      <trkpt lat="46.21009" lon="4.7012">
        <ele>445</ele>
        <time>2021-10-23T13:04:31.000Z</time>
      </trkpt>
      <trkpt lat="46.21042" lon="4.70114">
        <ele>451.79998779297</ele>
        <time>2021-10-23T13:04:41.000Z</time>
      </trkpt>
      <trkpt lat="46.21067" lon="4.70116">
        <ele>453.60000610352</ele>
        <time>2021-10-23T13:04:49.000Z</time>
      </trkpt>
      <trkpt lat="46.21102" lon="4.70132">
        <ele>451.39999389648</ele>
        <time>2021-10-23T13:05:00.000Z</time>
      </trkpt>
      <trkpt lat="46.21153" lon="4.70124">
        <ele>454</ele>
        <time>2021-10-23T13:05:12.000Z</time>
      </trkpt>
      <trkpt lat="46.2119" lon="4.70104">
        <ele>455.60000610352</ele>
        <time>2021-10-23T13:05:22.000Z</time>
      </trkpt>
      <trkpt lat="46.21218" lon="4.70063">
        <ele>455.79998779297</ele>
        <time>2021-10-23T13:05:33.000Z</time>
      </trkpt>
      <trkpt lat="46.21238" lon="4.70007">
        <ele>459.79998779297</ele>
        <time>2021-10-23T13:05:44.000Z</time>
      </trkpt>
      <trkpt lat="46.21257" lon="4.69959">
        <ele>463.60000610352</ele>
        <time>2021-10-23T13:05:54.000Z</time>
      </trkpt>
      <trkpt lat="46.21275" lon="4.69902">
        <ele>467.39999389648</ele>
        <time>2021-10-23T13:06:05.000Z</time>
      </trkpt>
      <trkpt lat="46.21292" lon="4.69856">
        <ele>472.20001220703</ele>
        <time>2021-10-23T13:06:14.000Z</time>
      </trkpt>
      <trkpt lat="46.21304" lon="4.69832">
        <ele>473.60000610352</ele>
        <time>2021-10-23T13:06:19.000Z</time>
      </trkpt>
      <trkpt lat="46.2133" lon="4.69791">
        <ele>473.79998779297</ele>
        <time>2021-10-23T13:06:28.000Z</time>
      </trkpt>
      <trkpt lat="46.21335" lon="4.69782">
        <ele>474.20001220703</ele>
        <time>2021-10-23T13:06:30.000Z</time>
      </trkpt>
      <trkpt lat="46.21365" lon="4.69729">
        <ele>474.60000610352</ele>
        <time>2021-10-23T13:06:42.000Z</time>
      </trkpt>
      <trkpt lat="46.21386" lon="4.69702">
        <ele>472.60000610352</ele>
        <time>2021-10-23T13:06:48.000Z</time>
      </trkpt>
      <trkpt lat="46.21406" lon="4.69665">
        <ele>473.79998779297</ele>
        <time>2021-10-23T13:06:56.000Z</time>
      </trkpt>
      <trkpt lat="46.21423" lon="4.69637">
        <ele>475.60000610352</ele>
        <time>2021-10-23T13:07:02.000Z</time>
      </trkpt>
      <trkpt lat="46.21435" lon="4.69623">
        <ele>476</ele>
        <time>2021-10-23T13:07:07.000Z</time>
      </trkpt>
      <trkpt lat="46.21452" lon="4.69611">
        <ele>476.60000610352</ele>
        <time>2021-10-23T13:07:12.000Z</time>
      </trkpt>
      <trkpt lat="46.21482" lon="4.69593">
        <ele>478.60000610352</ele>
        <time>2021-10-23T13:07:19.000Z</time>
      </trkpt>
      <trkpt lat="46.21524" lon="4.69571">
        <ele>482.79998779297</ele>
        <time>2021-10-23T13:07:30.000Z</time>
      </trkpt>
      <trkpt lat="46.21552" lon="4.69567">
        <ele>483.60000610352</ele>
        <time>2021-10-23T13:07:37.000Z</time>
      </trkpt>
      <trkpt lat="46.21598" lon="4.69579">
        <ele>479</ele>
        <time>2021-10-23T13:07:49.000Z</time>
      </trkpt>
      <trkpt lat="46.21638" lon="4.69601">
        <ele>477.39999389648</ele>
        <time>2021-10-23T13:08:00.000Z</time>
      </trkpt>
      <trkpt lat="46.2165" lon="4.6962">
        <ele>476.60000610352</ele>
        <time>2021-10-23T13:08:04.000Z</time>
      </trkpt>
      <trkpt lat="46.21666" lon="4.69655">
        <ele>475.79998779297</ele>
        <time>2021-10-23T13:08:14.000Z</time>
      </trkpt>
      <trkpt lat="46.21719" lon="4.69691">
        <ele>477</ele>
        <time>2021-10-23T13:08:26.000Z</time>
      </trkpt>
      <trkpt lat="46.21728" lon="4.69695">
        <ele>476.60000610352</ele>
        <time>2021-10-23T13:08:28.000Z</time>
      </trkpt>
      <trkpt lat="46.21734" lon="4.69702">
        <ele>475.79998779297</ele>
        <time>2021-10-23T13:08:30.000Z</time>
      </trkpt>
      <trkpt lat="46.21737" lon="4.69706">
        <ele>475.60000610352</ele>
        <time>2021-10-23T13:08:31.000Z</time>
      </trkpt>
      <trkpt lat="46.21739" lon="4.69711">
        <ele>475.20001220703</ele>
        <time>2021-10-23T13:08:32.000Z</time>
      </trkpt>
      <trkpt lat="46.2174" lon="4.69715">
        <ele>475</ele>
        <time>2021-10-23T13:08:33.000Z</time>
      </trkpt>
      <trkpt lat="46.21746" lon="4.69726">
        <ele>474</ele>
        <time>2021-10-23T13:08:37.000Z</time>
      </trkpt>
      <trkpt lat="46.21755" lon="4.69719">
        <ele>473.60000610352</ele>
        <time>2021-10-23T13:08:41.000Z</time>
      </trkpt>
      <trkpt lat="46.21758" lon="4.69716">
        <ele>473.79998779297</ele>
        <time>2021-10-23T13:08:42.000Z</time>
      </trkpt>
      <trkpt lat="46.21793" lon="4.69674">
        <ele>472.39999389648</ele>
        <time>2021-10-23T13:08:54.000Z</time>
      </trkpt>
      <trkpt lat="46.21796" lon="4.69671">
        <ele>472.39999389648</ele>
        <time>2021-10-23T13:08:55.000Z</time>
      </trkpt>
      <trkpt lat="46.21802" lon="4.69663">
        <ele>471.60000610352</ele>
        <time>2021-10-23T13:08:57.000Z</time>
      </trkpt>
      <trkpt lat="46.21809" lon="4.69656">
        <ele>471.20001220703</ele>
        <time>2021-10-23T13:08:59.000Z</time>
      </trkpt>
      <trkpt lat="46.21822" lon="4.69638">
        <ele>468.39999389648</ele>
        <time>2021-10-23T13:09:03.000Z</time>
      </trkpt>
      <trkpt lat="46.21845" lon="4.696">
        <ele>465.20001220703</ele>
        <time>2021-10-23T13:09:12.000Z</time>
      </trkpt>
      <trkpt lat="46.21844" lon="4.69564">
        <ele>467.20001220703</ele>
        <time>2021-10-23T13:09:17.000Z</time>
      </trkpt>
      <trkpt lat="46.21843" lon="4.69537">
        <ele>468.39999389648</ele>
        <time>2021-10-23T13:09:21.000Z</time>
      </trkpt>
      <trkpt lat="46.21841" lon="4.69481">
        <ele>463.60000610352</ele>
        <time>2021-10-23T13:09:29.000Z</time>
      </trkpt>
      <trkpt lat="46.21839" lon="4.69467">
        <ele>461.79998779297</ele>
        <time>2021-10-23T13:09:31.000Z</time>
      </trkpt>
      <trkpt lat="46.21813" lon="4.6941">
        <ele>461</ele>
        <time>2021-10-23T13:09:40.000Z</time>
      </trkpt>
      <trkpt lat="46.21784" lon="4.69347">
        <ele>467.20001220703</ele>
        <time>2021-10-23T13:09:50.000Z</time>
      </trkpt>
      <trkpt lat="46.21774" lon="4.69304">
        <ele>465</ele>
        <time>2021-10-23T13:09:56.000Z</time>
      </trkpt>
      <trkpt lat="46.21773" lon="4.69289">
        <ele>463.79998779297</ele>
        <time>2021-10-23T13:09:58.000Z</time>
      </trkpt>
      <trkpt lat="46.21772" lon="4.69274">
        <ele>462</ele>
        <time>2021-10-23T13:10:00.000Z</time>
      </trkpt>
      <trkpt lat="46.21767" lon="4.69247">
        <ele>459.39999389648</ele>
        <time>2021-10-23T13:10:04.000Z</time>
      </trkpt>
      <trkpt lat="46.21747" lon="4.69223">
        <ele>458.79998779297</ele>
        <time>2021-10-23T13:10:09.000Z</time>
      </trkpt>
      <trkpt lat="46.21701" lon="4.69205">
        <ele>460.39999389648</ele>
        <time>2021-10-23T13:10:17.000Z</time>
      </trkpt>
      <trkpt lat="46.21685" lon="4.69199">
        <ele>460.79998779297</ele>
        <time>2021-10-23T13:10:20.000Z</time>
      </trkpt>
      <trkpt lat="46.21668" lon="4.69193">
        <ele>459.79998779297</ele>
        <time>2021-10-23T13:10:23.000Z</time>
      </trkpt>
      <trkpt lat="46.21656" lon="4.6919">
        <ele>459.60000610352</ele>
        <time>2021-10-23T13:10:25.000Z</time>
      </trkpt>
      <trkpt lat="46.2165" lon="4.69188">
        <ele>459.79998779297</ele>
        <time>2021-10-23T13:10:26.000Z</time>
      </trkpt>
      <trkpt lat="46.21629" lon="4.69179">
        <ele>460.60000610352</ele>
        <time>2021-10-23T13:10:30.000Z</time>
      </trkpt>
      <trkpt lat="46.21614" lon="4.69171">
        <ele>461.39999389648</ele>
        <time>2021-10-23T13:10:33.000Z</time>
      </trkpt>
      <trkpt lat="46.21597" lon="4.69153">
        <ele>461.39999389648</ele>
        <time>2021-10-23T13:10:37.000Z</time>
      </trkpt>
      <trkpt lat="46.21571" lon="4.691">
        <ele>458.39999389648</ele>
        <time>2021-10-23T13:10:45.000Z</time>
      </trkpt>
      <trkpt lat="46.21563" lon="4.69078">
        <ele>456.60000610352</ele>
        <time>2021-10-23T13:10:48.000Z</time>
      </trkpt>
      <trkpt lat="46.21559" lon="4.69064">
        <ele>455.39999389648</ele>
        <time>2021-10-23T13:10:50.000Z</time>
      </trkpt>
      <trkpt lat="46.21551" lon="4.69044">
        <ele>454.79998779297</ele>
        <time>2021-10-23T13:10:53.000Z</time>
      </trkpt>
      <trkpt lat="46.21543" lon="4.69026">
        <ele>454.39999389648</ele>
        <time>2021-10-23T13:10:56.000Z</time>
      </trkpt>
      <trkpt lat="46.2154" lon="4.69014">
        <ele>453.79998779297</ele>
        <time>2021-10-23T13:10:58.000Z</time>
      </trkpt>
      <trkpt lat="46.21534" lon="4.69">
        <ele>453.79998779297</ele>
        <time>2021-10-23T13:11:00.000Z</time>
      </trkpt>
      <trkpt lat="46.21522" lon="4.68964">
        <ele>453.20001220703</ele>
        <time>2021-10-23T13:11:05.000Z</time>
      </trkpt>
      <trkpt lat="46.21504" lon="4.68909">
        <ele>450.79998779297</ele>
        <time>2021-10-23T13:11:13.000Z</time>
      </trkpt>
      <trkpt lat="46.21491" lon="4.68891">
        <ele>450.39999389648</ele>
        <time>2021-10-23T13:11:16.000Z</time>
      </trkpt>
      <trkpt lat="46.21475" lon="4.68877">
        <ele>450</ele>
        <time>2021-10-23T13:11:19.000Z</time>
      </trkpt>
      <trkpt lat="46.21465" lon="4.6887">
        <ele>450</ele>
        <time>2021-10-23T13:11:21.000Z</time>
      </trkpt>
      <trkpt lat="46.21448" lon="4.68854">
        <ele>449.39999389648</ele>
        <time>2021-10-23T13:11:25.000Z</time>
      </trkpt>
      <trkpt lat="46.21421" lon="4.68821">
        <ele>450</ele>
        <time>2021-10-23T13:11:31.000Z</time>
      </trkpt>
      <trkpt lat="46.21411" lon="4.6881">
        <ele>451</ele>
        <time>2021-10-23T13:11:33.000Z</time>
      </trkpt>
      <trkpt lat="46.214" lon="4.6879">
        <ele>451.79998779297</ele>
        <time>2021-10-23T13:11:36.000Z</time>
      </trkpt>
      <trkpt lat="46.21392" lon="4.68742">
        <ele>451</ele>
        <time>2021-10-23T13:11:42.000Z</time>
      </trkpt>
      <trkpt lat="46.21394" lon="4.68719">
        <ele>449.79998779297</ele>
        <time>2021-10-23T13:11:45.000Z</time>
      </trkpt>
      <trkpt lat="46.214" lon="4.68683">
        <ele>446</ele>
        <time>2021-10-23T13:11:50.000Z</time>
      </trkpt>
      <trkpt lat="46.21389" lon="4.68609">
        <ele>449.39999389648</ele>
        <time>2021-10-23T13:12:00.000Z</time>
      </trkpt>
      <trkpt lat="46.2138" lon="4.68544">
        <ele>448</ele>
        <time>2021-10-23T13:12:08.000Z</time>
      </trkpt>
      <trkpt lat="46.21377" lon="4.68531">
        <ele>447.39999389648</ele>
        <time>2021-10-23T13:12:10.000Z</time>
      </trkpt>
      <trkpt lat="46.21374" lon="4.68509">
        <ele>446.20001220703</ele>
        <time>2021-10-23T13:12:13.000Z</time>
      </trkpt>
      <trkpt lat="46.21371" lon="4.68488">
        <ele>444.79998779297</ele>
        <time>2021-10-23T13:12:16.000Z</time>
      </trkpt>
      <trkpt lat="46.21336" lon="4.68437">
        <ele>442</ele>
        <time>2021-10-23T13:12:25.000Z</time>
      </trkpt>
      <trkpt lat="46.21302" lon="4.68407">
        <ele>441.60000610352</ele>
        <time>2021-10-23T13:12:32.000Z</time>
      </trkpt>
      <trkpt lat="46.21231" lon="4.68318">
        <ele>437.79998779297</ele>
        <time>2021-10-23T13:12:49.000Z</time>
      </trkpt>
      <trkpt lat="46.2122" lon="4.68301">
        <ele>437.60000610352</ele>
        <time>2021-10-23T13:12:52.000Z</time>
      </trkpt>
      <trkpt lat="46.21196" lon="4.68282">
        <ele>438.20001220703</ele>
        <time>2021-10-23T13:12:57.000Z</time>
      </trkpt>
      <trkpt lat="46.21134" lon="4.68288">
        <ele>435.79998779297</ele>
        <time>2021-10-23T13:13:07.000Z</time>
      </trkpt>
      <trkpt lat="46.21128" lon="4.6829">
        <ele>435.79998779297</ele>
        <time>2021-10-23T13:13:08.000Z</time>
      </trkpt>
      <trkpt lat="46.2102" lon="4.68344">
        <ele>435.79998779297</ele>
        <time>2021-10-23T13:13:26.000Z</time>
      </trkpt>
      <trkpt lat="46.20937" lon="4.68412">
        <ele>433</ele>
        <time>2021-10-23T13:13:41.000Z</time>
      </trkpt>
      <trkpt lat="46.20871" lon="4.6843">
        <ele>431.79998779297</ele>
        <time>2021-10-23T13:13:52.000Z</time>
      </trkpt>
      <trkpt lat="46.20845" lon="4.68424">
        <ele>429.79998779297</ele>
        <time>2021-10-23T13:13:57.000Z</time>
      </trkpt>
      <trkpt lat="46.20768" lon="4.68349">
        <ele>430.60000610352</ele>
        <time>2021-10-23T13:14:14.000Z</time>
      </trkpt>
      <trkpt lat="46.20737" lon="4.6832">
        <ele>432.39999389648</ele>
        <time>2021-10-23T13:14:22.000Z</time>
      </trkpt>
      <trkpt lat="46.20691" lon="4.68287">
        <ele>437.39999389648</ele>
        <time>2021-10-23T13:14:36.000Z</time>
      </trkpt>
      <trkpt lat="46.20679" lon="4.68285">
        <ele>437.79998779297</ele>
        <time>2021-10-23T13:14:39.000Z</time>
      </trkpt>
      <trkpt lat="46.20682" lon="4.68265">
        <ele>438.79998779297</ele>
        <time>2021-10-23T13:14:45.000Z</time>
      </trkpt>
      <trkpt lat="46.20689" lon="4.68251">
        <ele>438.60000610352</ele>
        <time>2021-10-23T13:14:48.000Z</time>
      </trkpt>
      <trkpt lat="46.207" lon="4.68224">
        <ele>437.20001220703</ele>
        <time>2021-10-23T13:14:53.000Z</time>
      </trkpt>
      <trkpt lat="46.2069" lon="4.68175">
        <ele>439.39999389648</ele>
        <time>2021-10-23T13:15:02.000Z</time>
      </trkpt>
      <trkpt lat="46.20659" lon="4.6815">
        <ele>442</ele>
        <time>2021-10-23T13:15:10.000Z</time>
      </trkpt>
      <trkpt lat="46.20628" lon="4.68128">
        <ele>445.39999389648</ele>
        <time>2021-10-23T13:15:18.000Z</time>
      </trkpt>
      <trkpt lat="46.20605" lon="4.68116">
        <ele>447.79998779297</ele>
        <time>2021-10-23T13:15:23.000Z</time>
      </trkpt>
      <trkpt lat="46.20549" lon="4.68088">
        <ele>455</ele>
        <time>2021-10-23T13:15:36.000Z</time>
      </trkpt>
      <trkpt lat="46.20524" lon="4.68078">
        <ele>458.20001220703</ele>
        <time>2021-10-23T13:15:42.000Z</time>
      </trkpt>
      <trkpt lat="46.20504" lon="4.6807">
        <ele>461.39999389648</ele>
        <time>2021-10-23T13:15:47.000Z</time>
      </trkpt>
      <trkpt lat="46.20496" lon="4.68068">
        <ele>462.60000610352</ele>
        <time>2021-10-23T13:15:49.000Z</time>
      </trkpt>
      <trkpt lat="46.20492" lon="4.68066">
        <ele>463.20001220703</ele>
        <time>2021-10-23T13:15:50.000Z</time>
      </trkpt>
      <trkpt lat="46.20488" lon="4.68064">
        <ele>463.79998779297</ele>
        <time>2021-10-23T13:15:51.000Z</time>
      </trkpt>
      <trkpt lat="46.20484" lon="4.68062">
        <ele>464.39999389648</ele>
        <time>2021-10-23T13:15:52.000Z</time>
      </trkpt>
      <trkpt lat="46.20469" lon="4.68054">
        <ele>466.39999389648</ele>
        <time>2021-10-23T13:15:56.000Z</time>
      </trkpt>
      <trkpt lat="46.20453" lon="4.68039">
        <ele>467.60000610352</ele>
        <time>2021-10-23T13:16:02.000Z</time>
      </trkpt>
      <trkpt lat="46.20451" lon="4.68037">
        <ele>467.60000610352</ele>
        <time>2021-10-23T13:16:08.000Z</time>
      </trkpt>
      <trkpt lat="46.20446" lon="4.68032">
        <ele>467.79998779297</ele>
        <time>2021-10-23T13:20:20.000Z</time>
      </trkpt>
      <trkpt lat="46.20426" lon="4.68005">
        <ele>468.79998779297</ele>
        <time>2021-10-23T13:20:29.000Z</time>
      </trkpt>
      <trkpt lat="46.20413" lon="4.67978">
        <ele>468.60000610352</ele>
        <time>2021-10-23T13:20:34.000Z</time>
      </trkpt>
      <trkpt lat="46.20391" lon="4.6791">
        <ele>468.39999389648</ele>
        <time>2021-10-23T13:20:43.000Z</time>
      </trkpt>
      <trkpt lat="46.20386" lon="4.67897">
        <ele>468</ele>
        <time>2021-10-23T13:20:45.000Z</time>
      </trkpt>
      <trkpt lat="46.20371" lon="4.67852">
        <ele>467.60000610352</ele>
        <time>2021-10-23T13:20:52.000Z</time>
      </trkpt>
      <trkpt lat="46.20347" lon="4.67822">
        <ele>465.60000610352</ele>
        <time>2021-10-23T13:20:58.000Z</time>
      </trkpt>
      <trkpt lat="46.20271" lon="4.67777">
        <ele>467</ele>
        <time>2021-10-23T13:21:15.000Z</time>
      </trkpt>
      <trkpt lat="46.2026" lon="4.67765">
        <ele>467.39999389648</ele>
        <time>2021-10-23T13:21:25.000Z</time>
      </trkpt>
      <trkpt lat="46.20251" lon="4.67753">
        <ele>468.20001220703</ele>
        <time>2021-10-23T13:23:16.000Z</time>
      </trkpt>
      <trkpt lat="46.20208" lon="4.67692">
        <ele>467.20001220703</ele>
        <time>2021-10-23T13:23:28.000Z</time>
      </trkpt>
      <trkpt lat="46.202" lon="4.67666">
        <ele>469.60000610352</ele>
        <time>2021-10-23T13:23:32.000Z</time>
      </trkpt>
      <trkpt lat="46.20181" lon="4.67571">
        <ele>468.20001220703</ele>
        <time>2021-10-23T13:23:46.000Z</time>
      </trkpt>
      <trkpt lat="46.20157" lon="4.67474">
        <ele>465</ele>
        <time>2021-10-23T13:24:01.000Z</time>
      </trkpt>
      <trkpt lat="46.20135" lon="4.6742">
        <ele>466.60000610352</ele>
        <time>2021-10-23T13:24:12.000Z</time>
      </trkpt>
      <trkpt lat="46.20123" lon="4.67378">
        <ele>469</ele>
        <time>2021-10-23T13:24:20.000Z</time>
      </trkpt>
      <trkpt lat="46.20115" lon="4.67285">
        <ele>469.79998779297</ele>
        <time>2021-10-23T13:24:36.000Z</time>
      </trkpt>
      <trkpt lat="46.20115" lon="4.67255">
        <ele>471.20001220703</ele>
        <time>2021-10-23T13:24:46.000Z</time>
      </trkpt>
      <trkpt lat="46.20095" lon="4.67222">
        <ele>473.6</ele>
      </trkpt>
      <trkpt lat="46.20082" lon="4.67204">
        <ele>476.20001220703</ele>
        <time>2021-10-23T13:26:09.000Z</time>
      </trkpt>
      <trkpt lat="46.20062" lon="4.67192">
        <ele>478.20001220703</ele>
        <time>2021-10-23T13:26:14.000Z</time>
      </trkpt>
      <trkpt lat="46.20051" lon="4.67182">
        <ele>479.79998779297</ele>
        <time>2021-10-23T13:26:17.000Z</time>
      </trkpt>
      <trkpt lat="46.2003" lon="4.67154">
        <ele>483.60000610352</ele>
        <time>2021-10-23T13:26:24.000Z</time>
      </trkpt>
      <trkpt lat="46.20027" lon="4.67151">
        <ele>484</ele>
        <time>2021-10-23T13:26:25.000Z</time>
      </trkpt>
      <trkpt lat="46.20015" lon="4.67131">
        <ele>486.39999389648</ele>
        <time>2021-10-23T13:26:30.000Z</time>
      </trkpt>
      <trkpt lat="46.2001" lon="4.67123">
        <ele>487.20001220703</ele>
        <time>2021-10-23T13:26:32.000Z</time>
      </trkpt>
      <trkpt lat="46.20006" lon="4.67114">
        <ele>488.20001220703</ele>
        <time>2021-10-23T13:26:34.000Z</time>
      </trkpt>
      <trkpt lat="46.19999" lon="4.67088">
        <ele>491</ele>
        <time>2021-10-23T13:26:39.000Z</time>
      </trkpt>
      <trkpt lat="46.1999" lon="4.67062">
        <ele>493.79998779297</ele>
        <time>2021-10-23T13:26:44.000Z</time>
      </trkpt>
      <trkpt lat="46.1998" lon="4.67036">
        <ele>495.79998779297</ele>
        <time>2021-10-23T13:26:49.000Z</time>
      </trkpt>
      <trkpt lat="46.19962" lon="4.66994">
        <ele>497.60000610352</ele>
        <time>2021-10-23T13:26:57.000Z</time>
      </trkpt>
      <trkpt lat="46.19957" lon="4.66984">
        <ele>498.20001220703</ele>
        <time>2021-10-23T13:26:59.000Z</time>
      </trkpt>
      <trkpt lat="46.19934" lon="4.66957">
        <ele>500.20001220703</ele>
        <time>2021-10-23T13:27:06.000Z</time>
      </trkpt>
      <trkpt lat="46.19905" lon="4.66921">
        <ele>503.39999389648</ele>
        <time>2021-10-23T13:27:15.000Z</time>
      </trkpt>
      <trkpt lat="46.19898" lon="4.66913">
        <ele>503.20001220703</ele>
        <time>2021-10-23T13:27:17.000Z</time>
      </trkpt>
      <trkpt lat="46.19852" lon="4.66877">
        <ele>504.39999389648</ele>
        <time>2021-10-23T13:27:29.000Z</time>
      </trkpt>
      <trkpt lat="46.19803" lon="4.66834">
        <ele>508</ele>
        <time>2021-10-23T13:27:42.000Z</time>
      </trkpt>
      <trkpt lat="46.19778" lon="4.6681">
        <ele>510.20001220703</ele>
        <time>2021-10-23T13:27:49.000Z</time>
      </trkpt>
      <trkpt lat="46.19726" lon="4.6675">
        <ele>514.79998779297</ele>
        <time>2021-10-23T13:28:03.000Z</time>
      </trkpt>
      <trkpt lat="46.19719" lon="4.66741">
        <ele>514.79998779297</ele>
        <time>2021-10-23T13:28:05.000Z</time>
      </trkpt>
      <trkpt lat="46.19688" lon="4.66671">
        <ele>514.59997558594</ele>
        <time>2021-10-23T13:28:17.000Z</time>
      </trkpt>
      <trkpt lat="46.1968" lon="4.66652">
        <ele>514.40002441406</ele>
        <time>2021-10-23T13:28:20.000Z</time>
      </trkpt>
      <trkpt lat="46.19666" lon="4.66629">
        <ele>516.59997558594</ele>
        <time>2021-10-23T13:28:24.000Z</time>
      </trkpt>
      <trkpt lat="46.19649" lon="4.66605">
        <ele>518.59997558594</ele>
        <time>2021-10-23T13:28:29.000Z</time>
      </trkpt>
      <trkpt lat="46.19639" lon="4.66583">
        <ele>518.59997558594</ele>
        <time>2021-10-23T13:28:33.000Z</time>
      </trkpt>
      <trkpt lat="46.1962" lon="4.66547">
        <ele>523</ele>
        <time>2021-10-23T13:28:40.000Z</time>
      </trkpt>
      <trkpt lat="46.19616" lon="4.66535">
        <ele>524.20001220703</ele>
        <time>2021-10-23T13:28:42.000Z</time>
      </trkpt>
      <trkpt lat="46.19613" lon="4.66516">
        <ele>526.40002441406</ele>
        <time>2021-10-23T13:28:45.000Z</time>
      </trkpt>
      <trkpt lat="46.19614" lon="4.66504">
        <ele>527</ele>
        <time>2021-10-23T13:28:47.000Z</time>
      </trkpt>
      <trkpt lat="46.19622" lon="4.66475">
        <ele>528.59997558594</ele>
        <time>2021-10-23T13:28:52.000Z</time>
      </trkpt>
      <trkpt lat="46.19623" lon="4.66469">
        <ele>528.79998779297</ele>
        <time>2021-10-23T13:28:53.000Z</time>
      </trkpt>
      <trkpt lat="46.19626" lon="4.66421">
        <ele>531</ele>
        <time>2021-10-23T13:29:00.000Z</time>
      </trkpt>
      <trkpt lat="46.19626" lon="4.66375">
        <ele>534.79998779297</ele>
        <time>2021-10-23T13:29:07.000Z</time>
      </trkpt>
      <trkpt lat="46.19627" lon="4.66338">
        <ele>539.59997558594</ele>
        <time>2021-10-23T13:29:13.000Z</time>
      </trkpt>
      <trkpt lat="46.19629" lon="4.66317">
        <ele>540</ele>
        <time>2021-10-23T13:29:16.000Z</time>
      </trkpt>
      <trkpt lat="46.1964" lon="4.66272">
        <ele>537.59997558594</ele>
        <time>2021-10-23T13:29:23.000Z</time>
      </trkpt>
      <trkpt lat="46.19654" lon="4.66193">
        <ele>540</ele>
        <time>2021-10-23T13:29:36.000Z</time>
      </trkpt>
      <trkpt lat="46.19655" lon="4.66177">
        <ele>542.20001220703</ele>
        <time>2021-10-23T13:29:39.000Z</time>
      </trkpt>
      <trkpt lat="46.19646" lon="4.66124">
        <ele>547</ele>
        <time>2021-10-23T13:29:49.000Z</time>
      </trkpt>
      <trkpt lat="46.19644" lon="4.66113">
        <ele>547.59997558594</ele>
        <time>2021-10-23T13:29:51.000Z</time>
      </trkpt>
      <trkpt lat="46.19643" lon="4.66107">
        <ele>547.79998779297</ele>
        <time>2021-10-23T13:29:52.000Z</time>
      </trkpt>
      <trkpt lat="46.19641" lon="4.66089">
        <ele>549</ele>
        <time>2021-10-23T13:29:55.000Z</time>
      </trkpt>
      <trkpt lat="46.19638" lon="4.66048">
        <ele>555.20001220703</ele>
        <time>2021-10-23T13:30:02.000Z</time>
      </trkpt>
      <trkpt lat="46.19633" lon="4.66024">
        <ele>558.59997558594</ele>
        <time>2021-10-23T13:30:06.000Z</time>
      </trkpt>
      <trkpt lat="46.19623" lon="4.66002">
        <ele>561.20001220703</ele>
        <time>2021-10-23T13:30:10.000Z</time>
      </trkpt>
      <trkpt lat="46.19607" lon="4.65971">
        <ele>563</ele>
        <time>2021-10-23T13:30:16.000Z</time>
      </trkpt>
      <trkpt lat="46.19593" lon="4.65946">
        <ele>562.59997558594</ele>
        <time>2021-10-23T13:30:21.000Z</time>
      </trkpt>
      <trkpt lat="46.19579" lon="4.6593">
        <ele>560.59997558594</ele>
        <time>2021-10-23T13:30:25.000Z</time>
      </trkpt>
      <trkpt lat="46.19546" lon="4.65904">
        <ele>557</ele>
        <time>2021-10-23T13:30:33.000Z</time>
      </trkpt>
      <trkpt lat="46.19533" lon="4.65885">
        <ele>555.79998779297</ele>
        <time>2021-10-23T13:30:38.000Z</time>
      </trkpt>
      <trkpt lat="46.19511" lon="4.65855">
        <ele>553</ele>
        <time>2021-10-23T13:31:02.000Z</time>
      </trkpt>
      <trkpt lat="46.1949" lon="4.65832">
        <ele>550.59997558594</ele>
        <time>2021-10-23T13:31:09.000Z</time>
      </trkpt>
      <trkpt lat="46.19456" lon="4.65796">
        <ele>548.59997558594</ele>
        <time>2021-10-23T13:31:21.000Z</time>
      </trkpt>
      <trkpt lat="46.19432" lon="4.65764">
        <ele>546.79998779297</ele>
        <time>2021-10-23T13:31:33.000Z</time>
      </trkpt>
      <trkpt lat="46.19416" lon="4.6575">
        <ele>546.79998779297</ele>
        <time>2021-10-23T13:31:38.000Z</time>
      </trkpt>
      <trkpt lat="46.19404" lon="4.65741">
        <ele>546.79998779297</ele>
        <time>2021-10-23T13:31:41.000Z</time>
      </trkpt>
      <trkpt lat="46.19389" lon="4.65723">
        <ele>546.40002441406</ele>
        <time>2021-10-23T13:31:46.000Z</time>
      </trkpt>
      <trkpt lat="46.19367" lon="4.65698">
        <ele>546.20001220703</ele>
        <time>2021-10-23T13:31:55.000Z</time>
      </trkpt>
      <trkpt lat="46.19356" lon="4.65692">
        <ele>545.79998779297</ele>
        <time>2021-10-23T13:32:00.000Z</time>
      </trkpt>
      <trkpt lat="46.19334" lon="4.65678">
        <ele>545.79998779297</ele>
        <time>2021-10-23T13:32:06.000Z</time>
      </trkpt>
      <trkpt lat="46.19321" lon="4.65663">
        <ele>546.59997558594</ele>
        <time>2021-10-23T13:32:10.000Z</time>
      </trkpt>
      <trkpt lat="46.19294" lon="4.6561">
        <ele>551.20001220703</ele>
        <time>2021-10-23T13:32:21.000Z</time>
      </trkpt>
      <trkpt lat="46.19286" lon="4.65602">
        <ele>551.20001220703</ele>
        <time>2021-10-23T13:32:23.000Z</time>
      </trkpt>
      <trkpt lat="46.19242" lon="4.65551">
        <ele>551.20001220703</ele>
        <time>2021-10-23T13:32:37.000Z</time>
      </trkpt>
      <trkpt lat="46.19225" lon="4.65517">
        <ele>554.40002441406</ele>
        <time>2021-10-23T13:32:44.000Z</time>
      </trkpt>
      <trkpt lat="46.1921" lon="4.65483">
        <ele>556</ele>
        <time>2021-10-23T13:32:50.000Z</time>
      </trkpt>
      <trkpt lat="46.19186" lon="4.65412">
        <ele>557.79998779297</ele>
        <time>2021-10-23T13:33:03.000Z</time>
      </trkpt>
      <trkpt lat="46.19173" lon="4.65372">
        <ele>555.79998779297</ele>
        <time>2021-10-23T13:33:14.000Z</time>
      </trkpt>
      <trkpt lat="46.19166" lon="4.65357">
        <ele>554</ele>
        <time>2021-10-23T13:33:25.000Z</time>
      </trkpt>
      <trkpt lat="46.19163" lon="4.65344">
        <ele>552.59997558594</ele>
        <time>2021-10-23T13:33:31.000Z</time>
      </trkpt>
      <trkpt lat="46.19161" lon="4.65339">
        <ele>552</ele>
        <time>2021-10-23T13:33:32.000Z</time>
      </trkpt>
      <trkpt lat="46.19159" lon="4.65333">
        <ele>551.59997558594</ele>
        <time>2021-10-23T13:33:33.000Z</time>
      </trkpt>
      <trkpt lat="46.19158" lon="4.65328">
        <ele>551.40002441406</ele>
        <time>2021-10-23T13:33:34.000Z</time>
      </trkpt>
      <trkpt lat="46.19161" lon="4.65272">
        <ele>553.40002441406</ele>
        <time>2021-10-23T13:33:45.000Z</time>
      </trkpt>
      <trkpt lat="46.19162" lon="4.65253">
        <ele>553.20001220703</ele>
        <time>2021-10-23T13:33:54.000Z</time>
      </trkpt>
      <trkpt lat="46.19163" lon="4.6525">
        <ele>553.40002441406</ele>
        <time>2021-10-23T13:34:00.000Z</time>
      </trkpt>
      <trkpt lat="46.19161" lon="4.65234">
        <ele>552.40002441406</ele>
        <time>2021-10-23T13:38:39.000Z</time>
      </trkpt>
      <trkpt lat="46.19156" lon="4.65183">
        <ele>555.59997558594</ele>
        <time>2021-10-23T13:38:50.000Z</time>
      </trkpt>
      <trkpt lat="46.19152" lon="4.65166">
        <ele>556.59997558594</ele>
        <time>2021-10-23T13:38:53.000Z</time>
      </trkpt>
      <trkpt lat="46.19136" lon="4.65099">
        <ele>553.79998779297</ele>
        <time>2021-10-23T13:39:05.000Z</time>
      </trkpt>
      <trkpt lat="46.19135" lon="4.65082">
        <ele>553</ele>
        <time>2021-10-23T13:39:08.000Z</time>
      </trkpt>
      <trkpt lat="46.19131" lon="4.65023">
        <ele>547</ele>
        <time>2021-10-23T13:39:18.000Z</time>
      </trkpt>
      <trkpt lat="46.19132" lon="4.65004">
        <ele>544.20001220703</ele>
        <time>2021-10-23T13:39:21.000Z</time>
      </trkpt>
      <trkpt lat="46.19136" lon="4.64985">
        <ele>543</ele>
        <time>2021-10-23T13:39:24.000Z</time>
      </trkpt>
      <trkpt lat="46.19158" lon="4.64952">
        <ele>542.40002441406</ele>
        <time>2021-10-23T13:39:31.000Z</time>
      </trkpt>
      <trkpt lat="46.19208" lon="4.64883">
        <ele>537.20001220703</ele>
        <time>2021-10-23T13:39:45.000Z</time>
      </trkpt>
      <trkpt lat="46.19211" lon="4.64878">
        <ele>537</ele>
        <time>2021-10-23T13:39:46.000Z</time>
      </trkpt>
      <trkpt lat="46.1923" lon="4.64853">
        <ele>535.79998779297</ele>
        <time>2021-10-23T13:39:54.000Z</time>
      </trkpt>
      <trkpt lat="46.1924" lon="4.64837">
        <ele>536.79998779297</ele>
        <time>2021-10-23T13:40:03.000Z</time>
      </trkpt>
      <trkpt lat="46.1924" lon="4.64837">
        <ele>536.79998779297</ele>
        <time>2021-10-23T13:40:04.000Z</time>
      </trkpt>
      <trkpt lat="46.19234" lon="4.64834">
        <ele>536.20001220703</ele>
        <time>2021-10-23T13:40:09.000Z</time>
      </trkpt>
      <trkpt lat="46.19226" lon="4.64824">
        <ele>535.40002441406</ele>
        <time>2021-10-23T13:40:13.000Z</time>
      </trkpt>
      <trkpt lat="46.19212" lon="4.6478">
        <ele>536.40002441406</ele>
        <time>2021-10-23T13:40:24.000Z</time>
      </trkpt>
      <trkpt lat="46.19201" lon="4.64758">
        <ele>535.40002441406</ele>
        <time>2021-10-23T13:40:31.000Z</time>
      </trkpt>
      <trkpt lat="46.19196" lon="4.64749">
        <ele>534.79998779297</ele>
        <time>2021-10-23T13:40:33.000Z</time>
      </trkpt>
      <trkpt lat="46.19191" lon="4.64739">
        <ele>533.59997558594</ele>
        <time>2021-10-23T13:40:35.000Z</time>
      </trkpt>
      <trkpt lat="46.19187" lon="4.64734">
        <ele>532.79998779297</ele>
        <time>2021-10-23T13:40:36.000Z</time>
      </trkpt>
      <trkpt lat="46.19156" lon="4.64691">
        <ele>530.40002441406</ele>
        <time>2021-10-23T13:40:47.000Z</time>
      </trkpt>
      <trkpt lat="46.1915" lon="4.64677">
        <ele>530.20001220703</ele>
        <time>2021-10-23T13:40:50.000Z</time>
      </trkpt>
      <trkpt lat="46.19143" lon="4.64649">
        <ele>532.40002441406</ele>
        <time>2021-10-23T13:40:55.000Z</time>
      </trkpt>
      <trkpt lat="46.19142" lon="4.64637">
        <ele>533.79998779297</ele>
        <time>2021-10-23T13:40:57.000Z</time>
      </trkpt>
      <trkpt lat="46.19139" lon="4.64625">
        <ele>534.79998779297</ele>
        <time>2021-10-23T13:40:59.000Z</time>
      </trkpt>
      <trkpt lat="46.19137" lon="4.64618">
        <ele>535.20001220703</ele>
        <time>2021-10-23T13:41:00.000Z</time>
      </trkpt>
      <trkpt lat="46.19122" lon="4.64593">
        <ele>535</ele>
        <time>2021-10-23T13:41:06.000Z</time>
      </trkpt>
      <trkpt lat="46.1912" lon="4.64589">
        <ele>535</ele>
        <time>2021-10-23T13:41:07.000Z</time>
      </trkpt>
      <trkpt lat="46.19101" lon="4.64569">
        <ele>534.20001220703</ele>
        <time>2021-10-23T13:41:13.000Z</time>
      </trkpt>
      <trkpt lat="46.19094" lon="4.64566">
        <ele>533.59997558594</ele>
        <time>2021-10-23T13:41:15.000Z</time>
      </trkpt>
      <trkpt lat="46.19033" lon="4.64584">
        <ele>523</ele>
        <time>2021-10-23T13:41:27.000Z</time>
      </trkpt>
      <trkpt lat="46.18988" lon="4.64586">
        <ele>520.79998779297</ele>
        <time>2021-10-23T13:41:35.000Z</time>
      </trkpt>
      <trkpt lat="46.1898" lon="4.64588">
        <ele>518.79998779297</ele>
        <time>2021-10-23T13:41:37.000Z</time>
      </trkpt>
      <trkpt lat="46.18961" lon="4.64582">
        <ele>516.40002441406</ele>
        <time>2021-10-23T13:41:41.000Z</time>
      </trkpt>
      <trkpt lat="46.1894" lon="4.64561">
        <ele>514.59997558594</ele>
        <time>2021-10-23T13:41:49.000Z</time>
      </trkpt>
      <trkpt lat="46.18938" lon="4.64559">
        <ele>514.40002441406</ele>
        <time>2021-10-23T13:41:50.000Z</time>
      </trkpt>
      <trkpt lat="46.18918" lon="4.64525">
        <ele>511.39999389648</ele>
        <time>2021-10-23T13:42:00.000Z</time>
      </trkpt>
      <trkpt lat="46.18915" lon="4.6452">
        <ele>510.79998779297</ele>
        <time>2021-10-23T13:42:01.000Z</time>
      </trkpt>
      <trkpt lat="46.18899" lon="4.64452">
        <ele>510.20001220703</ele>
        <time>2021-10-23T13:42:13.000Z</time>
      </trkpt>
      <trkpt lat="46.18896" lon="4.64404">
        <ele>512.79998779297</ele>
        <time>2021-10-23T13:42:22.000Z</time>
      </trkpt>
      <trkpt lat="46.18912" lon="4.64325">
        <ele>517</ele>
        <time>2021-10-23T13:42:36.000Z</time>
      </trkpt>
      <trkpt lat="46.18915" lon="4.64314">
        <ele>518.40002441406</ele>
        <time>2021-10-23T13:42:38.000Z</time>
      </trkpt>
      <trkpt lat="46.18899" lon="4.64294">
        <ele>518.40002441406</ele>
        <time>2021-10-23T13:42:46.000Z</time>
      </trkpt>
      <trkpt lat="46.18891" lon="4.64297">
        <ele>517.40002441406</ele>
        <time>2021-10-23T13:42:48.000Z</time>
      </trkpt>
      <trkpt lat="46.1886" lon="4.64311">
        <ele>513.79998779297</ele>
        <time>2021-10-23T13:42:55.000Z</time>
      </trkpt>
      <trkpt lat="46.18827" lon="4.64318">
        <ele>513.20001220703</ele>
        <time>2021-10-23T13:43:02.000Z</time>
      </trkpt>
      <trkpt lat="46.18802" lon="4.64306">
        <ele>516.40002441406</ele>
        <time>2021-10-23T13:43:09.000Z</time>
      </trkpt>
      <trkpt lat="46.18787" lon="4.64292">
        <ele>517.79998779297</ele>
        <time>2021-10-23T13:43:13.000Z</time>
      </trkpt>
      <trkpt lat="46.18759" lon="4.64266">
        <ele>517</ele>
        <time>2021-10-23T13:43:20.000Z</time>
      </trkpt>
      <trkpt lat="46.1876" lon="4.64245">
        <ele>517.79998779297</ele>
        <time>2021-10-23T13:43:24.000Z</time>
      </trkpt>
      <trkpt lat="46.1878" lon="4.64216">
        <ele>520.59997558594</ele>
        <time>2021-10-23T13:43:30.000Z</time>
      </trkpt>
      <trkpt lat="46.18796" lon="4.64145">
        <ele>525.79998779297</ele>
        <time>2021-10-23T13:43:41.000Z</time>
      </trkpt>
      <trkpt lat="46.18802" lon="4.64105">
        <ele>529.59997558594</ele>
        <time>2021-10-23T13:43:47.000Z</time>
      </trkpt>
      <trkpt lat="46.18805" lon="4.64079">
        <ele>533.40002441406</ele>
        <time>2021-10-23T13:43:51.000Z</time>
      </trkpt>
      <trkpt lat="46.18802" lon="4.6406">
        <ele>534.79998779297</ele>
        <time>2021-10-23T13:43:54.000Z</time>
      </trkpt>
      <trkpt lat="46.18796" lon="4.64051">
        <ele>534.59997558594</ele>
        <time>2021-10-23T13:43:56.000Z</time>
      </trkpt>
      <trkpt lat="46.18781" lon="4.64032">
        <ele>533.59997558594</ele>
        <time>2021-10-23T13:44:01.000Z</time>
      </trkpt>
      <trkpt lat="46.18781" lon="4.64027">
        <ele>533.79998779297</ele>
        <time>2021-10-23T13:44:02.000Z</time>
      </trkpt>
      <trkpt lat="46.18782" lon="4.64022">
        <ele>534.20001220703</ele>
        <time>2021-10-23T13:44:03.000Z</time>
      </trkpt>
      <trkpt lat="46.18785" lon="4.64018">
        <ele>534.79998779297</ele>
        <time>2021-10-23T13:44:04.000Z</time>
      </trkpt>
      <trkpt lat="46.18795" lon="4.63988">
        <ele>537.79998779297</ele>
        <time>2021-10-23T13:44:10.000Z</time>
      </trkpt>
      <trkpt lat="46.18796" lon="4.63946">
        <ele>543.20001220703</ele>
        <time>2021-10-23T13:44:17.000Z</time>
      </trkpt>
      <trkpt lat="46.18792" lon="4.63936">
        <ele>544.79998779297</ele>
        <time>2021-10-23T13:44:19.000Z</time>
      </trkpt>
      <trkpt lat="46.18773" lon="4.63908">
        <ele>546.79998779297</ele>
        <time>2021-10-23T13:44:25.000Z</time>
      </trkpt>
      <trkpt lat="46.18749" lon="4.63856">
        <ele>545.40002441406</ele>
        <time>2021-10-23T13:44:36.000Z</time>
      </trkpt>
      <trkpt lat="46.18733" lon="4.638">
        <ele>546</ele>
        <time>2021-10-23T13:44:45.000Z</time>
      </trkpt>
      <trkpt lat="46.18732" lon="4.63766">
        <ele>551.20001220703</ele>
        <time>2021-10-23T13:44:50.000Z</time>
      </trkpt>
      <trkpt lat="46.18727" lon="4.63742">
        <ele>556.59997558594</ele>
        <time>2021-10-23T13:44:54.000Z</time>
      </trkpt>
      <trkpt lat="46.18716" lon="4.63725">
        <ele>558</ele>
        <time>2021-10-23T13:44:58.000Z</time>
      </trkpt>
      <trkpt lat="46.18701" lon="4.63711">
        <ele>557.20001220703</ele>
        <time>2021-10-23T13:45:02.000Z</time>
      </trkpt>
      <trkpt lat="46.18687" lon="4.63692">
        <ele>557.79998779297</ele>
        <time>2021-10-23T13:45:06.000Z</time>
      </trkpt>
      <trkpt lat="46.1867" lon="4.63686">
        <ele>557.20001220703</ele>
        <time>2021-10-23T13:45:10.000Z</time>
      </trkpt>
      <trkpt lat="46.18637" lon="4.63673">
        <ele>558.40002441406</ele>
        <time>2021-10-23T13:45:19.000Z</time>
      </trkpt>
      <trkpt lat="46.18623" lon="4.6366">
        <ele>561.59997558594</ele>
        <time>2021-10-23T13:45:24.000Z</time>
      </trkpt>
      <trkpt lat="46.18613" lon="4.63649">
        <ele>564.20001220703</ele>
        <time>2021-10-23T13:45:28.000Z</time>
      </trkpt>
      <trkpt lat="46.186" lon="4.63641">
        <ele>565.59997558594</ele>
        <time>2021-10-23T13:45:32.000Z</time>
      </trkpt>
      <trkpt lat="46.18584" lon="4.63632">
        <ele>568.59997558594</ele>
        <time>2021-10-23T13:45:37.000Z</time>
      </trkpt>
      <trkpt lat="46.18575" lon="4.63631">
        <ele>569.40002441406</ele>
        <time>2021-10-23T13:45:40.000Z</time>
      </trkpt>
      <trkpt lat="46.18555" lon="4.63632">
        <ele>570.59997558594</ele>
        <time>2021-10-23T13:45:46.000Z</time>
      </trkpt>
      <trkpt lat="46.18542" lon="4.63635">
        <ele>571</ele>
        <time>2021-10-23T13:45:49.000Z</time>
      </trkpt>
      <trkpt lat="46.18521" lon="4.63644">
        <ele>572.20001220703</ele>
        <time>2021-10-23T13:45:53.000Z</time>
      </trkpt>
      <trkpt lat="46.18465" lon="4.63658">
        <ele>570.79998779297</ele>
        <time>2021-10-23T13:46:08.000Z</time>
      </trkpt>
      <trkpt lat="46.18452" lon="4.63659">
        <ele>569.79998779297</ele>
        <time>2021-10-23T13:46:13.000Z</time>
      </trkpt>
      <trkpt lat="46.18412" lon="4.63688">
        <ele>565.40002441406</ele>
        <time>2021-10-23T13:46:26.000Z</time>
      </trkpt>
      <trkpt lat="46.18408" lon="4.6369">
        <ele>565.20001220703</ele>
        <time>2021-10-23T13:46:27.000Z</time>
      </trkpt>
      <trkpt lat="46.18389" lon="4.63696">
        <ele>564.20001220703</ele>
        <time>2021-10-23T13:46:32.000Z</time>
      </trkpt>
      <trkpt lat="46.18371" lon="4.6371">
        <ele>561.59997558594</ele>
        <time>2021-10-23T13:46:37.000Z</time>
      </trkpt>
      <trkpt lat="46.1836" lon="4.63718">
        <ele>560.20001220703</ele>
        <time>2021-10-23T13:46:40.000Z</time>
      </trkpt>
      <trkpt lat="46.18321" lon="4.63731">
        <ele>556.40002441406</ele>
        <time>2021-10-23T13:46:48.000Z</time>
      </trkpt>
      <trkpt lat="46.18298" lon="4.63751">
        <ele>553.20001220703</ele>
        <time>2021-10-23T13:46:55.000Z</time>
      </trkpt>
      <trkpt lat="46.18297" lon="4.63755">
        <ele>553</ele>
        <time>2021-10-23T13:46:56.000Z</time>
      </trkpt>
      <trkpt lat="46.18293" lon="4.63767">
        <ele>551.40002441406</ele>
        <time>2021-10-23T13:46:59.000Z</time>
      </trkpt>
      <trkpt lat="46.18278" lon="4.63802">
        <ele>545.20001220703</ele>
        <time>2021-10-23T13:47:06.000Z</time>
      </trkpt>
      <trkpt lat="46.18269" lon="4.63819">
        <ele>542.59997558594</ele>
        <time>2021-10-23T13:47:10.000Z</time>
      </trkpt>
      <trkpt lat="46.18261" lon="4.63835">
        <ele>540.40002441406</ele>
        <time>2021-10-23T13:47:14.000Z</time>
      </trkpt>
      <trkpt lat="46.18251" lon="4.63852">
        <ele>537.40002441406</ele>
        <time>2021-10-23T13:47:18.000Z</time>
      </trkpt>
      <trkpt lat="46.18235" lon="4.6388">
        <ele>531.79998779297</ele>
        <time>2021-10-23T13:47:23.000Z</time>
      </trkpt>
      <trkpt lat="46.1822" lon="4.63908">
        <ele>527.20001220703</ele>
        <time>2021-10-23T13:47:28.000Z</time>
      </trkpt>
      <trkpt lat="46.18218" lon="4.63913">
        <ele>526.40002441406</ele>
        <time>2021-10-23T13:47:29.000Z</time>
      </trkpt>
      <trkpt lat="46.18211" lon="4.63937">
        <ele>524</ele>
        <time>2021-10-23T13:47:33.000Z</time>
      </trkpt>
      <trkpt lat="46.18202" lon="4.63966">
        <ele>521.79998779297</ele>
        <time>2021-10-23T13:47:37.000Z</time>
      </trkpt>
      <trkpt lat="46.18176" lon="4.64006">
        <ele>516.79998779297</ele>
        <time>2021-10-23T13:47:43.000Z</time>
      </trkpt>
      <trkpt lat="46.18155" lon="4.64031">
        <ele>512.79998779297</ele>
        <time>2021-10-23T13:47:47.000Z</time>
      </trkpt>
      <trkpt lat="46.18138" lon="4.64045">
        <ele>510.20001220703</ele>
        <time>2021-10-23T13:47:50.000Z</time>
      </trkpt>
      <trkpt lat="46.18132" lon="4.64049">
        <ele>509.20001220703</ele>
        <time>2021-10-23T13:47:51.000Z</time>
      </trkpt>
      <trkpt lat="46.18109" lon="4.64052">
        <ele>507.39999389648</ele>
        <time>2021-10-23T13:47:55.000Z</time>
      </trkpt>
      <trkpt lat="46.18086" lon="4.64061">
        <ele>503.39999389648</ele>
        <time>2021-10-23T13:47:59.000Z</time>
      </trkpt>
      <trkpt lat="46.1804" lon="4.64105">
        <ele>493.60000610352</ele>
        <time>2021-10-23T13:48:06.000Z</time>
      </trkpt>
      <trkpt lat="46.18022" lon="4.64119">
        <ele>490.79998779297</ele>
        <time>2021-10-23T13:48:09.000Z</time>
      </trkpt>
      <trkpt lat="46.18011" lon="4.64127">
        <ele>489.20001220703</ele>
        <time>2021-10-23T13:48:11.000Z</time>
      </trkpt>
      <trkpt lat="46.18001" lon="4.64134">
        <ele>488</ele>
        <time>2021-10-23T13:48:13.000Z</time>
      </trkpt>
      <trkpt lat="46.17991" lon="4.6414">
        <ele>487.20001220703</ele>
        <time>2021-10-23T13:48:15.000Z</time>
      </trkpt>
      <trkpt lat="46.17982" lon="4.64146">
        <ele>486</ele>
        <time>2021-10-23T13:48:17.000Z</time>
      </trkpt>
      <trkpt lat="46.17968" lon="4.64156">
        <ele>484.20001220703</ele>
        <time>2021-10-23T13:48:22.000Z</time>
      </trkpt>
      <trkpt lat="46.17966" lon="4.64157">
        <ele>484</ele>
        <time>2021-10-23T13:48:26.000Z</time>
      </trkpt>
      <trkpt lat="46.17965" lon="4.64157">
        <ele>484</ele>
        <time>2021-10-23T13:48:29.000Z</time>
      </trkpt>
      <trkpt lat="46.17961" lon="4.64158">
        <ele>483.60000610352</ele>
        <time>2021-10-23T13:48:42.000Z</time>
      </trkpt>
      <trkpt lat="46.17953" lon="4.64161">
        <ele>482.60000610352</ele>
        <time>2021-10-23T13:48:46.000Z</time>
      </trkpt>
      <trkpt lat="46.17945" lon="4.64165">
        <ele>482.39999389648</ele>
        <time>2021-10-23T13:48:50.000Z</time>
      </trkpt>
      <trkpt lat="46.17941" lon="4.64167">
        <ele>482.20001220703</ele>
        <time>2021-10-23T13:48:51.000Z</time>
      </trkpt>
      <trkpt lat="46.17937" lon="4.64169">
        <ele>482</ele>
        <time>2021-10-23T13:48:52.000Z</time>
      </trkpt>
      <trkpt lat="46.17928" lon="4.64176">
        <ele>480.39999389648</ele>
        <time>2021-10-23T13:48:55.000Z</time>
      </trkpt>
      <trkpt lat="46.17922" lon="4.64174">
        <ele>479.79998779297</ele>
        <time>2021-10-23T13:48:58.000Z</time>
      </trkpt>
      <trkpt lat="46.1792" lon="4.6417">
        <ele>479.79998779297</ele>
        <time>2021-10-23T13:48:59.000Z</time>
      </trkpt>
      <trkpt lat="46.17918" lon="4.64164">
        <ele>479.20001220703</ele>
        <time>2021-10-23T13:49:00.000Z</time>
      </trkpt>
      <trkpt lat="46.17895" lon="4.64108">
        <ele>473.39999389648</ele>
        <time>2021-10-23T13:49:07.000Z</time>
      </trkpt>
      <trkpt lat="46.17874" lon="4.64062">
        <ele>467.79998779297</ele>
        <time>2021-10-23T13:49:12.000Z</time>
      </trkpt>
      <trkpt lat="46.17864" lon="4.64041">
        <ele>466</ele>
        <time>2021-10-23T13:49:15.000Z</time>
      </trkpt>
      <trkpt lat="46.17857" lon="4.64028">
        <ele>464.79998779297</ele>
        <time>2021-10-23T13:49:18.000Z</time>
      </trkpt>
      <trkpt lat="46.17848" lon="4.64021">
        <ele>464</ele>
        <time>2021-10-23T13:49:20.000Z</time>
      </trkpt>
      <trkpt lat="46.17837" lon="4.64015">
        <ele>463.60000610352</ele>
        <time>2021-10-23T13:49:22.000Z</time>
      </trkpt>
      <trkpt lat="46.17813" lon="4.63991">
        <ele>463.60000610352</ele>
        <time>2021-10-23T13:49:28.000Z</time>
      </trkpt>
      <trkpt lat="46.1781" lon="4.63992">
        <ele>463.39999389648</ele>
        <time>2021-10-23T13:49:29.000Z</time>
      </trkpt>
      <trkpt lat="46.17798" lon="4.63995">
        <ele>462.60000610352</ele>
        <time>2021-10-23T13:49:32.000Z</time>
      </trkpt>
      <trkpt lat="46.17794" lon="4.63997">
        <ele>462.39999389648</ele>
        <time>2021-10-23T13:49:33.000Z</time>
      </trkpt>
      <trkpt lat="46.17776" lon="4.64006">
        <ele>461</ele>
        <time>2021-10-23T13:49:37.000Z</time>
      </trkpt>
      <trkpt lat="46.17771" lon="4.64006">
        <ele>460.79998779297</ele>
        <time>2021-10-23T13:49:38.000Z</time>
      </trkpt>
      <trkpt lat="46.17767" lon="4.64006">
        <ele>460.60000610352</ele>
        <time>2021-10-23T13:49:39.000Z</time>
      </trkpt>
      <trkpt lat="46.17764" lon="4.64005">
        <ele>460.39999389648</ele>
        <time>2021-10-23T13:49:40.000Z</time>
      </trkpt>
      <trkpt lat="46.17762" lon="4.64006">
        <ele>460.20001220703</ele>
        <time>2021-10-23T13:49:41.000Z</time>
      </trkpt>
      <trkpt lat="46.17759" lon="4.64007">
        <ele>460</ele>
        <time>2021-10-23T13:49:42.000Z</time>
      </trkpt>
      <trkpt lat="46.17757" lon="4.64009">
        <ele>459.39999389648</ele>
        <time>2021-10-23T13:49:43.000Z</time>
      </trkpt>
      <trkpt lat="46.17754" lon="4.64013">
        <ele>458.60000610352</ele>
        <time>2021-10-23T13:49:44.000Z</time>
      </trkpt>
      <trkpt lat="46.1775" lon="4.64017">
        <ele>458</ele>
        <time>2021-10-23T13:49:45.000Z</time>
      </trkpt>
      <trkpt lat="46.17722" lon="4.64059">
        <ele>453.60000610352</ele>
        <time>2021-10-23T13:49:52.000Z</time>
      </trkpt>
      <trkpt lat="46.17715" lon="4.64072">
        <ele>452.20001220703</ele>
        <time>2021-10-23T13:49:54.000Z</time>
      </trkpt>
      <trkpt lat="46.17708" lon="4.64085">
        <ele>451</ele>
        <time>2021-10-23T13:49:56.000Z</time>
      </trkpt>
      <trkpt lat="46.17711" lon="4.64113">
        <ele>449.79998779297</ele>
        <time>2021-10-23T13:50:00.000Z</time>
      </trkpt>
      <trkpt lat="46.17702" lon="4.64137">
        <ele>450.60000610352</ele>
        <time>2021-10-23T13:50:05.000Z</time>
      </trkpt>
      <trkpt lat="46.17698" lon="4.6414">
        <ele>450.20001220703</ele>
        <time>2021-10-23T13:50:06.000Z</time>
      </trkpt>
      <trkpt lat="46.17682" lon="4.64154">
        <ele>450.60000610352</ele>
        <time>2021-10-23T13:50:10.000Z</time>
      </trkpt>
      <trkpt lat="46.17666" lon="4.64166">
        <ele>451.20001220703</ele>
        <time>2021-10-23T13:50:14.000Z</time>
      </trkpt>
      <trkpt lat="46.17634" lon="4.64219">
        <ele>451.39999389648</ele>
        <time>2021-10-23T13:50:26.000Z</time>
      </trkpt>
      <trkpt lat="46.17629" lon="4.64257">
        <ele>453</ele>
        <time>2021-10-23T13:50:36.000Z</time>
      </trkpt>
      <trkpt lat="46.17609" lon="4.64288">
        <ele>451.79998779297</ele>
        <time>2021-10-23T13:50:45.000Z</time>
      </trkpt>
      <trkpt lat="46.17594" lon="4.64298">
        <ele>450.60000610352</ele>
        <time>2021-10-23T13:50:49.000Z</time>
      </trkpt>
      <trkpt lat="46.17592" lon="4.64298">
        <ele>450.20001220703</ele>
        <time>2021-10-23T13:50:55.000Z</time>
      </trkpt>
      <trkpt lat="46.17589" lon="4.643">
        <ele>450</ele>
        <time>2021-10-23T13:52:13.000Z</time>
      </trkpt>
      <trkpt lat="46.17576" lon="4.64308">
        <ele>448.20001220703</ele>
        <time>2021-10-23T13:52:17.000Z</time>
      </trkpt>
      <trkpt lat="46.17529" lon="4.64347">
        <ele>443.20001220703</ele>
        <time>2021-10-23T13:52:29.000Z</time>
      </trkpt>
      <trkpt lat="46.1751" lon="4.64367">
        <ele>439.79998779297</ele>
        <time>2021-10-23T13:52:34.000Z</time>
      </trkpt>
      <trkpt lat="46.17499" lon="4.64381">
        <ele>437.20001220703</ele>
        <time>2021-10-23T13:52:38.000Z</time>
      </trkpt>
      <trkpt lat="46.17496" lon="4.64385">
        <ele>436.79998779297</ele>
        <time>2021-10-23T13:52:39.000Z</time>
      </trkpt>
      <trkpt lat="46.17488" lon="4.64392">
        <ele>435.39999389648</ele>
        <time>2021-10-23T13:52:41.000Z</time>
      </trkpt>
      <trkpt lat="46.17475" lon="4.64408">
        <ele>433</ele>
        <time>2021-10-23T13:52:44.000Z</time>
      </trkpt>
      <trkpt lat="46.17448" lon="4.6445">
        <ele>428.79998779297</ele>
        <time>2021-10-23T13:52:50.000Z</time>
      </trkpt>
      <trkpt lat="46.17435" lon="4.64478">
        <ele>427</ele>
        <time>2021-10-23T13:52:54.000Z</time>
      </trkpt>
      <trkpt lat="46.17428" lon="4.64501">
        <ele>425</ele>
        <time>2021-10-23T13:52:59.000Z</time>
      </trkpt>
      <trkpt lat="46.17426" lon="4.64524">
        <ele>425.60000610352</ele>
        <time>2021-10-23T13:53:04.000Z</time>
      </trkpt>
      <trkpt lat="46.17426" lon="4.64544">
        <ele>425.60000610352</ele>
        <time>2021-10-23T13:53:07.000Z</time>
      </trkpt>
      <trkpt lat="46.17408" lon="4.64619">
        <ele>424.20001220703</ele>
        <time>2021-10-23T13:53:18.000Z</time>
      </trkpt>
      <trkpt lat="46.17379" lon="4.64711">
        <ele>423.79998779297</ele>
        <time>2021-10-23T13:53:32.000Z</time>
      </trkpt>
      <trkpt lat="46.17356" lon="4.64789">
        <ele>426</ele>
        <time>2021-10-23T13:53:45.000Z</time>
      </trkpt>
      <trkpt lat="46.17353" lon="4.64801">
        <ele>425.39999389648</ele>
        <time>2021-10-23T13:53:47.000Z</time>
      </trkpt>
      <trkpt lat="46.17336" lon="4.64892">
        <ele>422</ele>
        <time>2021-10-23T13:53:59.000Z</time>
      </trkpt>
      <trkpt lat="46.17328" lon="4.64948">
        <ele>419.60000610352</ele>
        <time>2021-10-23T13:54:06.000Z</time>
      </trkpt>
      <trkpt lat="46.17323" lon="4.64971">
        <ele>419</ele>
        <time>2021-10-23T13:54:09.000Z</time>
      </trkpt>
      <trkpt lat="46.17285" lon="4.65071">
        <ele>416</ele>
        <time>2021-10-23T13:54:22.000Z</time>
      </trkpt>
      <trkpt lat="46.17264" lon="4.65098">
        <ele>415.39999389648</ele>
        <time>2021-10-23T13:54:27.000Z</time>
      </trkpt>
      <trkpt lat="46.17227" lon="4.65151">
        <ele>414</ele>
        <time>2021-10-23T13:54:36.000Z</time>
      </trkpt>
      <trkpt lat="46.17165" lon="4.6522">
        <ele>415.39999389648</ele>
        <time>2021-10-23T13:54:51.000Z</time>
      </trkpt>
      <trkpt lat="46.17139" lon="4.65255">
        <ele>416.39999389648</ele>
        <time>2021-10-23T13:55:01.000Z</time>
      </trkpt>
      <trkpt lat="46.17127" lon="4.6528">
        <ele>416.79998779297</ele>
        <time>2021-10-23T13:55:06.000Z</time>
      </trkpt>
      <trkpt lat="46.17071" lon="4.6536">
        <ele>416.39999389648</ele>
        <time>2021-10-23T13:55:22.000Z</time>
      </trkpt>
      <trkpt lat="46.17057" lon="4.65375">
        <ele>415.39999389648</ele>
        <time>2021-10-23T13:55:25.000Z</time>
      </trkpt>
      <trkpt lat="46.17043" lon="4.65401">
        <ele>416</ele>
        <time>2021-10-23T13:55:29.000Z</time>
      </trkpt>
      <trkpt lat="46.1701" lon="4.65534">
        <ele>416.60000610352</ele>
        <time>2021-10-23T13:55:47.000Z</time>
      </trkpt>
      <trkpt lat="46.16994" lon="4.65662">
        <ele>417</ele>
        <time>2021-10-23T13:56:03.000Z</time>
      </trkpt>
      <trkpt lat="46.16993" lon="4.65685">
        <ele>417</ele>
        <time>2021-10-23T13:56:06.000Z</time>
      </trkpt>
      <trkpt lat="46.16994" lon="4.65712">
        <ele>416.60000610352</ele>
        <time>2021-10-23T13:56:10.000Z</time>
      </trkpt>
      <trkpt lat="46.17009" lon="4.65826">
        <ele>414.20001220703</ele>
        <time>2021-10-23T13:56:25.000Z</time>
      </trkpt>
      <trkpt lat="46.17019" lon="4.65885">
        <ele>409.60000610352</ele>
        <time>2021-10-23T13:56:32.000Z</time>
      </trkpt>
      <trkpt lat="46.17026" lon="4.65931">
        <ele>405.60000610352</ele>
        <time>2021-10-23T13:56:37.000Z</time>
      </trkpt>
      <trkpt lat="46.17027" lon="4.65947">
        <ele>404.20001220703</ele>
        <time>2021-10-23T13:56:39.000Z</time>
      </trkpt>
      <trkpt lat="46.17023" lon="4.65986">
        <ele>400.79998779297</ele>
        <time>2021-10-23T13:56:44.000Z</time>
      </trkpt>
      <trkpt lat="46.17022" lon="4.66012">
        <ele>399.20001220703</ele>
        <time>2021-10-23T13:56:47.000Z</time>
      </trkpt>
      <trkpt lat="46.1701" lon="4.66071">
        <ele>395.20001220703</ele>
        <time>2021-10-23T13:56:54.000Z</time>
      </trkpt>
      <trkpt lat="46.17007" lon="4.66086">
        <ele>394.39999389648</ele>
        <time>2021-10-23T13:56:56.000Z</time>
      </trkpt>
      <trkpt lat="46.17003" lon="4.66101">
        <ele>393.39999389648</ele>
        <time>2021-10-23T13:56:58.000Z</time>
      </trkpt>
      <trkpt lat="46.16997" lon="4.6613">
        <ele>392.39999389648</ele>
        <time>2021-10-23T13:57:02.000Z</time>
      </trkpt>
      <trkpt lat="46.16989" lon="4.66151">
        <ele>391.79998779297</ele>
        <time>2021-10-23T13:57:05.000Z</time>
      </trkpt>
      <trkpt lat="46.16986" lon="4.66176">
        <ele>390.20001220703</ele>
        <time>2021-10-23T13:57:09.000Z</time>
      </trkpt>
      <trkpt lat="46.16988" lon="4.66213">
        <ele>385.60000610352</ele>
        <time>2021-10-23T13:57:14.000Z</time>
      </trkpt>
      <trkpt lat="46.16985" lon="4.66235">
        <ele>384.79998779297</ele>
        <time>2021-10-23T13:57:17.000Z</time>
      </trkpt>
      <trkpt lat="46.16981" lon="4.66265">
        <ele>384.79998779297</ele>
        <time>2021-10-23T13:57:21.000Z</time>
      </trkpt>
      <trkpt lat="46.16986" lon="4.66308">
        <ele>384.39999389648</ele>
        <time>2021-10-23T13:57:27.000Z</time>
      </trkpt>
      <trkpt lat="46.16988" lon="4.6635">
        <ele>381.79998779297</ele>
        <time>2021-10-23T13:57:33.000Z</time>
      </trkpt>
      <trkpt lat="46.16981" lon="4.66389">
        <ele>378.79998779297</ele>
        <time>2021-10-23T13:57:41.000Z</time>
      </trkpt>
      <trkpt lat="46.16981" lon="4.66389">
        <ele>378.79998779297</ele>
        <time>2021-10-23T13:57:45.000Z</time>
      </trkpt>
      <trkpt lat="46.16976" lon="4.66393">
        <ele>378.60000610352</ele>
        <time>2021-10-23T14:04:54.000Z</time>
      </trkpt>
      <trkpt lat="46.16966" lon="4.66388">
        <ele>379.39999389648</ele>
        <time>2021-10-23T14:04:57.000Z</time>
      </trkpt>
      <trkpt lat="46.16903" lon="4.66367">
        <ele>383.60000610352</ele>
        <time>2021-10-23T14:05:10.000Z</time>
      </trkpt>
      <trkpt lat="46.16841" lon="4.66333">
        <ele>382.39999389648</ele>
        <time>2021-10-23T14:05:22.000Z</time>
      </trkpt>
      <trkpt lat="46.16762" lon="4.66343">
        <ele>380.60000610352</ele>
        <time>2021-10-23T14:05:35.000Z</time>
      </trkpt>
      <trkpt lat="46.16688" lon="4.66313">
        <ele>383.79998779297</ele>
        <time>2021-10-23T14:05:50.000Z</time>
      </trkpt>
      <trkpt lat="46.16664" lon="4.66307">
        <ele>384.20001220703</ele>
        <time>2021-10-23T14:05:56.000Z</time>
      </trkpt>
      <trkpt lat="46.16655" lon="4.66322">
        <ele>383.20001220703</ele>
        <time>2021-10-23T14:06:00.000Z</time>
      </trkpt>
      <trkpt lat="46.16648" lon="4.66336">
        <ele>382.20001220703</ele>
        <time>2021-10-23T14:06:04.000Z</time>
      </trkpt>
      <trkpt lat="46.16636" lon="4.66336">
        <ele>382.20001220703</ele>
        <time>2021-10-23T14:06:08.000Z</time>
      </trkpt>
      <trkpt lat="46.16578" lon="4.66296">
        <ele>382.39999389648</ele>
        <time>2021-10-23T14:06:21.000Z</time>
      </trkpt>
      <trkpt lat="46.16554" lon="4.66278">
        <ele>380.39999389648</ele>
        <time>2021-10-23T14:06:29.000Z</time>
      </trkpt>
      <trkpt lat="46.16488" lon="4.66227">
        <ele>372.60000610352</ele>
        <time>2021-10-23T14:06:41.000Z</time>
      </trkpt>
      <trkpt lat="46.16451" lon="4.66199">
        <ele>369.60000610352</ele>
        <time>2021-10-23T14:06:47.000Z</time>
      </trkpt>
      <trkpt lat="46.16441" lon="4.6619">
        <ele>368.60000610352</ele>
        <time>2021-10-23T14:06:50.000Z</time>
      </trkpt>
      <trkpt lat="46.16436" lon="4.66185">
        <ele>368.20001220703</ele>
        <time>2021-10-23T14:06:57.000Z</time>
      </trkpt>
      <trkpt lat="46.16427" lon="4.66182">
        <ele>367.39999389648</ele>
        <time>2021-10-23T14:07:01.000Z</time>
      </trkpt>
      <trkpt lat="46.16424" lon="4.6618">
        <ele>367.20001220703</ele>
        <time>2021-10-23T14:07:02.000Z</time>
      </trkpt>
      <trkpt lat="46.16352" lon="4.66165">
        <ele>365.20001220703</ele>
        <time>2021-10-23T14:07:17.000Z</time>
      </trkpt>
      <trkpt lat="46.16303" lon="4.66151">
        <ele>364.79998779297</ele>
        <time>2021-10-23T14:07:30.000Z</time>
      </trkpt>
      <trkpt lat="46.16272" lon="4.66139">
        <ele>364.20001220703</ele>
        <time>2021-10-23T14:07:38.000Z</time>
      </trkpt>
      <trkpt lat="46.16258" lon="4.66135">
        <ele>364</ele>
        <time>2021-10-23T14:07:41.000Z</time>
      </trkpt>
      <trkpt lat="46.16233" lon="4.66135">
        <ele>365</ele>
        <time>2021-10-23T14:07:46.000Z</time>
      </trkpt>
      <trkpt lat="46.16228" lon="4.66134">
        <ele>365</ele>
        <time>2021-10-23T14:07:47.000Z</time>
      </trkpt>
      <trkpt lat="46.16183" lon="4.66113">
        <ele>363.79998779297</ele>
        <time>2021-10-23T14:07:56.000Z</time>
      </trkpt>
      <trkpt lat="46.16116" lon="4.66102">
        <ele>360.60000610352</ele>
        <time>2021-10-23T14:08:05.000Z</time>
      </trkpt>
      <trkpt lat="46.16095" lon="4.66094">
        <ele>359.60000610352</ele>
        <time>2021-10-23T14:08:09.000Z</time>
      </trkpt>
      <trkpt lat="46.16085" lon="4.66084">
        <ele>358.79998779297</ele>
        <time>2021-10-23T14:08:11.000Z</time>
      </trkpt>
      <trkpt lat="46.16045" lon="4.66032">
        <ele>353.79998779297</ele>
        <time>2021-10-23T14:08:19.000Z</time>
      </trkpt>
      <trkpt lat="46.16049" lon="4.66016">
        <ele>352.39999389648</ele>
        <time>2021-10-23T14:08:23.000Z</time>
      </trkpt>
      <trkpt lat="46.16061" lon="4.66004">
        <ele>352</ele>
        <time>2021-10-23T14:08:26.000Z</time>
      </trkpt>
      <trkpt lat="46.16129" lon="4.65965">
        <ele>350</ele>
        <time>2021-10-23T14:08:38.000Z</time>
      </trkpt>
      <trkpt lat="46.16148" lon="4.65954">
        <ele>348.60000610352</ele>
        <time>2021-10-23T14:08:41.000Z</time>
      </trkpt>
      <trkpt lat="46.16197" lon="4.65922">
        <ele>346.39999389648</ele>
        <time>2021-10-23T14:08:48.000Z</time>
      </trkpt>
      <trkpt lat="46.16226" lon="4.65889">
        <ele>346</ele>
        <time>2021-10-23T14:08:54.000Z</time>
      </trkpt>
      <trkpt lat="46.16217" lon="4.65859">
        <ele>346</ele>
        <time>2021-10-23T14:09:00.000Z</time>
      </trkpt>
      <trkpt lat="46.16209" lon="4.65859">
        <ele>345.79998779297</ele>
        <time>2021-10-23T14:09:02.000Z</time>
      </trkpt>
      <trkpt lat="46.16199" lon="4.65861">
        <ele>345.20001220703</ele>
        <time>2021-10-23T14:09:04.000Z</time>
      </trkpt>
      <trkpt lat="46.16141" lon="4.65856">
        <ele>346.60000610352</ele>
        <time>2021-10-23T14:09:15.000Z</time>
      </trkpt>
      <trkpt lat="46.16114" lon="4.65849">
        <ele>347.79998779297</ele>
        <time>2021-10-23T14:09:20.000Z</time>
      </trkpt>
      <trkpt lat="46.16066" lon="4.65835">
        <ele>348.39999389648</ele>
        <time>2021-10-23T14:09:30.000Z</time>
      </trkpt>
      <trkpt lat="46.16051" lon="4.65809">
        <ele>352.20001220703</ele>
        <time>2021-10-23T14:09:35.000Z</time>
      </trkpt>
      <trkpt lat="46.1605" lon="4.65803">
        <ele>352.79998779297</ele>
        <time>2021-10-23T14:09:36.000Z</time>
      </trkpt>
      <trkpt lat="46.16048" lon="4.65791">
        <ele>354.20001220703</ele>
        <time>2021-10-23T14:09:38.000Z</time>
      </trkpt>
      <trkpt lat="46.16044" lon="4.65774">
        <ele>355.60000610352</ele>
        <time>2021-10-23T14:09:41.000Z</time>
      </trkpt>
      <trkpt lat="46.16039" lon="4.65757">
        <ele>356.79998779297</ele>
        <time>2021-10-23T14:09:44.000Z</time>
      </trkpt>
      <trkpt lat="46.16028" lon="4.65716">
        <ele>360</ele>
        <time>2021-10-23T14:09:51.000Z</time>
      </trkpt>
      <trkpt lat="46.16017" lon="4.65668">
        <ele>362</ele>
        <time>2021-10-23T14:09:59.000Z</time>
      </trkpt>
      <trkpt lat="46.16006" lon="4.6561">
        <ele>362.60000610352</ele>
        <time>2021-10-23T14:10:11.000Z</time>
      </trkpt>
      <trkpt lat="46.15989" lon="4.65539">
        <ele>362.60000610352</ele>
        <time>2021-10-23T14:10:24.000Z</time>
      </trkpt>
      <trkpt lat="46.15964" lon="4.65429">
        <ele>364.79998779297</ele>
        <time>2021-10-23T14:10:43.000Z</time>
      </trkpt>
      <trkpt lat="46.15956" lon="4.65395">
        <ele>366.39999389648</ele>
        <time>2021-10-23T14:10:49.000Z</time>
      </trkpt>
      <trkpt lat="46.15955" lon="4.65304">
        <ele>370.20001220703</ele>
        <time>2021-10-23T14:11:04.000Z</time>
      </trkpt>
      <trkpt lat="46.1595" lon="4.65241">
        <ele>372.60000610352</ele>
        <time>2021-10-23T14:11:17.000Z</time>
      </trkpt>
      <trkpt lat="46.15925" lon="4.65182">
        <ele>372.79998779297</ele>
        <time>2021-10-23T14:11:29.000Z</time>
      </trkpt>
      <trkpt lat="46.15901" lon="4.65096">
        <ele>373</ele>
        <time>2021-10-23T14:11:45.000Z</time>
      </trkpt>
      <trkpt lat="46.15901" lon="4.65046">
        <ele>372.79998779297</ele>
        <time>2021-10-23T14:11:57.000Z</time>
      </trkpt>
      <trkpt lat="46.15902" lon="4.64987">
        <ele>369.20001220703</ele>
        <time>2021-10-23T14:12:09.000Z</time>
      </trkpt>
      <trkpt lat="46.15901" lon="4.64966">
        <ele>366.39999389648</ele>
        <time>2021-10-23T14:12:15.000Z</time>
      </trkpt>
      <trkpt lat="46.15892" lon="4.64962">
        <ele>365.39999389648</ele>
        <time>2021-10-23T14:12:19.000Z</time>
      </trkpt>
      <trkpt lat="46.15885" lon="4.6496">
        <ele>364.60000610352</ele>
        <time>2021-10-23T14:12:21.000Z</time>
      </trkpt>
      <trkpt lat="46.15822" lon="4.64958">
        <ele>365.39999389648</ele>
        <time>2021-10-23T14:12:36.000Z</time>
      </trkpt>
      <trkpt lat="46.15814" lon="4.64956">
        <ele>365.39999389648</ele>
        <time>2021-10-23T14:12:38.000Z</time>
      </trkpt>
      <trkpt lat="46.15763" lon="4.64951">
        <ele>365.20001220703</ele>
        <time>2021-10-23T14:12:53.000Z</time>
      </trkpt>
      <trkpt lat="46.15759" lon="4.64951">
        <ele>365.20001220703</ele>
        <time>2021-10-23T14:12:54.000Z</time>
      </trkpt>
      <trkpt lat="46.15693" lon="4.64945">
        <ele>359.60000610352</ele>
        <time>2021-10-23T14:13:07.000Z</time>
      </trkpt>
      <trkpt lat="46.15683" lon="4.64944">
        <ele>358.39999389648</ele>
        <time>2021-10-23T14:13:09.000Z</time>
      </trkpt>
      <trkpt lat="46.15659" lon="4.64947">
        <ele>355.20001220703</ele>
        <time>2021-10-23T14:13:15.000Z</time>
      </trkpt>
      <trkpt lat="46.15642" lon="4.6495">
        <ele>352.79998779297</ele>
        <time>2021-10-23T14:13:20.000Z</time>
      </trkpt>
      <trkpt lat="46.15622" lon="4.64951">
        <ele>350.39999389648</ele>
        <time>2021-10-23T14:13:26.000Z</time>
      </trkpt>
      <trkpt lat="46.15614" lon="4.64954">
        <ele>349.79998779297</ele>
        <time>2021-10-23T14:13:29.000Z</time>
      </trkpt>
      <trkpt lat="46.15573" lon="4.64961">
        <ele>347.20001220703</ele>
        <time>2021-10-23T14:13:36.000Z</time>
      </trkpt>
      <trkpt lat="46.15567" lon="4.64962">
        <ele>346.39999389648</ele>
        <time>2021-10-23T14:13:37.000Z</time>
      </trkpt>
      <trkpt lat="46.15538" lon="4.64968">
        <ele>343.20001220703</ele>
        <time>2021-10-23T14:13:42.000Z</time>
      </trkpt>
      <trkpt lat="46.15525" lon="4.64971">
        <ele>341.39999389648</ele>
        <time>2021-10-23T14:13:44.000Z</time>
      </trkpt>
      <trkpt lat="46.15462" lon="4.6501">
        <ele>337.60000610352</ele>
        <time>2021-10-23T14:13:56.000Z</time>
      </trkpt>
      <trkpt lat="46.15435" lon="4.65028">
        <ele>335.60000610352</ele>
        <time>2021-10-23T14:14:01.000Z</time>
      </trkpt>
      <trkpt lat="46.1543" lon="4.65031">
        <ele>335.39999389648</ele>
        <time>2021-10-23T14:14:02.000Z</time>
      </trkpt>
      <trkpt lat="46.15418" lon="4.65043">
        <ele>335</ele>
        <time>2021-10-23T14:14:06.000Z</time>
      </trkpt>
      <trkpt lat="46.15407" lon="4.65048">
        <ele>334</ele>
        <time>2021-10-23T14:14:11.000Z</time>
      </trkpt>
      <trkpt lat="46.15384" lon="4.65037">
        <ele>331.79998779297</ele>
        <time>2021-10-23T14:14:16.000Z</time>
      </trkpt>
      <trkpt lat="46.15361" lon="4.6505">
        <ele>329.60000610352</ele>
        <time>2021-10-23T14:14:22.000Z</time>
      </trkpt>
      <trkpt lat="46.15356" lon="4.65051">
        <ele>329.20001220703</ele>
        <time>2021-10-23T14:14:23.000Z</time>
      </trkpt>
      <trkpt lat="46.15336" lon="4.65057">
        <ele>327.20001220703</ele>
        <time>2021-10-23T14:14:26.000Z</time>
      </trkpt>
      <trkpt lat="46.1531" lon="4.65065">
        <ele>324.60000610352</ele>
        <time>2021-10-23T14:14:30.000Z</time>
      </trkpt>
      <trkpt lat="46.15285" lon="4.65059">
        <ele>322.20001220703</ele>
        <time>2021-10-23T14:14:35.000Z</time>
      </trkpt>
      <trkpt lat="46.15254" lon="4.65034">
        <ele>318.20001220703</ele>
        <time>2021-10-23T14:14:40.000Z</time>
      </trkpt>
      <trkpt lat="46.15219" lon="4.65004">
        <ele>315.20001220703</ele>
        <time>2021-10-23T14:14:46.000Z</time>
      </trkpt>
      <trkpt lat="46.15205" lon="4.65007">
        <ele>314.79998779297</ele>
        <time>2021-10-23T14:14:51.000Z</time>
      </trkpt>
      <trkpt lat="46.15198" lon="4.6502">
        <ele>315</ele>
        <time>2021-10-23T14:14:54.000Z</time>
      </trkpt>
      <trkpt lat="46.15188" lon="4.65031">
        <ele>315</ele>
        <time>2021-10-23T14:14:57.000Z</time>
      </trkpt>
      <trkpt lat="46.15178" lon="4.65063">
        <ele>315.39999389648</ele>
        <time>2021-10-23T14:15:03.000Z</time>
      </trkpt>
      <trkpt lat="46.1518" lon="4.65143">
        <ele>319.60000610352</ele>
        <time>2021-10-23T14:15:15.000Z</time>
      </trkpt>
      <trkpt lat="46.1518" lon="4.65189">
        <ele>321.39999389648</ele>
        <time>2021-10-23T14:15:22.000Z</time>
      </trkpt>
      <trkpt lat="46.1518" lon="4.65196">
        <ele>321.60000610352</ele>
        <time>2021-10-23T14:15:23.000Z</time>
      </trkpt>
      <trkpt lat="46.15181" lon="4.65266">
        <ele>324.20001220703</ele>
        <time>2021-10-23T14:15:37.000Z</time>
      </trkpt>
      <trkpt lat="46.15181" lon="4.65266">
        <ele>324.20001220703</ele>
        <time>2021-10-23T14:15:40.000Z</time>
      </trkpt>
      <trkpt lat="46.15182" lon="4.65276">
        <ele>324.60000610352</ele>
        <time>2021-10-23T14:16:17.000Z</time>
      </trkpt>
      <trkpt lat="46.15188" lon="4.65352">
        <ele>326.60000610352</ele>
        <time>2021-10-23T14:16:29.000Z</time>
      </trkpt>
      <trkpt lat="46.15192" lon="4.6546">
        <ele>327.20001220703</ele>
        <time>2021-10-23T14:16:44.000Z</time>
      </trkpt>
      <trkpt lat="46.152" lon="4.65574">
        <ele>326</ele>
        <time>2021-10-23T14:16:59.000Z</time>
      </trkpt>
      <trkpt lat="46.15203" lon="4.65597">
        <ele>325.60000610352</ele>
        <time>2021-10-23T14:17:02.000Z</time>
      </trkpt>
      <trkpt lat="46.15214" lon="4.65626">
        <ele>325.60000610352</ele>
        <time>2021-10-23T14:17:06.000Z</time>
      </trkpt>
      <trkpt lat="46.15251" lon="4.65689">
        <ele>324.39999389648</ele>
        <time>2021-10-23T14:17:16.000Z</time>
      </trkpt>
      <trkpt lat="46.15295" lon="4.65766">
        <ele>325.39999389648</ele>
        <time>2021-10-23T14:17:29.000Z</time>
      </trkpt>
      <trkpt lat="46.15354" lon="4.65868">
        <ele>328</ele>
        <time>2021-10-23T14:17:48.000Z</time>
      </trkpt>
      <trkpt lat="46.15357" lon="4.65874">
        <ele>328.20001220703</ele>
        <time>2021-10-23T14:17:49.000Z</time>
      </trkpt>
      <trkpt lat="46.15408" lon="4.65947">
        <ele>332</ele>
        <time>2021-10-23T14:18:03.000Z</time>
      </trkpt>
      <trkpt lat="46.15414" lon="4.65959">
        <ele>332.20001220703</ele>
        <time>2021-10-23T14:18:05.000Z</time>
      </trkpt>
      <trkpt lat="46.15423" lon="4.65977">
        <ele>332.60000610352</ele>
        <time>2021-10-23T14:18:08.000Z</time>
      </trkpt>
      <trkpt lat="46.15457" lon="4.66047">
        <ele>332.20001220703</ele>
        <time>2021-10-23T14:18:20.000Z</time>
      </trkpt>
      <trkpt lat="46.15465" lon="4.66065">
        <ele>331.60000610352</ele>
        <time>2021-10-23T14:18:24.000Z</time>
      </trkpt>
      <trkpt lat="46.15458" lon="4.66073">
        <ele>330.79998779297</ele>
        <time>2021-10-23T14:18:28.000Z</time>
      </trkpt>
      <trkpt lat="46.15419" lon="4.66072">
        <ele>330.60000610352</ele>
        <time>2021-10-23T14:18:37.000Z</time>
      </trkpt>
      <trkpt lat="46.15381" lon="4.6607">
        <ele>328.39999389648</ele>
        <time>2021-10-23T14:18:45.000Z</time>
      </trkpt>
      <trkpt lat="46.15286" lon="4.6607">
        <ele>324.60000610352</ele>
        <time>2021-10-23T14:19:01.000Z</time>
      </trkpt>
      <trkpt lat="46.15259" lon="4.66068">
        <ele>324</ele>
        <time>2021-10-23T14:19:05.000Z</time>
      </trkpt>
      <trkpt lat="46.15237" lon="4.66055">
        <ele>324</ele>
        <time>2021-10-23T14:19:09.000Z</time>
      </trkpt>
      <trkpt lat="46.15174" lon="4.66017">
        <ele>324.79998779297</ele>
        <time>2021-10-23T14:19:23.000Z</time>
      </trkpt>
      <trkpt lat="46.15117" lon="4.65975">
        <ele>323.39999389648</ele>
        <time>2021-10-23T14:19:35.000Z</time>
      </trkpt>
      <trkpt lat="46.15077" lon="4.65943">
        <ele>319.20001220703</ele>
        <time>2021-10-23T14:19:43.000Z</time>
      </trkpt>
      <trkpt lat="46.15042" lon="4.65937">
        <ele>315.79998779297</ele>
        <time>2021-10-23T14:19:49.000Z</time>
      </trkpt>
      <trkpt lat="46.15006" lon="4.65949">
        <ele>313.60000610352</ele>
        <time>2021-10-23T14:19:55.000Z</time>
      </trkpt>
      <trkpt lat="46.15001" lon="4.65951">
        <ele>313.60000610352</ele>
        <time>2021-10-23T14:19:56.000Z</time>
      </trkpt>
      <trkpt lat="46.14989" lon="4.65951">
        <ele>313</ele>
        <time>2021-10-23T14:19:59.000Z</time>
      </trkpt>
      <trkpt lat="46.14984" lon="4.65949">
        <ele>312.79998779297</ele>
        <time>2021-10-23T14:20:00.000Z</time>
      </trkpt>
      <trkpt lat="46.1498" lon="4.65947">
        <ele>312.60000610352</ele>
        <time>2021-10-23T14:20:01.000Z</time>
      </trkpt>
      <trkpt lat="46.14963" lon="4.65936">
        <ele>312</ele>
        <time>2021-10-23T14:20:05.000Z</time>
      </trkpt>
      <trkpt lat="46.14945" lon="4.65917">
        <ele>311.39999389648</ele>
        <time>2021-10-23T14:20:09.000Z</time>
      </trkpt>
      <trkpt lat="46.14925" lon="4.65878">
        <ele>311</ele>
        <time>2021-10-23T14:20:17.000Z</time>
      </trkpt>
      <trkpt lat="46.14908" lon="4.6587">
        <ele>310.79998779297</ele>
        <time>2021-10-23T14:20:22.000Z</time>
      </trkpt>
      <trkpt lat="46.14887" lon="4.65857">
        <ele>311.60000610352</ele>
        <time>2021-10-23T14:20:27.000Z</time>
      </trkpt>
      <trkpt lat="46.14822" lon="4.65809">
        <ele>312</ele>
        <time>2021-10-23T14:20:43.000Z</time>
      </trkpt>
      <trkpt lat="46.14796" lon="4.65788">
        <ele>310.79998779297</ele>
        <time>2021-10-23T14:20:53.000Z</time>
      </trkpt>
      <trkpt lat="46.14789" lon="4.65782">
        <ele>310.60000610352</ele>
        <time>2021-10-23T14:20:55.000Z</time>
      </trkpt>
      <trkpt lat="46.14758" lon="4.65739">
        <ele>309.20001220703</ele>
        <time>2021-10-23T14:21:04.000Z</time>
      </trkpt>
      <trkpt lat="46.14743" lon="4.65725">
        <ele>308.20001220703</ele>
        <time>2021-10-23T14:21:07.000Z</time>
      </trkpt>
      <trkpt lat="46.14701" lon="4.65691">
        <ele>304.39999389648</ele>
        <time>2021-10-23T14:21:15.000Z</time>
      </trkpt>
      <trkpt lat="46.14689" lon="4.65684">
        <ele>303.79998779297</ele>
        <time>2021-10-23T14:21:21.000Z</time>
      </trkpt>
      <trkpt lat="46.14685" lon="4.65711">
        <ele>302.60000610352</ele>
        <time>2021-10-23T14:21:27.000Z</time>
      </trkpt>
      <trkpt lat="46.14688" lon="4.65776">
        <ele>302.39999389648</ele>
        <time>2021-10-23T14:21:35.000Z</time>
      </trkpt>
      <trkpt lat="46.14695" lon="4.65829">
        <ele>300.79998779297</ele>
        <time>2021-10-23T14:21:41.000Z</time>
      </trkpt>
      <trkpt lat="46.14721" lon="4.65897">
        <ele>301.20001220703</ele>
        <time>2021-10-23T14:21:50.000Z</time>
      </trkpt>
      <trkpt lat="46.14727" lon="4.65973">
        <ele>301.39999389648</ele>
        <time>2021-10-23T14:21:59.000Z</time>
      </trkpt>
      <trkpt lat="46.1472" lon="4.66018">
        <ele>302</ele>
        <time>2021-10-23T14:22:05.000Z</time>
      </trkpt>
      <trkpt lat="46.14695" lon="4.66095">
        <ele>303.39999389648</ele>
        <time>2021-10-23T14:22:17.000Z</time>
      </trkpt>
      <trkpt lat="46.14681" lon="4.66101">
        <ele>303.60000610352</ele>
        <time>2021-10-23T14:22:21.000Z</time>
      </trkpt>
      <trkpt lat="46.14636" lon="4.66099">
        <ele>304.60000610352</ele>
        <time>2021-10-23T14:22:30.000Z</time>
      </trkpt>
      <trkpt lat="46.14619" lon="4.66104">
        <ele>304.39999389648</ele>
        <time>2021-10-23T14:22:34.000Z</time>
      </trkpt>
      <trkpt lat="46.14602" lon="4.66091">
        <ele>305</ele>
        <time>2021-10-23T14:22:38.000Z</time>
      </trkpt>
      <trkpt lat="46.14594" lon="4.66081">
        <ele>305</ele>
        <time>2021-10-23T14:22:40.000Z</time>
      </trkpt>
      <trkpt lat="46.14586" lon="4.66073">
        <ele>305</ele>
        <time>2021-10-23T14:22:42.000Z</time>
      </trkpt>
      <trkpt lat="46.14525" lon="4.65994">
        <ele>304.39999389648</ele>
        <time>2021-10-23T14:22:58.000Z</time>
      </trkpt>
      <trkpt lat="46.14513" lon="4.6598">
        <ele>304.60000610352</ele>
        <time>2021-10-23T14:23:01.000Z</time>
      </trkpt>
      <trkpt lat="46.14494" lon="4.6597">
        <ele>305.20001220703</ele>
        <time>2021-10-23T14:23:05.000Z</time>
      </trkpt>
      <trkpt lat="46.14417" lon="4.6596">
        <ele>310</ele>
        <time>2021-10-23T14:23:20.000Z</time>
      </trkpt>
      <trkpt lat="46.14407" lon="4.65957">
        <ele>310.60000610352</ele>
        <time>2021-10-23T14:23:22.000Z</time>
      </trkpt>
      <trkpt lat="46.14364" lon="4.65955">
        <ele>311.20001220703</ele>
        <time>2021-10-23T14:23:31.000Z</time>
      </trkpt>
      <trkpt lat="46.14324" lon="4.65957">
        <ele>309.60000610352</ele>
        <time>2021-10-23T14:23:39.000Z</time>
      </trkpt>
      <trkpt lat="46.14269" lon="4.65996">
        <ele>308.60000610352</ele>
        <time>2021-10-23T14:23:51.000Z</time>
      </trkpt>
      <trkpt lat="46.14261" lon="4.65996">
        <ele>307.79998779297</ele>
        <time>2021-10-23T14:23:57.000Z</time>
      </trkpt>
      <trkpt lat="46.14261" lon="4.65996">
        <ele>308</ele>
        <time>2021-10-23T14:24:00.000Z</time>
      </trkpt>
      <trkpt lat="46.14262" lon="4.65988">
        <ele>307.39999389648</ele>
        <time>2021-10-23T14:24:05.000Z</time>
      </trkpt>
      <trkpt lat="46.14254" lon="4.6598">
        <ele>306.20001220703</ele>
        <time>2021-10-23T14:24:08.000Z</time>
      </trkpt>
      <trkpt lat="46.14211" lon="4.65961">
        <ele>301.8</ele>
        <time>2021-10-23T14:24:17.000Z</time>
      </trkpt>
      <trkpt lat="46.14187" lon="4.65948">
        <ele>298.20001220703</ele>
        <time>2021-10-23T14:24:21.000Z</time>
      </trkpt>
      <trkpt lat="46.14167" lon="4.65938">
        <ele>297</ele>
        <time>2021-10-23T14:24:27.000Z</time>
      </trkpt>
      <trkpt lat="46.14126" lon="4.65922">
        <ele>294.60000610352</ele>
        <time>2021-10-23T14:24:37.000Z</time>
      </trkpt>
      <trkpt lat="46.14121" lon="4.65927">
        <ele>294.39999389648</ele>
        <time>2021-10-23T14:24:40.000Z</time>
      </trkpt>
      <trkpt lat="46.1412" lon="4.65942">
        <ele>295</ele>
        <time>2021-10-23T14:24:43.000Z</time>
      </trkpt>
      <trkpt lat="46.14119" lon="4.65991">
        <ele>296.20001220703</ele>
        <time>2021-10-23T14:24:50.000Z</time>
      </trkpt>
      <trkpt lat="46.14111" lon="4.65996">
        <ele>295.60000610352</ele>
        <time>2021-10-23T14:24:54.000Z</time>
      </trkpt>
      <trkpt lat="46.14084" lon="4.65987">
        <ele>293.20001220703</ele>
        <time>2021-10-23T14:25:00.000Z</time>
      </trkpt>
      <trkpt lat="46.14073" lon="4.66005">
        <ele>293</ele>
        <time>2021-10-23T14:25:05.000Z</time>
      </trkpt>
      <trkpt lat="46.14057" lon="4.66144">
        <ele>292.39999389648</ele>
        <time>2021-10-23T14:25:23.000Z</time>
      </trkpt>
      <trkpt lat="46.14052" lon="4.66184">
        <ele>291.20001220703</ele>
        <time>2021-10-23T14:25:33.000Z</time>
      </trkpt>
      <trkpt lat="46.14034" lon="4.6625">
        <ele>289.79998779297</ele>
        <time>2021-10-23T14:25:45.000Z</time>
      </trkpt>
      <trkpt lat="46.14029" lon="4.66276">
        <ele>289.39999389648</ele>
        <time>2021-10-23T14:26:23.000Z</time>
      </trkpt>
      <trkpt lat="46.1402" lon="4.66324">
        <ele>288.8</ele>
        <time>2021-10-23T14:26:29.000Z</time>
      </trkpt>
      <trkpt lat="46.14012" lon="4.66364">
        <ele>288.60000610352</ele>
        <time>2021-10-23T14:26:41.000Z</time>
      </trkpt>
      <trkpt lat="46.14011" lon="4.66378">
        <ele>288</ele>
        <time>2021-10-23T14:26:43.000Z</time>
      </trkpt>
      <trkpt lat="46.14009" lon="4.66394">
        <ele>287.60000610352</ele>
        <time>2021-10-23T14:26:45.000Z</time>
      </trkpt>
      <trkpt lat="46.14004" lon="4.66429">
        <ele>285.79998779297</ele>
        <time>2021-10-23T14:26:50.000Z</time>
      </trkpt>
      <trkpt lat="46.13985" lon="4.66457">
        <ele>284.79998779297</ele>
        <time>2021-10-23T14:26:56.000Z</time>
      </trkpt>
      <trkpt lat="46.13897" lon="4.66515">
        <ele>280.20001220703</ele>
        <time>2021-10-23T14:27:13.000Z</time>
      </trkpt>
      <trkpt lat="46.13885" lon="4.6654">
        <ele>279.79998779297</ele>
        <time>2021-10-23T14:27:19.000Z</time>
      </trkpt>
      <trkpt lat="46.13857" lon="4.6661">
        <ele>276.39999389648</ele>
        <time>2021-10-23T14:27:29.000Z</time>
      </trkpt>
      <trkpt lat="46.13852" lon="4.66633">
        <ele>276</ele>
        <time>2021-10-23T14:27:32.000Z</time>
      </trkpt>
      <trkpt lat="46.13853" lon="4.66656">
        <ele>275.60000610352</ele>
        <time>2021-10-23T14:27:36.000Z</time>
      </trkpt>
      <trkpt lat="46.13857" lon="4.6667">
        <ele>275.7</ele>
        <time>2021-10-23T14:28:06.000Z</time>
      </trkpt>
      <trkpt lat="46.13861" lon="4.66702">
        <ele>274.7</ele>
        <time>2021-10-23T14:28:10.000Z</time>
      </trkpt>
      <trkpt lat="46.13879" lon="4.66752">
        <ele>274.6</ele>
      </trkpt>
      <trkpt lat="46.13886" lon="4.66789">
        <ele>273.20001220703</ele>
        <time>2021-10-23T14:28:39.000Z</time>
      </trkpt>
      <trkpt lat="46.13896" lon="4.66833">
        <ele>273.39999389648</ele>
        <time>2021-10-23T14:28:46.000Z</time>
      </trkpt>
      <trkpt lat="46.139" lon="4.66855">
        <ele>273</ele>
        <time>2021-10-23T14:28:50.000Z</time>
      </trkpt>
      <trkpt lat="46.1393" lon="4.6692">
        <ele>272.79998779297</ele>
        <time>2021-10-23T14:29:01.000Z</time>
      </trkpt>
      <trkpt lat="46.13938" lon="4.6696">
        <ele>272.20001220703</ele>
        <time>2021-10-23T14:29:07.000Z</time>
      </trkpt>
      <trkpt lat="46.13914" lon="4.67072">
        <ele>273.20001220703</ele>
        <time>2021-10-23T14:29:23.000Z</time>
      </trkpt>
      <trkpt lat="46.13912" lon="4.67086">
        <ele>273.20001220703</ele>
        <time>2021-10-23T14:29:26.000Z</time>
      </trkpt>
      <trkpt lat="46.13901" lon="4.67097">
        <ele>272.60000610352</ele>
        <time>2021-10-23T14:29:29.000Z</time>
      </trkpt>
      <trkpt lat="46.13806" lon="4.67174">
        <ele>268</ele>
        <time>2021-10-23T14:29:45.000Z</time>
      </trkpt>
      <trkpt lat="46.1377" lon="4.67199">
        <ele>268</ele>
        <time>2021-10-23T14:29:51.000Z</time>
      </trkpt>
      <trkpt lat="46.13742" lon="4.67226">
        <ele>267.20001220703</ele>
        <time>2021-10-23T14:29:57.000Z</time>
      </trkpt>
      <trkpt lat="46.13673" lon="4.67303">
        <ele>267</ele>
        <time>2021-10-23T14:30:12.000Z</time>
      </trkpt>
      <trkpt lat="46.13605" lon="4.67388">
        <ele>265</ele>
        <time>2021-10-23T14:30:27.000Z</time>
      </trkpt>
      <trkpt lat="46.13528" lon="4.67487">
        <ele>263</ele>
        <time>2021-10-23T14:30:44.000Z</time>
      </trkpt>
      <trkpt lat="46.13496" lon="4.67524">
        <ele>262.79998779297</ele>
        <time>2021-10-23T14:30:53.000Z</time>
      </trkpt>
      <trkpt lat="46.13491" lon="4.67568">
        <ele>262.60000610352</ele>
        <time>2021-10-23T14:31:03.000Z</time>
      </trkpt>
      <trkpt lat="46.1347" lon="4.67657">
        <ele>260.79998779297</ele>
        <time>2021-10-23T14:31:15.000Z</time>
      </trkpt>
      <trkpt lat="46.13445" lon="4.67793">
        <ele>257</ele>
        <time>2021-10-23T14:31:33.000Z</time>
      </trkpt>
      <trkpt lat="46.13443" lon="4.67801">
        <ele>257</ele>
        <time>2021-10-23T14:31:34.000Z</time>
      </trkpt>
      <trkpt lat="46.1342" lon="4.6789">
        <ele>256.60000610352</ele>
        <time>2021-10-23T14:31:45.000Z</time>
      </trkpt>
      <trkpt lat="46.13417" lon="4.67908">
        <ele>256</ele>
        <time>2021-10-23T14:31:47.000Z</time>
      </trkpt>
      <trkpt lat="46.13367" lon="4.68049">
        <ele>253</ele>
        <time>2021-10-23T14:32:05.000Z</time>
      </trkpt>
      <trkpt lat="46.13347" lon="4.68079">
        <ele>253.39999389648</ele>
        <time>2021-10-23T14:32:10.000Z</time>
      </trkpt>
      <trkpt lat="46.13333" lon="4.68106">
        <ele>253</ele>
        <time>2021-10-23T14:32:14.000Z</time>
      </trkpt>
      <trkpt lat="46.13323" lon="4.68165">
        <ele>251.19999694824</ele>
        <time>2021-10-23T14:32:21.000Z</time>
      </trkpt>
      <trkpt lat="46.13317" lon="4.6819">
        <ele>251.19999694824</ele>
        <time>2021-10-23T14:32:28.000Z</time>
      </trkpt>
      <trkpt lat="46.13317" lon="4.6819">
        <ele>251.19999694824</ele>
        <time>2021-10-23T14:32:29.000Z</time>
      </trkpt>
      <trkpt lat="46.133" lon="4.68231">
        <ele>251.7</ele>
        <time>2021-10-23T14:32:59.000Z</time>
      </trkpt>
      <trkpt lat="46.13286" lon="4.68295">
        <ele>250.3</ele>
        <time>2021-10-23T14:33:11.000Z</time>
      </trkpt>
      <trkpt lat="46.13268" lon="4.68367">
        <ele>248.9</ele>
        <time>2021-10-23T14:33:14.000Z</time>
      </trkpt>
      <trkpt lat="46.13254" lon="4.68421">
        <ele>247.8</ele>
        <time>2021-10-23T14:33:27.000Z</time>
      </trkpt>
      <trkpt lat="46.13236" lon="4.68461">
        <ele>247.7</ele>
        <time>2021-10-23T14:33:35.000Z</time>
      </trkpt>
      <trkpt lat="46.13211" lon="4.68497">
        <ele>247.5</ele>
        <time>2021-10-23T14:33:43.000Z</time>
      </trkpt>
      <trkpt lat="46.13214" lon="4.68534">
        <ele>246.1</ele>
        <time>2021-10-23T14:33:47.000Z</time>
      </trkpt>
      <trkpt lat="46.13204" lon="4.68615">
        <ele>244.2</ele>
        <time>2021-10-23T14:33:51.000Z</time>
      </trkpt>
      <trkpt lat="46.13193" lon="4.68683">
        <ele>242.5</ele>
        <time>2021-10-23T14:34:02.000Z</time>
      </trkpt>
      <trkpt lat="46.13193" lon="4.68755">
        <ele>239</ele>
        <time>2021-10-23T14:34:04.000Z</time>
      </trkpt>
      <trkpt lat="46.13205" lon="4.6886">
        <ele>232.9</ele>
        <time>2021-10-23T14:34:10.000Z</time>
      </trkpt>
      <trkpt lat="46.1328" lon="4.68882">
        <ele>227.1</ele>
        <time>2021-10-23T14:34:20.000Z</time>
      </trkpt>
      <trkpt lat="46.13309" lon="4.68865">
        <ele>226.7</ele>
        <time>2021-10-23T14:34:26.000Z</time>
      </trkpt>
      <trkpt lat="46.13311" lon="4.68799">
        <ele>228.7</ele>
        <time>2021-10-23T14:34:37.000Z</time>
      </trkpt>
      <trkpt lat="46.1337" lon="4.68817">
        <ele>226</ele>
      </trkpt>
      <trkpt lat="46.13419" lon="4.68837">
        <ele>222.9</ele>
      </trkpt>
      <trkpt lat="46.13458" lon="4.68844">
        <ele>222.8</ele>
        <time>2021-10-23T14:34:49.000Z</time>
      </trkpt>
      <trkpt lat="46.13482" lon="4.68849">
        <ele>222.8</ele>
        <time>2021-10-23T14:34:58.000Z</time>
      </trkpt>
      <trkpt lat="46.13495" lon="4.68765">
        <ele>224</ele>
      </trkpt>
      <trkpt lat="46.13496" lon="4.687">
        <ele>224.8</ele>
        <time>2021-10-23T14:35:08.000Z</time>
      </trkpt>
      <trkpt lat="46.13504" lon="4.68646">
        <ele>225</ele>
        <time>2021-10-23T14:35:21.000Z</time>
      </trkpt>
      <trkpt lat="46.1353" lon="4.68658">
        <ele>225</ele>
        <time>2021-10-23T14:35:31.000Z</time>
      </trkpt>
      <trkpt lat="46.1356" lon="4.68672">
        <ele>225.60000610352</ele>
        <time>2021-10-23T14:35:40.000Z</time>
      </trkpt>
      <trkpt lat="46.13567" lon="4.68668">
        <ele>226</ele>
        <time>2021-10-23T14:35:42.000Z</time>
      </trkpt>
      <trkpt lat="46.13577" lon="4.68666">
        <ele>226.19999694824</ele>
        <time>2021-10-23T14:35:44.000Z</time>
      </trkpt>
      <trkpt lat="46.13612" lon="4.68665">
        <ele>227.60000610352</ele>
        <time>2021-10-23T14:35:50.000Z</time>
      </trkpt>
      <trkpt lat="46.13618" lon="4.68665">
        <ele>227.80000305176</ele>
        <time>2021-10-23T14:35:51.000Z</time>
      </trkpt>
      <trkpt lat="46.13668" lon="4.68659">
        <ele>230.39999389648</ele>
        <time>2021-10-23T14:36:00.000Z</time>
      </trkpt>
      <trkpt lat="46.13731" lon="4.68653">
        <ele>235.39999389648</ele>
        <time>2021-10-23T14:36:11.000Z</time>
      </trkpt>
      <trkpt lat="46.13748" lon="4.68652">
        <ele>236.60000610352</ele>
        <time>2021-10-23T14:36:14.000Z</time>
      </trkpt>
      <trkpt lat="46.1378" lon="4.68653">
        <ele>238.60000610352</ele>
        <time>2021-10-23T14:36:20.000Z</time>
      </trkpt>
      <trkpt lat="46.13802" lon="4.68666">
        <ele>239.6</ele>
        <time>2021-10-23T14:36:28.000Z</time>
      </trkpt>
      <trkpt lat="46.1378" lon="4.6871">
        <ele>237.2</ele>
        <time>2021-10-23T14:36:34.000Z</time>
      </trkpt>
      <trkpt lat="46.13754" lon="4.68745">
        <ele>234.6</ele>
        <time>2021-10-23T14:36:41.000Z</time>
      </trkpt>
      <trkpt lat="46.13804" lon="4.68775">
        <ele>238.9</ele>
        <time>2021-10-23T14:36:45.000Z</time>
      </trkpt>
      <trkpt lat="46.13825" lon="4.68792">
        <ele>240.2</ele>
        <time>2021-10-23T14:36:59.000Z</time>
      </trkpt>
      <trkpt lat="46.13833" lon="4.68811">
        <ele>240.39999389648</ele>
        <time>2021-10-23T14:37:07.000Z</time>
      </trkpt>
      <trkpt lat="46.13879" lon="4.68836">
        <ele>243</ele>
        <time>2021-10-23T14:37:18.000Z</time>
      </trkpt>
      <trkpt lat="46.13897" lon="4.68844">
        <ele>244.39999389648</ele>
        <time>2021-10-23T14:37:22.000Z</time>
      </trkpt>
      <trkpt lat="46.13913" lon="4.68849">
        <ele>245.39999389648</ele>
        <time>2021-10-23T14:37:26.000Z</time>
      </trkpt>
      <trkpt lat="46.13911" lon="4.68859">
        <ele>245.39999389648</ele>
        <time>2021-10-23T14:37:51.000Z</time>
      </trkpt>
      <trkpt lat="46.13894" lon="4.68906">
        <ele>243.60000610352</ele>
        <time>2021-10-23T14:38:01.000Z</time>
      </trkpt>
      <trkpt lat="46.13876" lon="4.68953">
        <ele>240.80000305176</ele>
        <time>2021-10-23T14:38:09.000Z</time>
      </trkpt>
      <trkpt lat="46.1387" lon="4.68973">
        <ele>240.19999694824</ele>
        <time>2021-10-23T14:38:12.000Z</time>
      </trkpt>
      <trkpt lat="46.13865" lon="4.68991">
        <ele>239</ele>
        <time>2021-10-23T14:38:15.000Z</time>
      </trkpt>
      <trkpt lat="46.13876" lon="4.69007">
        <ele>239.80000305176</ele>
        <time>2021-10-23T14:38:21.000Z</time>
      </trkpt>
      <trkpt lat="46.13959" lon="4.69012">
        <ele>243.60000610352</ele>
        <time>2021-10-23T14:38:37.000Z</time>
      </trkpt>
      <trkpt lat="46.14014" lon="4.69016">
        <ele>245</ele>
        <time>2021-10-23T14:38:48.000Z</time>
      </trkpt>
      <trkpt lat="46.14054" lon="4.69022">
        <ele>244.19999694824</ele>
        <time>2021-10-23T14:38:57.000Z</time>
      </trkpt>
      <trkpt lat="46.14075" lon="4.6903">
        <ele>243.19999694824</ele>
        <time>2021-10-23T14:39:01.000Z</time>
      </trkpt>
      <trkpt lat="46.14095" lon="4.69035">
        <ele>242.19999694824</ele>
        <time>2021-10-23T14:39:06.000Z</time>
      </trkpt>
      <trkpt lat="46.14102" lon="4.69092">
        <ele>242</ele>
        <time>2021-10-23T14:39:16.000Z</time>
      </trkpt>
      <trkpt lat="46.14103" lon="4.69112">
        <ele>242</ele>
        <time>2021-10-23T14:39:19.000Z</time>
      </trkpt>
      <trkpt lat="46.14104" lon="4.69142">
        <ele>242.80000305176</ele>
        <time>2021-10-23T14:39:24.000Z</time>
      </trkpt>
      <trkpt lat="46.14117" lon="4.69165">
        <ele>241.80000305176</ele>
        <time>2021-10-23T14:39:29.000Z</time>
      </trkpt>
      <trkpt lat="46.14123" lon="4.69174">
        <ele>241.39999389648</ele>
        <time>2021-10-23T14:39:31.000Z</time>
      </trkpt>
      <trkpt lat="46.14143" lon="4.69187">
        <ele>240.39999389648</ele>
        <time>2021-10-23T14:39:36.000Z</time>
      </trkpt>
      <trkpt lat="46.14208" lon="4.69186">
        <ele>238.60000610352</ele>
        <time>2021-10-23T14:39:49.000Z</time>
      </trkpt>
      <trkpt lat="46.14256" lon="4.69194">
        <ele>236.60000610352</ele>
        <time>2021-10-23T14:40:01.000Z</time>
      </trkpt>
      <trkpt lat="46.14283" lon="4.69205">
        <ele>235.19999694824</ele>
        <time>2021-10-23T14:40:09.000Z</time>
      </trkpt>
      <trkpt lat="46.14302" lon="4.69204">
        <ele>233.60000610352</ele>
        <time>2021-10-23T14:40:14.000Z</time>
      </trkpt>
      <trkpt lat="46.14321" lon="4.69205">
        <ele>232.19999694824</ele>
        <time>2021-10-23T14:40:18.000Z</time>
      </trkpt>
      <trkpt lat="46.14372" lon="4.69185">
        <ele>231.19999694824</ele>
        <time>2021-10-23T14:40:28.000Z</time>
      </trkpt>
      <trkpt lat="46.14436" lon="4.69152">
        <ele>234.80000305176</ele>
        <time>2021-10-23T14:40:42.000Z</time>
      </trkpt>
      <trkpt lat="46.14498" lon="4.69121">
        <ele>237.19999694824</ele>
        <time>2021-10-23T14:40:57.000Z</time>
      </trkpt>
      <trkpt lat="46.14501" lon="4.69119">
        <ele>237.39999389648</ele>
        <time>2021-10-23T14:41:03.000Z</time>
      </trkpt>
      <trkpt lat="46.14504" lon="4.69129">
        <ele>237</ele>
        <time>2021-10-23T14:45:14.000Z</time>
      </trkpt>
      <trkpt lat="46.14517" lon="4.6921">
        <ele>234.60000610352</ele>
        <time>2021-10-23T14:45:31.000Z</time>
      </trkpt>
      <trkpt lat="46.14534" lon="4.69311">
        <ele>232</ele>
        <time>2021-10-23T14:45:46.000Z</time>
      </trkpt>
      <trkpt lat="46.14539" lon="4.69339">
        <ele>231</ele>
        <time>2021-10-23T14:45:50.000Z</time>
      </trkpt>
      <trkpt lat="46.14542" lon="4.69352">
        <ele>230.60000610352</ele>
        <time>2021-10-23T14:45:52.000Z</time>
      </trkpt>
      <trkpt lat="46.14559" lon="4.69463">
        <ele>229</ele>
        <time>2021-10-23T14:46:09.000Z</time>
      </trkpt>
      <trkpt lat="46.14561" lon="4.69476">
        <ele>228.60000610352</ele>
        <time>2021-10-23T14:46:11.000Z</time>
      </trkpt>
      <trkpt lat="46.14565" lon="4.6951">
        <ele>228.60000610352</ele>
        <time>2021-10-23T14:46:16.000Z</time>
      </trkpt>
      <trkpt lat="46.14569" lon="4.69524">
        <ele>228.19999694824</ele>
        <time>2021-10-23T14:46:18.000Z</time>
      </trkpt>
      <trkpt lat="46.14572" lon="4.69549">
        <ele>228</ele>
        <time>2021-10-23T14:46:22.000Z</time>
      </trkpt>
      <trkpt lat="46.14587" lon="4.69645">
        <ele>226.60000610352</ele>
        <time>2021-10-23T14:46:35.000Z</time>
      </trkpt>
      <trkpt lat="46.14584" lon="4.69665">
        <ele>226.60000610352</ele>
        <time>2021-10-23T14:46:43.000Z</time>
      </trkpt>
      <trkpt lat="46.14582" lon="4.69663">
        <ele>226.80000305176</ele>
        <time>2021-10-23T14:46:44.000Z</time>
      </trkpt>
      <trkpt lat="46.14543" lon="4.69631">
        <ele>226</ele>
        <time>2021-10-23T14:46:56.000Z</time>
      </trkpt>
      <trkpt lat="46.14541" lon="4.69628">
        <ele>226.19999694824</ele>
        <time>2021-10-23T14:46:57.000Z</time>
      </trkpt>
      <trkpt lat="46.14529" lon="4.69632">
        <ele>226.39999389648</ele>
        <time>2021-10-23T14:47:02.000Z</time>
      </trkpt>
      <trkpt lat="46.14526" lon="4.69634">
        <ele>226.39999389648</ele>
        <time>2021-10-23T14:47:03.000Z</time>
      </trkpt>
      <trkpt lat="46.1451" lon="4.69647">
        <ele>226.19999694824</ele>
        <time>2021-10-23T14:47:08.000Z</time>
      </trkpt>
      <trkpt lat="46.14525" lon="4.69682">
        <ele>226.19999694824</ele>
        <time>2021-10-23T14:47:17.000Z</time>
      </trkpt>
      <trkpt lat="46.14533" lon="4.69692">
        <ele>226.60000610352</ele>
        <time>2021-10-23T14:47:20.000Z</time>
      </trkpt>
      <trkpt lat="46.14528" lon="4.69706">
        <ele>226.60000610352</ele>
        <time>2021-10-23T14:47:24.000Z</time>
      </trkpt>
      <trkpt lat="46.1452" lon="4.69712">
        <ele>226.80000305176</ele>
        <time>2021-10-23T14:47:26.000Z</time>
      </trkpt>
      <trkpt lat="46.14542" lon="4.69731">
        <ele>227.3</ele>
        <time>2021-10-23T14:47:41.000Z</time>
      </trkpt>
      <trkpt lat="46.14523" lon="4.69775">
        <ele>228.2</ele>
        <time>2021-10-23T14:47:47.000Z</time>
      </trkpt>
      <trkpt lat="46.14496" lon="4.69819">
        <ele>228.6</ele>
        <time>2021-10-23T14:47:54.000Z</time>
      </trkpt>
      <trkpt lat="46.14487" lon="4.6984">
        <ele>228</ele>
        <time>2021-10-23T14:47:58.000Z</time>
      </trkpt>
      <trkpt lat="46.14478" lon="4.69858">
        <ele>228</ele>
        <time>2021-10-23T14:48:01.000Z</time>
      </trkpt>
      <trkpt lat="46.14454" lon="4.69901">
        <ele>228</ele>
        <time>2021-10-23T14:48:08.000Z</time>
      </trkpt>
      <trkpt lat="46.14445" lon="4.69927">
        <ele>228.19999694824</ele>
        <time>2021-10-23T14:48:12.000Z</time>
      </trkpt>
      <trkpt lat="46.14441" lon="4.69966">
        <ele>227</ele>
        <time>2021-10-23T14:48:18.000Z</time>
      </trkpt>
      <trkpt lat="46.1442" lon="4.70001">
        <ele>227</ele>
        <time>2021-10-23T14:48:27.000Z</time>
      </trkpt>
      <trkpt lat="46.14422" lon="4.70008">
        <ele>226.80000305176</ele>
        <time>2021-10-23T14:48:28.000Z</time>
      </trkpt>
      <trkpt lat="46.14425" lon="4.70032">
        <ele>225.80000305176</ele>
        <time>2021-10-23T14:48:31.000Z</time>
      </trkpt>
      <trkpt lat="46.14437" lon="4.70094">
        <ele>223</ele>
        <time>2021-10-23T14:48:39.000Z</time>
      </trkpt>
      <trkpt lat="46.14455" lon="4.7018">
        <ele>222.19999694824</ele>
        <time>2021-10-23T14:48:51.000Z</time>
      </trkpt>
      <trkpt lat="46.14475" lon="4.70273">
        <ele>220</ele>
        <time>2021-10-23T14:49:06.000Z</time>
      </trkpt>
      <trkpt lat="46.14477" lon="4.70297">
        <ele>219.39999389648</ele>
        <time>2021-10-23T14:49:13.000Z</time>
      </trkpt>
      <trkpt lat="46.14486" lon="4.70308">
        <ele>219.19999694824</ele>
        <time>2021-10-23T14:49:17.000Z</time>
      </trkpt>
      <trkpt lat="46.14501" lon="4.70307">
        <ele>219</ele>
        <time>2021-10-23T14:49:20.000Z</time>
      </trkpt>
      <trkpt lat="46.14519" lon="4.70308">
        <ele>219</ele>
        <time>2021-10-23T14:49:23.000Z</time>
      </trkpt>
      <trkpt lat="46.14551" lon="4.70321">
        <ele>219</ele>
        <time>2021-10-23T14:49:29.000Z</time>
      </trkpt>
      <trkpt lat="46.14561" lon="4.70327">
        <ele>218.39999389648</ele>
        <time>2021-10-23T14:49:31.000Z</time>
      </trkpt>
      <trkpt lat="46.14586" lon="4.70359">
        <ele>217.19999694824</ele>
        <time>2021-10-23T14:49:37.000Z</time>
      </trkpt>
      <trkpt lat="46.14604" lon="4.70415">
        <ele>216.80000305176</ele>
        <time>2021-10-23T14:49:44.000Z</time>
      </trkpt>
      <trkpt lat="46.14624" lon="4.70482">
        <ele>215.80000305176</ele>
        <time>2021-10-23T14:49:53.000Z</time>
      </trkpt>
      <trkpt lat="46.14644" lon="4.70495">
        <ele>216</ele>
        <time>2021-10-23T14:49:58.000Z</time>
      </trkpt>
      <trkpt lat="46.1472" lon="4.70517">
        <ele>216</ele>
        <time>2021-10-23T14:50:12.000Z</time>
      </trkpt>
      <trkpt lat="46.14725" lon="4.70519">
        <ele>216</ele>
        <time>2021-10-23T14:50:13.000Z</time>
      </trkpt>
      <trkpt lat="46.14838" lon="4.70557">
        <ele>214.39999389648</ele>
        <time>2021-10-23T14:50:34.000Z</time>
      </trkpt>
      <trkpt lat="46.14874" lon="4.7059">
        <ele>214</ele>
        <time>2021-10-23T14:50:44.000Z</time>
      </trkpt>
      <trkpt lat="46.14929" lon="4.7064">
        <ele>213</ele>
        <time>2021-10-23T14:50:56.000Z</time>
      </trkpt>
      <trkpt lat="46.14969" lon="4.70689">
        <ele>214.19999694824</ele>
        <time>2021-10-23T14:51:06.000Z</time>
      </trkpt>
      <trkpt lat="46.14983" lon="4.70698">
        <ele>214.80000305176</ele>
        <time>2021-10-23T14:51:09.000Z</time>
      </trkpt>
      <trkpt lat="46.14999" lon="4.70725">
        <ele>215</ele>
        <time>2021-10-23T14:51:14.000Z</time>
      </trkpt>
      <trkpt lat="46.15008" lon="4.7076">
        <ele>215.60000610352</ele>
        <time>2021-10-23T14:51:19.000Z</time>
      </trkpt>
      <trkpt lat="46.15032" lon="4.70817">
        <ele>213</ele>
        <time>2021-10-23T14:51:32.000Z</time>
      </trkpt>
      <trkpt lat="46.15017" lon="4.70864">
        <ele>213</ele>
        <time>2021-10-23T14:51:41.000Z</time>
      </trkpt>
      <trkpt lat="46.15027" lon="4.709">
        <ele>211</ele>
        <time>2021-10-23T14:51:49.000Z</time>
      </trkpt>
      <trkpt lat="46.15032" lon="4.70901">
        <ele>210.60000610352</ele>
        <time>2021-10-23T14:51:50.000Z</time>
      </trkpt>
      <trkpt lat="46.15047" lon="4.70904">
        <ele>209.19999694824</ele>
        <time>2021-10-23T14:51:53.000Z</time>
      </trkpt>
      <trkpt lat="46.15057" lon="4.70905">
        <ele>208.80000305176</ele>
        <time>2021-10-23T14:51:55.000Z</time>
      </trkpt>
      <trkpt lat="46.15099" lon="4.70908">
        <ele>208.39999389648</ele>
        <time>2021-10-23T14:52:04.000Z</time>
      </trkpt>
      <trkpt lat="46.15104" lon="4.70909">
        <ele>208.80000305176</ele>
        <time>2021-10-23T14:52:05.000Z</time>
      </trkpt>
      <trkpt lat="46.15144" lon="4.70923">
        <ele>212</ele>
        <time>2021-10-23T14:52:14.000Z</time>
      </trkpt>
      <trkpt lat="46.15154" lon="4.70941">
        <ele>212.80000305176</ele>
        <time>2021-10-23T14:52:18.000Z</time>
      </trkpt>
      <trkpt lat="46.15159" lon="4.70948">
        <ele>213</ele>
        <time>2021-10-23T14:52:20.000Z</time>
      </trkpt>
      <trkpt lat="46.15203" lon="4.70961">
        <ele>214.39999389648</ele>
        <time>2021-10-23T14:52:30.000Z</time>
      </trkpt>
      <trkpt lat="46.15276" lon="4.70966">
        <ele>216.19999694824</ele>
        <time>2021-10-23T14:52:45.000Z</time>
      </trkpt>
      <trkpt lat="46.1535" lon="4.70959">
        <ele>218.19999694824</ele>
        <time>2021-10-23T14:53:02.000Z</time>
      </trkpt>
      <trkpt lat="46.1536" lon="4.70918">
        <ele>219.39999389648</ele>
        <time>2021-10-23T14:53:10.000Z</time>
      </trkpt>
      <trkpt lat="46.15363" lon="4.70873">
        <ele>219.60000610352</ele>
        <time>2021-10-23T14:53:16.000Z</time>
      </trkpt>
      <trkpt lat="46.15367" lon="4.70821">
        <ele>220.39999389648</ele>
        <time>2021-10-23T14:53:23.000Z</time>
      </trkpt>
      <trkpt lat="46.15368" lon="4.70814">
        <ele>220.39999389648</ele>
        <time>2021-10-23T14:53:24.000Z</time>
      </trkpt>
      <trkpt lat="46.15381" lon="4.70781">
        <ele>220</ele>
        <time>2021-10-23T14:53:29.000Z</time>
      </trkpt>
      <trkpt lat="46.15391" lon="4.70766">
        <ele>220.39999389648</ele>
        <time>2021-10-23T14:53:32.000Z</time>
      </trkpt>
      <trkpt lat="46.15411" lon="4.70761">
        <ele>221.39999389648</ele>
        <time>2021-10-23T14:53:37.000Z</time>
      </trkpt>
      <trkpt lat="46.1547" lon="4.70806">
        <ele>223.39999389648</ele>
        <time>2021-10-23T14:53:51.000Z</time>
      </trkpt>
      <trkpt lat="46.15565" lon="4.70891">
        <ele>226.60000610352</ele>
        <time>2021-10-23T14:54:13.000Z</time>
      </trkpt>
      <trkpt lat="46.15658" lon="4.7095">
        <ele>229</ele>
        <time>2021-10-23T14:54:33.000Z</time>
      </trkpt>
      <trkpt lat="46.15765" lon="4.71019">
        <ele>229.39999389648</ele>
        <time>2021-10-23T14:54:56.000Z</time>
      </trkpt>
      <trkpt lat="46.15787" lon="4.7103">
        <ele>229.80000305176</ele>
        <time>2021-10-23T14:55:01.000Z</time>
      </trkpt>
      <trkpt lat="46.15804" lon="4.71041">
        <ele>230</ele>
        <time>2021-10-23T14:55:06.000Z</time>
      </trkpt>
      <trkpt lat="46.15826" lon="4.71063">
        <ele>230</ele>
        <time>2021-10-23T14:55:12.000Z</time>
      </trkpt>
      <trkpt lat="46.15834" lon="4.71082">
        <ele>229.19999694824</ele>
        <time>2021-10-23T14:55:16.000Z</time>
      </trkpt>
      <trkpt lat="46.15837" lon="4.71196">
        <ele>227.39999389648</ele>
        <time>2021-10-23T14:55:33.000Z</time>
      </trkpt>
      <trkpt lat="46.15838" lon="4.71245">
        <ele>227</ele>
        <time>2021-10-23T14:55:40.000Z</time>
      </trkpt>
      <trkpt lat="46.15842" lon="4.71339">
        <ele>226</ele>
        <time>2021-10-23T14:55:55.000Z</time>
      </trkpt>
      <trkpt lat="46.15864" lon="4.71441">
        <ele>222.80000305176</ele>
        <time>2021-10-23T14:56:10.000Z</time>
      </trkpt>
      <trkpt lat="46.15872" lon="4.71458">
        <ele>222.39999389648</ele>
        <time>2021-10-23T14:56:19.000Z</time>
      </trkpt>
      <trkpt lat="46.15875" lon="4.71468">
        <ele>222.19999694824</ele>
        <time>2021-10-23T14:57:17.000Z</time>
      </trkpt>
      <trkpt lat="46.15886" lon="4.71485">
        <ele>222</ele>
        <time>2021-10-23T14:57:21.000Z</time>
      </trkpt>
      <trkpt lat="46.15895" lon="4.71501">
        <ele>222</ele>
        <time>2021-10-23T14:57:24.000Z</time>
      </trkpt>
      <trkpt lat="46.15905" lon="4.71534">
        <ele>222</ele>
        <time>2021-10-23T14:57:29.000Z</time>
      </trkpt>
      <trkpt lat="46.15913" lon="4.71573">
        <ele>221.60000610352</ele>
        <time>2021-10-23T14:57:35.000Z</time>
      </trkpt>
      <trkpt lat="46.15921" lon="4.71617">
        <ele>221</ele>
        <time>2021-10-23T14:57:43.000Z</time>
      </trkpt>
      <trkpt lat="46.15924" lon="4.7163">
        <ele>221</ele>
        <time>2021-10-23T14:57:51.000Z</time>
      </trkpt>
      <trkpt lat="46.15925" lon="4.71639">
        <ele>221</ele>
        <time>2021-10-23T14:58:48.000Z</time>
      </trkpt>
      <trkpt lat="46.15913" lon="4.71704">
        <ele>222.80000305176</ele>
        <time>2021-10-23T14:58:58.000Z</time>
      </trkpt>
      <trkpt lat="46.15893" lon="4.71763">
        <ele>222.19999694824</ele>
        <time>2021-10-23T14:59:09.000Z</time>
      </trkpt>
      <trkpt lat="46.15899" lon="4.71773">
        <ele>222.19999694824</ele>
        <time>2021-10-23T14:59:13.000Z</time>
      </trkpt>
      <trkpt lat="46.15967" lon="4.71784">
        <ele>221.19999694824</ele>
        <time>2021-10-23T14:59:28.000Z</time>
      </trkpt>
      <trkpt lat="46.16023" lon="4.71778">
        <ele>222.80000305176</ele>
        <time>2021-10-23T14:59:40.000Z</time>
      </trkpt>
      <trkpt lat="46.16078" lon="4.71777">
        <ele>220.80000305176</ele>
        <time>2021-10-23T14:59:54.000Z</time>
      </trkpt>
      <trkpt lat="46.16124" lon="4.71771">
        <ele>220.39999389648</ele>
        <time>2021-10-23T15:00:04.000Z</time>
      </trkpt>
      <trkpt lat="46.16181" lon="4.71767">
        <ele>219.80000305176</ele>
        <time>2021-10-23T15:00:15.000Z</time>
      </trkpt>
      <trkpt lat="46.16199" lon="4.71776">
        <ele>218.80000305176</ele>
        <time>2021-10-23T15:00:19.000Z</time>
      </trkpt>
      <trkpt lat="46.16272" lon="4.71827">
        <ele>210.19999694824</ele>
        <time>2021-10-23T15:00:32.000Z</time>
      </trkpt>
      <trkpt lat="46.16277" lon="4.71831">
        <ele>209.39999389648</ele>
        <time>2021-10-23T15:00:33.000Z</time>
      </trkpt>
      <trkpt lat="46.1631" lon="4.71819">
        <ele>206.39999389648</ele>
        <time>2021-10-23T15:00:39.000Z</time>
      </trkpt>
      <trkpt lat="46.16319" lon="4.71803">
        <ele>206.39999389648</ele>
        <time>2021-10-23T15:00:41.000Z</time>
      </trkpt>
      <trkpt lat="46.1633" lon="4.7178">
        <ele>206.60000610352</ele>
        <time>2021-10-23T15:00:44.000Z</time>
      </trkpt>
      <trkpt lat="46.16366" lon="4.71753">
        <ele>205</ele>
        <time>2021-10-23T15:00:52.000Z</time>
      </trkpt>
      <trkpt lat="46.16432" lon="4.71762">
        <ele>206.80000305176</ele>
        <time>2021-10-23T15:01:07.000Z</time>
      </trkpt>
      <trkpt lat="46.16449" lon="4.71765">
        <ele>206.39999389648</ele>
        <time>2021-10-23T15:01:11.000Z</time>
      </trkpt>
      <trkpt lat="46.16457" lon="4.71769">
        <ele>206.19999694824</ele>
        <time>2021-10-23T15:01:13.000Z</time>
      </trkpt>
      <trkpt lat="46.16515" lon="4.7181">
        <ele>205.80000305176</ele>
        <time>2021-10-23T15:01:29.000Z</time>
      </trkpt>
      <trkpt lat="46.16566" lon="4.71844">
        <ele>209.80000305176</ele>
        <time>2021-10-23T15:01:42.000Z</time>
      </trkpt>
      <trkpt lat="46.16591" lon="4.71859">
        <ele>210.60000610352</ele>
        <time>2021-10-23T15:01:48.000Z</time>
      </trkpt>
      <trkpt lat="46.16605" lon="4.71862">
        <ele>211.39999389648</ele>
        <time>2021-10-23T15:01:51.000Z</time>
      </trkpt>
      <trkpt lat="46.16615" lon="4.71862">
        <ele>212.19999694824</ele>
        <time>2021-10-23T15:01:53.000Z</time>
      </trkpt>
      <trkpt lat="46.16661" lon="4.71863">
        <ele>213.19999694824</ele>
        <time>2021-10-23T15:02:05.000Z</time>
      </trkpt>
      <trkpt lat="46.16666" lon="4.71886">
        <ele>212.39999389648</ele>
        <time>2021-10-23T15:02:09.000Z</time>
      </trkpt>
      <trkpt lat="46.16676" lon="4.71976">
        <ele>209.39999389648</ele>
        <time>2021-10-23T15:02:23.000Z</time>
      </trkpt>
      <trkpt lat="46.16668" lon="4.72047">
        <ele>209.60000610352</ele>
        <time>2021-10-23T15:02:34.000Z</time>
      </trkpt>
      <trkpt lat="46.16663" lon="4.72099">
        <ele>207.39999389648</ele>
        <time>2021-10-23T15:02:41.000Z</time>
      </trkpt>
      <trkpt lat="46.16664" lon="4.72151">
        <ele>205</ele>
        <time>2021-10-23T15:02:51.000Z</time>
      </trkpt>
      <trkpt lat="46.16673" lon="4.72197">
        <ele>205.80000305176</ele>
        <time>2021-10-23T15:02:59.000Z</time>
      </trkpt>
      <trkpt lat="46.16666" lon="4.72303">
        <ele>207.39999389648</ele>
        <time>2021-10-23T15:03:12.000Z</time>
      </trkpt>
      <trkpt lat="46.16659" lon="4.72397">
        <ele>206</ele>
        <time>2021-10-23T15:03:24.000Z</time>
      </trkpt>
      <trkpt lat="46.16633" lon="4.72482">
        <ele>205</ele>
        <time>2021-10-23T15:03:37.000Z</time>
      </trkpt>
      <trkpt lat="46.16617" lon="4.72528">
        <ele>203.80000305176</ele>
        <time>2021-10-23T15:03:44.000Z</time>
      </trkpt>
      <trkpt lat="46.16613" lon="4.72631">
        <ele>204</ele>
        <time>2021-10-23T15:03:58.000Z</time>
      </trkpt>
      <trkpt lat="46.16612" lon="4.72653">
        <ele>204</ele>
        <time>2021-10-23T15:04:01.000Z</time>
      </trkpt>
      <trkpt lat="46.16612" lon="4.72682">
        <ele>204</ele>
        <time>2021-10-23T15:04:07.000Z</time>
      </trkpt>
      <trkpt lat="46.16629" lon="4.72694">
        <ele>204</ele>
        <time>2021-10-23T15:04:12.000Z</time>
      </trkpt>
      <trkpt lat="46.1672" lon="4.72729">
        <ele>203.60000610352</ele>
        <time>2021-10-23T15:04:30.000Z</time>
      </trkpt>
      <trkpt lat="46.16738" lon="4.72734">
        <ele>204.39999389648</ele>
        <time>2021-10-23T15:04:34.000Z</time>
      </trkpt>
      <trkpt lat="46.1676" lon="4.72725">
        <ele>205.80000305176</ele>
        <time>2021-10-23T15:04:39.000Z</time>
      </trkpt>
      <trkpt lat="46.16788" lon="4.72714">
        <ele>205.80000305176</ele>
        <time>2021-10-23T15:04:45.000Z</time>
      </trkpt>
      <trkpt lat="46.16803" lon="4.7271">
        <ele>205.60000610352</ele>
        <time>2021-10-23T15:04:48.000Z</time>
      </trkpt>
      <trkpt lat="46.16827" lon="4.72711">
        <ele>205</ele>
        <time>2021-10-23T15:04:53.000Z</time>
      </trkpt>
      <trkpt lat="46.16846" lon="4.72716">
        <ele>205.19999694824</ele>
        <time>2021-10-23T15:04:57.000Z</time>
      </trkpt>
      <trkpt lat="46.16863" lon="4.72726">
        <ele>205</ele>
        <time>2021-10-23T15:05:01.000Z</time>
      </trkpt>
      <trkpt lat="46.16867" lon="4.7273">
        <ele>205</ele>
        <time>2021-10-23T15:05:02.000Z</time>
      </trkpt>
      <trkpt lat="46.16915" lon="4.72743">
        <ele>205.19999694824</ele>
        <time>2021-10-23T15:05:13.000Z</time>
      </trkpt>
      <trkpt lat="46.16923" lon="4.72718">
        <ele>205.80000305176</ele>
        <time>2021-10-23T15:05:19.000Z</time>
      </trkpt>
      <trkpt lat="46.16923" lon="4.72602">
        <ele>206</ele>
        <time>2021-10-23T15:05:37.000Z</time>
      </trkpt>
      <trkpt lat="46.16915" lon="4.72564">
        <ele>206</ele>
        <time>2021-10-23T15:05:43.000Z</time>
      </trkpt>
      <trkpt lat="46.16908" lon="4.72434">
        <ele>209.39999389648</ele>
        <time>2021-10-23T15:06:01.000Z</time>
      </trkpt>
      <trkpt lat="46.16903" lon="4.72349">
        <ele>208</ele>
        <time>2021-10-23T15:06:14.000Z</time>
      </trkpt>
      <trkpt lat="46.16911" lon="4.72341">
        <ele>208.19999694824</ele>
        <time>2021-10-23T15:06:18.000Z</time>
      </trkpt>
      <trkpt lat="46.16919" lon="4.72345">
        <ele>208.39999389648</ele>
        <time>2021-10-23T15:06:20.000Z</time>
      </trkpt>
      <trkpt lat="46.17001" lon="4.72377">
        <ele>207.60000610352</ele>
        <time>2021-10-23T15:06:36.000Z</time>
      </trkpt>
      <trkpt lat="46.17011" lon="4.7238">
        <ele>207.60000610352</ele>
        <time>2021-10-23T15:06:38.000Z</time>
      </trkpt>
      <trkpt lat="46.17036" lon="4.72376">
        <ele>208.60000610352</ele>
        <time>2021-10-23T15:06:43.000Z</time>
      </trkpt>
      <trkpt lat="46.17061" lon="4.72382">
        <ele>209.60000610352</ele>
        <time>2021-10-23T15:06:48.000Z</time>
      </trkpt>
      <trkpt lat="46.1708" lon="4.72388">
        <ele>210.19999694824</ele>
        <time>2021-10-23T15:06:52.000Z</time>
      </trkpt>
      <trkpt lat="46.17085" lon="4.72391">
        <ele>210.19999694824</ele>
        <time>2021-10-23T15:06:53.000Z</time>
      </trkpt>
      <trkpt lat="46.17107" lon="4.72399">
        <ele>209.60000610352</ele>
        <time>2021-10-23T15:06:57.000Z</time>
      </trkpt>
      <trkpt lat="46.17192" lon="4.72431">
        <ele>203.39999389648</ele>
        <time>2021-10-23T15:07:13.000Z</time>
      </trkpt>
      <trkpt lat="46.17212" lon="4.72439">
        <ele>202</ele>
        <time>2021-10-23T15:07:20.000Z</time>
      </trkpt>
      <trkpt lat="46.17289" lon="4.72477">
        <ele>201</ele>
        <time>2021-10-23T15:07:34.000Z</time>
      </trkpt>
      <trkpt lat="46.17328" lon="4.72496">
        <ele>200.19999694824</ele>
        <time>2021-10-23T15:07:41.000Z</time>
      </trkpt>
      <trkpt lat="46.17359" lon="4.72519">
        <ele>198.19999694824</ele>
        <time>2021-10-23T15:07:46.000Z</time>
      </trkpt>
      <trkpt lat="46.17411" lon="4.72575">
        <ele>195.80000305176</ele>
        <time>2021-10-23T15:07:54.000Z</time>
      </trkpt>
      <trkpt lat="46.17429" lon="4.72596">
        <ele>194.39999389648</ele>
        <time>2021-10-23T15:07:58.000Z</time>
      </trkpt>
      <trkpt lat="46.17436" lon="4.72607">
        <ele>194</ele>
        <time>2021-10-23T15:08:00.000Z</time>
      </trkpt>
      <trkpt lat="46.17442" lon="4.7262">
        <ele>193.60000610352</ele>
        <time>2021-10-23T15:08:02.000Z</time>
      </trkpt>
      <trkpt lat="46.17454" lon="4.72638">
        <ele>192.60000610352</ele>
        <time>2021-10-23T15:08:05.000Z</time>
      </trkpt>
      <trkpt lat="46.17479" lon="4.72661">
        <ele>192.60000610352</ele>
        <time>2021-10-23T15:08:10.000Z</time>
      </trkpt>
      <trkpt lat="46.17482" lon="4.72667">
        <ele>192.60000610352</ele>
        <time>2021-10-23T15:08:11.000Z</time>
      </trkpt>
      <trkpt lat="46.17484" lon="4.72673">
        <ele>192.80000305176</ele>
        <time>2021-10-23T15:08:12.000Z</time>
      </trkpt>
      <trkpt lat="46.17485" lon="4.72679">
        <ele>192.80000305176</ele>
        <time>2021-10-23T15:08:13.000Z</time>
      </trkpt>
      <trkpt lat="46.17487" lon="4.72685">
        <ele>192.80000305176</ele>
        <time>2021-10-23T15:08:14.000Z</time>
      </trkpt>
      <trkpt lat="46.17491" lon="4.7269">
        <ele>193</ele>
        <time>2021-10-23T15:08:15.000Z</time>
      </trkpt>
      <trkpt lat="46.17495" lon="4.72693">
        <ele>193.19999694824</ele>
        <time>2021-10-23T15:08:16.000Z</time>
      </trkpt>
      <trkpt lat="46.175" lon="4.72696">
        <ele>193.60000610352</ele>
        <time>2021-10-23T15:08:17.000Z</time>
      </trkpt>
      <trkpt lat="46.17511" lon="4.72699">
        <ele>194.39999389648</ele>
        <time>2021-10-23T15:08:19.000Z</time>
      </trkpt>
      <trkpt lat="46.17559" lon="4.72719">
        <ele>197.80000305176</ele>
        <time>2021-10-23T15:08:28.000Z</time>
      </trkpt>
      <trkpt lat="46.17569" lon="4.72719">
        <ele>198.80000305176</ele>
        <time>2021-10-23T15:08:30.000Z</time>
      </trkpt>
      <trkpt lat="46.17582" lon="4.72738">
        <ele>199.19999694824</ele>
        <time>2021-10-23T15:08:35.000Z</time>
      </trkpt>
      <trkpt lat="46.17586" lon="4.72753">
        <ele>199</ele>
        <time>2021-10-23T15:08:37.000Z</time>
      </trkpt>
      <trkpt lat="46.17595" lon="4.72784">
        <ele>197.39999389648</ele>
        <time>2021-10-23T15:08:41.000Z</time>
      </trkpt>
      <trkpt lat="46.17638" lon="4.72895">
        <ele>200.60000610352</ele>
        <time>2021-10-23T15:08:56.000Z</time>
      </trkpt>
      <trkpt lat="46.17646" lon="4.72915">
        <ele>201.80000305176</ele>
        <time>2021-10-23T15:08:59.000Z</time>
      </trkpt>
      <trkpt lat="46.17652" lon="4.72927">
        <ele>202.80000305176</ele>
        <time>2021-10-23T15:09:01.000Z</time>
      </trkpt>
      <trkpt lat="46.17673" lon="4.72982">
        <ele>205.60000610352</ele>
        <time>2021-10-23T15:09:10.000Z</time>
      </trkpt>
      <trkpt lat="46.17693" lon="4.73044">
        <ele>207</ele>
        <time>2021-10-23T15:09:19.000Z</time>
      </trkpt>
      <trkpt lat="46.1771" lon="4.73093">
        <ele>208.19999694824</ele>
        <time>2021-10-23T15:09:28.000Z</time>
      </trkpt>
      <trkpt lat="46.17713" lon="4.73097">
        <ele>208.19999694824</ele>
        <time>2021-10-23T15:09:29.000Z</time>
      </trkpt>
      <trkpt lat="46.17717" lon="4.73099">
        <ele>208.19999694824</ele>
        <time>2021-10-23T15:09:30.000Z</time>
      </trkpt>
      <trkpt lat="46.17722" lon="4.731">
        <ele>208</ele>
        <time>2021-10-23T15:09:31.000Z</time>
      </trkpt>
      <trkpt lat="46.17726" lon="4.731">
        <ele>207.80000305176</ele>
        <time>2021-10-23T15:09:32.000Z</time>
      </trkpt>
      <trkpt lat="46.17731" lon="4.73099">
        <ele>207.80000305176</ele>
        <time>2021-10-23T15:09:33.000Z</time>
      </trkpt>
      <trkpt lat="46.17751" lon="4.731">
        <ele>207.39999389648</ele>
        <time>2021-10-23T15:09:38.000Z</time>
      </trkpt>
      <trkpt lat="46.17754" lon="4.73126">
        <ele>208</ele>
        <time>2021-10-23T15:09:43.000Z</time>
      </trkpt>
      <trkpt lat="46.17768" lon="4.73157">
        <ele>207.60000610352</ele>
        <time>2021-10-23T15:09:49.000Z</time>
      </trkpt>
      <trkpt lat="46.17824" lon="4.73184">
        <ele>206.60000610352</ele>
        <time>2021-10-23T15:09:59.000Z</time>
      </trkpt>
      <trkpt lat="46.17866" lon="4.732">
        <ele>206</ele>
        <time>2021-10-23T15:10:06.000Z</time>
      </trkpt>
      <trkpt lat="46.17922" lon="4.73207">
        <ele>206</ele>
        <time>2021-10-23T15:10:16.000Z</time>
      </trkpt>
      <trkpt lat="46.17932" lon="4.73209">
        <ele>206</ele>
        <time>2021-10-23T15:10:18.000Z</time>
      </trkpt>
      <trkpt lat="46.1797" lon="4.73207">
        <ele>206.80000305176</ele>
        <time>2021-10-23T15:10:25.000Z</time>
      </trkpt>
      <trkpt lat="46.18029" lon="4.73205">
        <ele>205.80000305176</ele>
        <time>2021-10-23T15:10:36.000Z</time>
      </trkpt>
      <trkpt lat="46.1805" lon="4.7321">
        <ele>205.80000305176</ele>
        <time>2021-10-23T15:10:41.000Z</time>
      </trkpt>
      <trkpt lat="46.18066" lon="4.73218">
        <ele>206</ele>
        <time>2021-10-23T15:10:45.000Z</time>
      </trkpt>
      <trkpt lat="46.1808" lon="4.73246">
        <ele>206.39999389648</ele>
        <time>2021-10-23T15:10:52.000Z</time>
      </trkpt>
      <trkpt lat="46.18085" lon="4.73249">
        <ele>206.80000305176</ele>
        <time>2021-10-23T15:10:53.000Z</time>
      </trkpt>
      <trkpt lat="46.181" lon="4.7326">
        <ele>207.80000305176</ele>
        <time>2021-10-23T15:10:56.000Z</time>
      </trkpt>
      <trkpt lat="46.18165" lon="4.733">
        <ele>206.60000610352</ele>
        <time>2021-10-23T15:11:10.000Z</time>
      </trkpt>
      <trkpt lat="46.1818" lon="4.73311">
        <ele>206.80000305176</ele>
        <time>2021-10-23T15:11:16.000Z</time>
      </trkpt>
      <trkpt lat="46.18186" lon="4.73309">
        <ele>207</ele>
        <time>2021-10-23T15:11:18.000Z</time>
      </trkpt>
      <trkpt lat="46.18231" lon="4.73332">
        <ele>206.19999694824</ele>
        <time>2021-10-23T15:11:28.000Z</time>
      </trkpt>
      <trkpt lat="46.18244" lon="4.73343">
        <ele>205.80000305176</ele>
        <time>2021-10-23T15:11:31.000Z</time>
      </trkpt>
      <trkpt lat="46.18278" lon="4.73388">
        <ele>204</ele>
        <time>2021-10-23T15:11:40.000Z</time>
      </trkpt>
      <trkpt lat="46.18297" lon="4.73401">
        <ele>202.80000305176</ele>
        <time>2021-10-23T15:11:44.000Z</time>
      </trkpt>
      <trkpt lat="46.18324" lon="4.7341">
        <ele>200.39999389648</ele>
        <time>2021-10-23T15:11:49.000Z</time>
      </trkpt>
      <trkpt lat="46.18355" lon="4.73393">
        <ele>199</ele>
        <time>2021-10-23T15:11:57.000Z</time>
      </trkpt>
      <trkpt lat="46.1836" lon="4.73375">
        <ele>199.80000305176</ele>
        <time>2021-10-23T15:12:00.000Z</time>
      </trkpt>
      <trkpt lat="46.18377" lon="4.73365">
        <ele>200</ele>
        <time>2021-10-23T15:12:05.000Z</time>
      </trkpt>
      <trkpt lat="46.1839" lon="4.73371">
        <ele>200.19999694824</ele>
        <time>2021-10-23T15:12:08.000Z</time>
      </trkpt>
      <trkpt lat="46.18405" lon="4.73391">
        <ele>200</ele>
        <time>2021-10-23T15:12:12.000Z</time>
      </trkpt>
      <trkpt lat="46.18416" lon="4.73419">
        <ele>199.19999694824</ele>
        <time>2021-10-23T15:12:16.000Z</time>
      </trkpt>
      <trkpt lat="46.18415" lon="4.73444">
        <ele>197.80000305176</ele>
        <time>2021-10-23T15:12:20.000Z</time>
      </trkpt>
      <trkpt lat="46.1839" lon="4.73493">
        <ele>196.80000305176</ele>
        <time>2021-10-23T15:12:30.000Z</time>
      </trkpt>
      <trkpt lat="46.18395" lon="4.73501">
        <ele>196.80000305176</ele>
        <time>2021-10-23T15:12:34.000Z</time>
      </trkpt>
      <trkpt lat="46.18397" lon="4.73502">
        <ele>196.80000305176</ele>
        <time>2021-10-23T15:12:35.000Z</time>
      </trkpt>
      <trkpt lat="46.18401" lon="4.73503">
        <ele>196.80000305176</ele>
        <time>2021-10-23T15:12:36.000Z</time>
      </trkpt>
      <trkpt lat="46.18405" lon="4.73504">
        <ele>197</ele>
        <time>2021-10-23T15:12:37.000Z</time>
      </trkpt>
      <trkpt lat="46.1841" lon="4.73505">
        <ele>197</ele>
        <time>2021-10-23T15:12:38.000Z</time>
      </trkpt>
      <trkpt lat="46.18416" lon="4.73506">
        <ele>197.19999694824</ele>
        <time>2021-10-23T15:12:39.000Z</time>
      </trkpt>
      <trkpt lat="46.18432" lon="4.73509">
        <ele>197.80000305176</ele>
        <time>2021-10-23T15:12:42.000Z</time>
      </trkpt>
      <trkpt lat="46.18495" lon="4.73519">
        <ele>202.60000610352</ele>
        <time>2021-10-23T15:12:53.000Z</time>
      </trkpt>
      <trkpt lat="46.18527" lon="4.73532">
        <ele>205</ele>
        <time>2021-10-23T15:13:01.000Z</time>
      </trkpt>
      <trkpt lat="46.18527" lon="4.73551">
        <ele>204.60000610352</ele>
        <time>2021-10-23T15:13:06.000Z</time>
      </trkpt>
      <trkpt lat="46.18513" lon="4.73586">
        <ele>203.80000305176</ele>
        <time>2021-10-23T15:13:11.000Z</time>
      </trkpt>
      <trkpt lat="46.18511" lon="4.73626">
        <ele>202.39999389648</ele>
        <time>2021-10-23T15:13:16.000Z</time>
      </trkpt>
      <trkpt lat="46.18512" lon="4.7365">
        <ele>201.60000610352</ele>
        <time>2021-10-23T15:13:19.000Z</time>
      </trkpt>
      <trkpt lat="46.18515" lon="4.73697">
        <ele>200</ele>
        <time>2021-10-23T15:13:25.000Z</time>
      </trkpt>
      <trkpt lat="46.18516" lon="4.7371">
        <ele>199.80000305176</ele>
        <time>2021-10-23T15:13:27.000Z</time>
      </trkpt>
      <trkpt lat="46.18518" lon="4.73716">
        <ele>200</ele>
        <time>2021-10-23T15:13:28.000Z</time>
      </trkpt>
      <trkpt lat="46.1852" lon="4.73721">
        <ele>200</ele>
        <time>2021-10-23T15:13:29.000Z</time>
      </trkpt>
      <trkpt lat="46.18523" lon="4.73725">
        <ele>200.19999694824</ele>
        <time>2021-10-23T15:13:30.000Z</time>
      </trkpt>
      <trkpt lat="46.18527" lon="4.73727">
        <ele>200.19999694824</ele>
        <time>2021-10-23T15:13:31.000Z</time>
      </trkpt>
      <trkpt lat="46.18568" lon="4.73746">
        <ele>200.19999694824</ele>
        <time>2021-10-23T15:13:41.000Z</time>
      </trkpt>
      <trkpt lat="46.18587" lon="4.73755">
        <ele>199.60000610352</ele>
        <time>2021-10-23T15:13:46.000Z</time>
      </trkpt>
      <trkpt lat="46.18588" lon="4.73783">
        <ele>197.60000610352</ele>
        <time>2021-10-23T15:13:51.000Z</time>
      </trkpt>
      <trkpt lat="46.18592" lon="4.7383">
        <ele>195.80000305176</ele>
        <time>2021-10-23T15:13:56.000Z</time>
      </trkpt>
      <trkpt lat="46.18605" lon="4.73876">
        <ele>193.60000610352</ele>
        <time>2021-10-23T15:14:01.000Z</time>
      </trkpt>
      <trkpt lat="46.18607" lon="4.73886">
        <ele>193.19999694824</ele>
        <time>2021-10-23T15:14:02.000Z</time>
      </trkpt>
      <trkpt lat="46.18609" lon="4.73896">
        <ele>192.80000305176</ele>
        <time>2021-10-23T15:14:03.000Z</time>
      </trkpt>
      <trkpt lat="46.18609" lon="4.73926">
        <ele>192.60000610352</ele>
        <time>2021-10-23T15:14:06.000Z</time>
      </trkpt>
      <trkpt lat="46.18607" lon="4.73945">
        <ele>192.80000305176</ele>
        <time>2021-10-23T15:14:08.000Z</time>
      </trkpt>
      <trkpt lat="46.18598" lon="4.73989">
        <ele>194</ele>
        <time>2021-10-23T15:14:16.000Z</time>
      </trkpt>
      <trkpt lat="46.18613" lon="4.73999">
        <ele>194</ele>
        <time>2021-10-23T15:14:20.000Z</time>
      </trkpt>
      <trkpt lat="46.1868" lon="4.74001">
        <ele>192</ele>
        <time>2021-10-23T15:14:31.000Z</time>
      </trkpt>
      <trkpt lat="46.18686" lon="4.7403">
        <ele>191.19999694824</ele>
        <time>2021-10-23T15:14:37.000Z</time>
      </trkpt>
      <trkpt lat="46.18678" lon="4.74043">
        <ele>191</ele>
        <time>2021-10-23T15:14:39.000Z</time>
      </trkpt>
      <trkpt lat="46.1867" lon="4.74056">
        <ele>190.80000305176</ele>
        <time>2021-10-23T15:14:41.000Z</time>
      </trkpt>
      <trkpt lat="46.18641" lon="4.74092">
        <ele>191</ele>
        <time>2021-10-23T15:14:49.000Z</time>
      </trkpt>
      <trkpt lat="46.18653" lon="4.74111">
        <ele>191</ele>
        <time>2021-10-23T15:14:54.000Z</time>
      </trkpt>
      <trkpt lat="46.18694" lon="4.74134">
        <ele>190</ele>
        <time>2021-10-23T15:15:01.000Z</time>
      </trkpt>
      <trkpt lat="46.18773" lon="4.74168">
        <ele>187.19999694824</ele>
        <time>2021-10-23T15:15:15.000Z</time>
      </trkpt>
      <trkpt lat="46.18798" lon="4.74176">
        <ele>188</ele>
        <time>2021-10-23T15:15:22.000Z</time>
      </trkpt>
      <trkpt lat="46.18884" lon="4.74195">
        <ele>189</ele>
        <time>2021-10-23T15:15:37.000Z</time>
      </trkpt>
      <trkpt lat="46.18981" lon="4.74206">
        <ele>189.39999389648</ele>
        <time>2021-10-23T15:15:53.000Z</time>
      </trkpt>
      <trkpt lat="46.19084" lon="4.74218">
        <ele>187.39999389648</ele>
        <time>2021-10-23T15:16:10.000Z</time>
      </trkpt>
      <trkpt lat="46.19187" lon="4.74218">
        <ele>183</ele>
        <time>2021-10-23T15:16:26.000Z</time>
      </trkpt>
      <trkpt lat="46.19192" lon="4.74218">
        <ele>183.19999694824</ele>
        <time>2021-10-23T15:16:27.000Z</time>
      </trkpt>
      <trkpt lat="46.19197" lon="4.74216">
        <ele>183.39999389648</ele>
        <time>2021-10-23T15:16:28.000Z</time>
      </trkpt>
      <trkpt lat="46.19201" lon="4.74214">
        <ele>183.60000610352</ele>
        <time>2021-10-23T15:16:29.000Z</time>
      </trkpt>
      <trkpt lat="46.19205" lon="4.74209">
        <ele>183.80000305176</ele>
        <time>2021-10-23T15:16:30.000Z</time>
      </trkpt>
      <trkpt lat="46.19209" lon="4.74203">
        <ele>183.80000305176</ele>
        <time>2021-10-23T15:16:31.000Z</time>
      </trkpt>
      <trkpt lat="46.19212" lon="4.74197">
        <ele>184.19999694824</ele>
        <time>2021-10-23T15:16:32.000Z</time>
      </trkpt>
      <trkpt lat="46.19218" lon="4.74183">
        <ele>184.80000305176</ele>
        <time>2021-10-23T15:16:34.000Z</time>
      </trkpt>
      <trkpt lat="46.19219" lon="4.74177">
        <ele>185</ele>
        <time>2021-10-23T15:16:35.000Z</time>
      </trkpt>
      <trkpt lat="46.19223" lon="4.74163">
        <ele>185.80000305176</ele>
        <time>2021-10-23T15:16:37.000Z</time>
      </trkpt>
      <trkpt lat="46.19224" lon="4.74122">
        <ele>186</ele>
        <time>2021-10-23T15:16:42.000Z</time>
      </trkpt>
      <trkpt lat="46.19222" lon="4.74105">
        <ele>186</ele>
        <time>2021-10-23T15:16:44.000Z</time>
      </trkpt>
      <trkpt lat="46.1921" lon="4.74038">
        <ele>184.19999694824</ele>
        <time>2021-10-23T15:16:53.000Z</time>
      </trkpt>
      <trkpt lat="46.19211" lon="4.74024">
        <ele>184.19999694824</ele>
        <time>2021-10-23T15:16:55.000Z</time>
      </trkpt>
      <trkpt lat="46.19217" lon="4.73973">
        <ele>186</ele>
        <time>2021-10-23T15:17:05.000Z</time>
      </trkpt>
      <trkpt lat="46.19219" lon="4.73971">
        <ele>186</ele>
        <time>2021-10-23T15:17:06.000Z</time>
      </trkpt>
      <trkpt lat="46.19234" lon="4.73985">
        <ele>185</ele>
        <time>2021-10-23T15:17:12.000Z</time>
      </trkpt>
      <trkpt lat="46.19232" lon="4.73993">
        <ele>184.80000305176</ele>
        <time>2021-10-23T15:17:13.000Z</time>
      </trkpt>
      <trkpt lat="46.19227" lon="4.74028">
        <ele>184</ele>
        <time>2021-10-23T15:17:17.000Z</time>
      </trkpt>
      <trkpt lat="46.1923" lon="4.74063">
        <ele>184.39999389648</ele>
        <time>2021-10-23T15:17:21.000Z</time>
      </trkpt>
      <trkpt lat="46.19254" lon="4.74138">
        <ele>186</ele>
        <time>2021-10-23T15:17:30.000Z</time>
      </trkpt>
      <trkpt lat="46.19256" lon="4.74147">
        <ele>186</ele>
        <time>2021-10-23T15:17:31.000Z</time>
      </trkpt>
      <trkpt lat="46.19258" lon="4.74166">
        <ele>186</ele>
        <time>2021-10-23T15:17:33.000Z</time>
      </trkpt>
      <trkpt lat="46.19271" lon="4.74198">
        <ele>186</ele>
        <time>2021-10-23T15:17:37.000Z</time>
      </trkpt>
      <trkpt lat="46.19279" lon="4.7421">
        <ele>185.60000610352</ele>
        <time>2021-10-23T15:17:39.000Z</time>
      </trkpt>
      <trkpt lat="46.19358" lon="4.74277">
        <ele>184</ele>
        <time>2021-10-23T15:17:53.000Z</time>
      </trkpt>
      <trkpt lat="46.19391" lon="4.74304">
        <ele>183.60000610352</ele>
        <time>2021-10-23T15:17:59.000Z</time>
      </trkpt>
      <trkpt lat="46.19408" lon="4.74339">
        <ele>183</ele>
        <time>2021-10-23T15:18:04.000Z</time>
      </trkpt>
      <trkpt lat="46.19413" lon="4.74365">
        <ele>182</ele>
        <time>2021-10-23T15:18:07.000Z</time>
      </trkpt>
      <trkpt lat="46.19412" lon="4.74402">
        <ele>182</ele>
        <time>2021-10-23T15:18:11.000Z</time>
      </trkpt>
      <trkpt lat="46.19399" lon="4.74457">
        <ele>181.80000305176</ele>
        <time>2021-10-23T15:18:18.000Z</time>
      </trkpt>
      <trkpt lat="46.1941" lon="4.74483">
        <ele>180.80000305176</ele>
        <time>2021-10-23T15:18:23.000Z</time>
      </trkpt>
      <trkpt lat="46.19456" lon="4.74502">
        <ele>178.39999389648</ele>
        <time>2021-10-23T15:18:32.000Z</time>
      </trkpt>
      <trkpt lat="46.1946" lon="4.74501">
        <ele>178.39999389648</ele>
        <time>2021-10-23T15:18:33.000Z</time>
      </trkpt>
      <trkpt lat="46.19464" lon="4.74498">
        <ele>178.39999389648</ele>
        <time>2021-10-23T15:18:34.000Z</time>
      </trkpt>
      <trkpt lat="46.19466" lon="4.74492">
        <ele>178.60000610352</ele>
        <time>2021-10-23T15:18:35.000Z</time>
      </trkpt>
      <trkpt lat="46.19468" lon="4.74485">
        <ele>178.80000305176</ele>
        <time>2021-10-23T15:18:36.000Z</time>
      </trkpt>
      <trkpt lat="46.19469" lon="4.74478">
        <ele>179</ele>
        <time>2021-10-23T15:18:37.000Z</time>
      </trkpt>
      <trkpt lat="46.19471" lon="4.74469">
        <ele>179.39999389648</ele>
        <time>2021-10-23T15:18:38.000Z</time>
      </trkpt>
      <trkpt lat="46.19499" lon="4.74362">
        <ele>183</ele>
        <time>2021-10-23T15:18:51.000Z</time>
      </trkpt>
      <trkpt lat="46.19502" lon="4.74355">
        <ele>183.60000610352</ele>
        <time>2021-10-23T15:18:52.000Z</time>
      </trkpt>
      <trkpt lat="46.19508" lon="4.74343">
        <ele>184.60000610352</ele>
        <time>2021-10-23T15:18:54.000Z</time>
      </trkpt>
      <trkpt lat="46.1951" lon="4.74337">
        <ele>185.19999694824</ele>
        <time>2021-10-23T15:18:55.000Z</time>
      </trkpt>
      <trkpt lat="46.19512" lon="4.7433">
        <ele>185.60000610352</ele>
        <time>2021-10-23T15:18:56.000Z</time>
      </trkpt>
      <trkpt lat="46.19518" lon="4.74311">
        <ele>187</ele>
        <time>2021-10-23T15:18:59.000Z</time>
      </trkpt>
      <trkpt lat="46.19521" lon="4.74307">
        <ele>187.60000610352</ele>
        <time>2021-10-23T15:19:00.000Z</time>
      </trkpt>
      <trkpt lat="46.19524" lon="4.74304">
        <ele>188.19999694824</ele>
        <time>2021-10-23T15:19:01.000Z</time>
      </trkpt>
      <trkpt lat="46.19528" lon="4.74303">
        <ele>188.60000610352</ele>
        <time>2021-10-23T15:19:02.000Z</time>
      </trkpt>
      <trkpt lat="46.19531" lon="4.74305">
        <ele>188.80000305176</ele>
        <time>2021-10-23T15:19:03.000Z</time>
      </trkpt>
      <trkpt lat="46.19534" lon="4.74309">
        <ele>188.80000305176</ele>
        <time>2021-10-23T15:19:04.000Z</time>
      </trkpt>
      <trkpt lat="46.19537" lon="4.74314">
        <ele>188.80000305176</ele>
        <time>2021-10-23T15:19:05.000Z</time>
      </trkpt>
      <trkpt lat="46.1954" lon="4.74318">
        <ele>189</ele>
        <time>2021-10-23T15:19:06.000Z</time>
      </trkpt>
      <trkpt lat="46.19566" lon="4.74365">
        <ele>190.39999389648</ele>
        <time>2021-10-23T15:19:15.000Z</time>
      </trkpt>
      <trkpt lat="46.1957" lon="4.74369">
        <ele>190.60000610352</ele>
        <time>2021-10-23T15:19:16.000Z</time>
      </trkpt>
      <trkpt lat="46.19573" lon="4.74373">
        <ele>190.60000610352</ele>
        <time>2021-10-23T15:19:17.000Z</time>
      </trkpt>
      <trkpt lat="46.19577" lon="4.74376">
        <ele>190.39999389648</ele>
        <time>2021-10-23T15:19:18.000Z</time>
      </trkpt>
      <trkpt lat="46.1958" lon="4.74378">
        <ele>190.19999694824</ele>
        <time>2021-10-23T15:19:19.000Z</time>
      </trkpt>
      <trkpt lat="46.19589" lon="4.74381">
        <ele>190.5</ele>
        <time>2021-10-23T15:19:32.000Z</time>
      </trkpt>
      <trkpt lat="46.19592" lon="4.74366">
        <ele>191.4</ele>
        <time>2021-10-23T15:19:36.000Z</time>
      </trkpt>
      <trkpt lat="46.19596" lon="4.74313">
        <ele>193.6</ele>
        <time>2021-10-23T15:19:37.000Z</time>
      </trkpt>
      <trkpt lat="46.19599" lon="4.7426">
        <ele>196.6</ele>
        <time>2021-10-23T15:19:40.000Z</time>
      </trkpt>
      <trkpt lat="46.19605" lon="4.74193">
        <ele>199.9</ele>
        <time>2021-10-23T15:19:56.000Z</time>
      </trkpt>
      <trkpt lat="46.19628" lon="4.74194">
        <ele>201.2</ele>
        <time>2021-10-23T15:20:05.000Z</time>
      </trkpt>
      <trkpt lat="46.19659" lon="4.74196">
        <ele>202.6</ele>
        <time>2021-10-23T15:20:09.000Z</time>
      </trkpt>
      <trkpt lat="46.19659" lon="4.74185">
        <ele>201.60000610352</ele>
        <time>2021-10-23T15:20:17.000Z</time>
      </trkpt>
      <trkpt lat="46.1966" lon="4.7418">
        <ele>201.80000305176</ele>
        <time>2021-10-23T15:20:18.000Z</time>
      </trkpt>
      <trkpt lat="46.19664" lon="4.74119">
        <ele>203</ele>
        <time>2021-10-23T15:20:27.000Z</time>
      </trkpt>
      <trkpt lat="46.19679" lon="4.74114">
        <ele>203.19999694824</ele>
        <time>2021-10-23T15:20:32.000Z</time>
      </trkpt>
      <trkpt lat="46.19708" lon="4.74118">
        <ele>203</ele>
        <time>2021-10-23T15:20:40.000Z</time>
      </trkpt>
      <trkpt lat="46.1971" lon="4.74116">
        <ele>203</ele>
        <time>2021-10-23T15:20:41.000Z</time>
      </trkpt>
      <trkpt lat="46.19713" lon="4.74113">
        <ele>203</ele>
        <time>2021-10-23T15:20:42.000Z</time>
      </trkpt>
      <trkpt lat="46.19714" lon="4.74109">
        <ele>203</ele>
        <time>2021-10-23T15:20:43.000Z</time>
      </trkpt>
      <trkpt lat="46.19715" lon="4.74104">
        <ele>203</ele>
        <time>2021-10-23T15:20:44.000Z</time>
      </trkpt>
      <trkpt lat="46.19715" lon="4.74099">
        <ele>203</ele>
        <time>2021-10-23T15:20:45.000Z</time>
      </trkpt>
      <trkpt lat="46.1972" lon="4.73987">
        <ele>208.60000610352</ele>
        <time>2021-10-23T15:21:00.000Z</time>
      </trkpt>
      <trkpt lat="46.19721" lon="4.73972">
        <ele>209</ele>
        <time>2021-10-23T15:21:03.000Z</time>
      </trkpt>
      <trkpt lat="46.19723" lon="4.7397">
        <ele>209</ele>
        <time>2021-10-23T15:21:04.000Z</time>
      </trkpt>
      <trkpt lat="46.1973" lon="4.73969">
        <ele>208.80000305176</ele>
        <time>2021-10-23T15:21:06.000Z</time>
      </trkpt>
      <trkpt lat="46.19787" lon="4.73975">
        <ele>207.39999389648</ele>
        <time>2021-10-23T15:21:19.000Z</time>
      </trkpt>
      <trkpt lat="46.19804" lon="4.73983">
        <ele>207</ele>
        <time>2021-10-23T15:21:25.000Z</time>
      </trkpt>
      <trkpt lat="46.19812" lon="4.73978">
        <ele>207</ele>
        <time>2021-10-23T15:21:29.000Z</time>
      </trkpt>
      <trkpt lat="46.19817" lon="4.73973">
        <ele>207</ele>
        <time>2021-10-23T15:21:31.000Z</time>
      </trkpt>
      <trkpt lat="46.19882" lon="4.73987">
        <ele>205.80000305176</ele>
        <time>2021-10-23T15:21:42.000Z</time>
      </trkpt>
      <trkpt lat="46.19963" lon="4.74021">
        <ele>206.39999389648</ele>
        <time>2021-10-23T15:21:55.000Z</time>
      </trkpt>
      <trkpt lat="46.20016" lon="4.74033">
        <ele>204.19999694824</ele>
        <time>2021-10-23T15:22:03.000Z</time>
      </trkpt>
      <trkpt lat="46.20048" lon="4.74023">
        <ele>202</ele>
        <time>2021-10-23T15:22:08.000Z</time>
      </trkpt>
      <trkpt lat="46.20083" lon="4.74031">
        <ele>199.60000610352</ele>
        <time>2021-10-23T15:22:13.000Z</time>
      </trkpt>
      <trkpt lat="46.20109" lon="4.74052">
        <ele>197.19999694824</ele>
        <time>2021-10-23T15:22:17.000Z</time>
      </trkpt>
      <trkpt lat="46.20135" lon="4.74094">
        <ele>194.80000305176</ele>
        <time>2021-10-23T15:22:22.000Z</time>
      </trkpt>
      <trkpt lat="46.20146" lon="4.74125">
        <ele>194.39999389648</ele>
        <time>2021-10-23T15:22:25.000Z</time>
      </trkpt>
      <trkpt lat="46.20171" lon="4.7418">
        <ele>192.80000305176</ele>
        <time>2021-10-23T15:22:32.000Z</time>
      </trkpt>
      <trkpt lat="46.20156" lon="4.74187">
        <ele>192.60000610352</ele>
        <time>2021-10-23T15:22:39.000Z</time>
      </trkpt>
      <trkpt lat="46.20149" lon="4.74204">
        <ele>192</ele>
        <time>2021-10-23T15:22:42.000Z</time>
      </trkpt>
      <trkpt lat="46.20144" lon="4.74216">
        <ele>191.60000610352</ele>
        <time>2021-10-23T15:22:44.000Z</time>
      </trkpt>
      <trkpt lat="46.20141" lon="4.74222">
        <ele>191.60000610352</ele>
        <time>2021-10-23T15:22:45.000Z</time>
      </trkpt>
      <trkpt lat="46.20139" lon="4.74227">
        <ele>191.60000610352</ele>
        <time>2021-10-23T15:22:46.000Z</time>
      </trkpt>
      <trkpt lat="46.20139" lon="4.74231">
        <ele>191.80000305176</ele>
        <time>2021-10-23T15:22:47.000Z</time>
      </trkpt>
      <trkpt lat="46.20138" lon="4.74234">
        <ele>191.80000305176</ele>
        <time>2021-10-23T15:22:48.000Z</time>
      </trkpt>
      <trkpt lat="46.20139" lon="4.74237">
        <ele>191.60000610352</ele>
        <time>2021-10-23T15:22:49.000Z</time>
      </trkpt>
      <trkpt lat="46.2014" lon="4.7424">
        <ele>191.60000610352</ele>
        <time>2021-10-23T15:22:50.000Z</time>
      </trkpt>
      <trkpt lat="46.20142" lon="4.74244">
        <ele>191.39999389648</ele>
        <time>2021-10-23T15:22:51.000Z</time>
      </trkpt>
      <trkpt lat="46.20152" lon="4.74266">
        <ele>190.60000610352</ele>
        <time>2021-10-23T15:22:55.000Z</time>
      </trkpt>
      <trkpt lat="46.20164" lon="4.74294">
        <ele>189.80000305176</ele>
        <time>2021-10-23T15:22:59.000Z</time>
      </trkpt>
      <trkpt lat="46.20188" lon="4.74326">
        <ele>190</ele>
        <time>2021-10-23T15:23:05.000Z</time>
      </trkpt>
      <trkpt lat="46.20198" lon="4.7436">
        <ele>190.39999389648</ele>
        <time>2021-10-23T15:23:10.000Z</time>
      </trkpt>
      <trkpt lat="46.20206" lon="4.74391">
        <ele>189.80000305176</ele>
        <time>2021-10-23T15:23:15.000Z</time>
      </trkpt>
      <trkpt lat="46.20193" lon="4.74398">
        <ele>189.19999694824</ele>
        <time>2021-10-23T15:23:21.000Z</time>
      </trkpt>
      <trkpt lat="46.20173" lon="4.74392">
        <ele>189</ele>
        <time>2021-10-23T15:23:25.000Z</time>
      </trkpt>
      <trkpt lat="46.2016" lon="4.74403">
        <ele>189</ele>
        <time>2021-10-23T15:23:30.000Z</time>
      </trkpt>
      <trkpt lat="46.20163" lon="4.74422">
        <ele>189</ele>
        <time>2021-10-23T15:23:33.000Z</time>
      </trkpt>
      <trkpt lat="46.20166" lon="4.74503">
        <ele>188</ele>
        <time>2021-10-23T15:23:44.000Z</time>
      </trkpt>
      <trkpt lat="46.20167" lon="4.7453">
        <ele>187.39999389648</ele>
        <time>2021-10-23T15:23:48.000Z</time>
      </trkpt>
      <trkpt lat="46.20154" lon="4.74568">
        <ele>186.80000305176</ele>
        <time>2021-10-23T15:23:55.000Z</time>
      </trkpt>
      <trkpt lat="46.20142" lon="4.74579">
        <ele>186.39999389648</ele>
        <time>2021-10-23T15:23:58.000Z</time>
      </trkpt>
      <trkpt lat="46.2011" lon="4.74616">
        <ele>186.19999694824</ele>
        <time>2021-10-23T15:24:06.000Z</time>
      </trkpt>
      <trkpt lat="46.20097" lon="4.74643">
        <ele>186.60000610352</ele>
        <time>2021-10-23T15:24:12.000Z</time>
      </trkpt>
      <trkpt lat="46.20103" lon="4.74653">
        <ele>186.80000305176</ele>
        <time>2021-10-23T15:24:16.000Z</time>
      </trkpt>
      <trkpt lat="46.20184" lon="4.74693">
        <ele>188.19999694824</ele>
        <time>2021-10-23T15:24:32.000Z</time>
      </trkpt>
      <trkpt lat="46.20219" lon="4.74702">
        <ele>190.39999389648</ele>
        <time>2021-10-23T15:24:38.000Z</time>
      </trkpt>
      <trkpt lat="46.20248" lon="4.74702">
        <ele>192</ele>
        <time>2021-10-23T15:24:43.000Z</time>
      </trkpt>
      <trkpt lat="46.2027" lon="4.74695">
        <ele>192</ele>
        <time>2021-10-23T15:24:47.000Z</time>
      </trkpt>
      <trkpt lat="46.20296" lon="4.74697">
        <ele>192.80000305176</ele>
        <time>2021-10-23T15:24:52.000Z</time>
      </trkpt>
      <trkpt lat="46.20314" lon="4.74703">
        <ele>193.60000610352</ele>
        <time>2021-10-23T15:24:56.000Z</time>
      </trkpt>
      <trkpt lat="46.20366" lon="4.74728">
        <ele>197.39999389648</ele>
        <time>2021-10-23T15:25:07.000Z</time>
      </trkpt>
      <trkpt lat="46.20385" lon="4.74735">
        <ele>198.19999694824</ele>
        <time>2021-10-23T15:25:12.000Z</time>
      </trkpt>
      <trkpt lat="46.20413" lon="4.74739">
        <ele>199</ele>
        <time>2021-10-23T15:25:18.000Z</time>
      </trkpt>
      <trkpt lat="46.20436" lon="4.74741">
        <ele>199.60000610352</ele>
        <time>2021-10-23T15:25:23.000Z</time>
      </trkpt>
      <trkpt lat="46.20481" lon="4.74737">
        <ele>198.80000305176</ele>
        <time>2021-10-23T15:25:36.000Z</time>
      </trkpt>
      <trkpt lat="46.20487" lon="4.74735">
        <ele>198.80000305176</ele>
        <time>2021-10-23T15:25:40.000Z</time>
      </trkpt>
      <trkpt lat="46.20519" lon="4.74787">
        <ele>194</ele>
        <time>2021-10-23T15:25:49.000Z</time>
      </trkpt>
      <trkpt lat="46.20538" lon="4.74817">
        <ele>192.19999694824</ele>
        <time>2021-10-23T15:25:53.000Z</time>
      </trkpt>
      <trkpt lat="46.20553" lon="4.74839">
        <ele>190.80000305176</ele>
        <time>2021-10-23T15:25:56.000Z</time>
      </trkpt>
      <trkpt lat="46.20583" lon="4.74882">
        <ele>189.80000305176</ele>
        <time>2021-10-23T15:26:02.000Z</time>
      </trkpt>
      <trkpt lat="46.20673" lon="4.75001">
        <ele>188.60000610352</ele>
        <time>2021-10-23T15:26:21.000Z</time>
      </trkpt>
      <trkpt lat="46.20677" lon="4.75006">
        <ele>188.60000610352</ele>
        <time>2021-10-23T15:26:22.000Z</time>
      </trkpt>
      <trkpt lat="46.20689" lon="4.7502">
        <ele>188.60000610352</ele>
        <time>2021-10-23T15:27:05.000Z</time>
      </trkpt>
      <trkpt lat="46.2079" lon="4.75133">
        <ele>191.80000305176</ele>
        <time>2021-10-23T15:27:27.000Z</time>
      </trkpt>
      <trkpt lat="46.20848" lon="4.75206">
        <ele>191.60000610352</ele>
        <time>2021-10-23T15:27:43.000Z</time>
      </trkpt>
      <trkpt lat="46.20869" lon="4.7524">
        <ele>192</ele>
        <time>2021-10-23T15:27:55.000Z</time>
      </trkpt>
      <trkpt lat="46.20932" lon="4.75304">
        <ele>197.39999389648</ele>
        <time>2021-10-23T15:28:09.000Z</time>
      </trkpt>
      <trkpt lat="46.20995" lon="4.75343">
        <ele>203.19999694824</ele>
        <time>2021-10-23T15:28:21.000Z</time>
      </trkpt>
      <trkpt lat="46.21015" lon="4.75355">
        <ele>204.60000610352</ele>
        <time>2021-10-23T15:28:25.000Z</time>
      </trkpt>
      <trkpt lat="46.21055" lon="4.75383">
        <ele>206.60000610352</ele>
        <time>2021-10-23T15:28:34.000Z</time>
      </trkpt>
      <trkpt lat="46.21089" lon="4.75416">
        <ele>208.80000305176</ele>
        <time>2021-10-23T15:28:44.000Z</time>
      </trkpt>
      <trkpt lat="46.21087" lon="4.75496">
        <ele>207.19999694824</ele>
        <time>2021-10-23T15:28:56.000Z</time>
      </trkpt>
      <trkpt lat="46.21086" lon="4.75503">
        <ele>207.19999694824</ele>
        <time>2021-10-23T15:28:57.000Z</time>
      </trkpt>
      <trkpt lat="46.21096" lon="4.75524">
        <ele>206</ele>
        <time>2021-10-23T15:29:01.000Z</time>
      </trkpt>
      <trkpt lat="46.21106" lon="4.75528">
        <ele>205</ele>
        <time>2021-10-23T15:29:03.000Z</time>
      </trkpt>
      <trkpt lat="46.21135" lon="4.75546">
        <ele>202.60000610352</ele>
        <time>2021-10-23T15:29:08.000Z</time>
      </trkpt>
      <trkpt lat="46.21176" lon="4.75574">
        <ele>198</ele>
        <time>2021-10-23T15:29:14.000Z</time>
      </trkpt>
      <trkpt lat="46.21183" lon="4.7558">
        <ele>197</ele>
        <time>2021-10-23T15:29:15.000Z</time>
      </trkpt>
      <trkpt lat="46.21232" lon="4.75613">
        <ele>193.19999694824</ele>
        <time>2021-10-23T15:29:21.000Z</time>
      </trkpt>
      <trkpt lat="46.21226" lon="4.75632">
        <ele>194.2</ele>
        <time>2021-10-23T15:30:10.000Z</time>
      </trkpt>
    </trkseg>
  </trk>
</gpx>